<?xml version="1.0" encoding="UTF-8" standalone="no" ?>
<gpx xmlns="http://www.topografix.com/GPX/1/1" xmlns:xsi="http://www.w3.org/2001/XMLSchema-instance" xsi:schemaLocation="http://www.topografix.com/GPX/1/1 http://www.topografix.com/GPX/1/1/gpx.xsd" version="1.1" creator="VisuGPX - https://www.visugpx.com">
  <metadata>
    <name>gr70 E5: 22 JUIL 2021 07:50</name>
    <desc><![CDATA[
]]></desc>
  </metadata>
  <trk>
    <name><![CDATA[Tracé actuel: 22 JUIL 2021 07:50]]></name>
    <trkseg>
      <trkpt lat="44.49083" lon="3.7427">
        <ele>1061.43</ele>
        <time>2021-07-22T05:50:31Z</time>
      </trkpt>
      <trkpt lat="44.49095" lon="3.7429">
        <ele>1062.39</ele>
        <time>2021-07-22T05:50:49Z</time>
      </trkpt>
      <trkpt lat="44.49097" lon="3.7429">
        <ele>1066.72</ele>
        <time>2021-07-22T05:51:14Z</time>
      </trkpt>
      <trkpt lat="44.49098" lon="3.74298">
        <ele>1072.97</ele>
        <time>2021-07-22T05:51:36Z</time>
      </trkpt>
      <trkpt lat="44.49098" lon="3.74298">
        <ele>1072.01</ele>
        <time>2021-07-22T05:51:56Z</time>
      </trkpt>
      <trkpt lat="44.491" lon="3.74292">
        <ele>1073.45</ele>
        <time>2021-07-22T05:52:14Z</time>
      </trkpt>
      <trkpt lat="44.49099" lon="3.74296">
        <ele>1073.93</ele>
        <time>2021-07-22T05:52:40Z</time>
      </trkpt>
      <trkpt lat="44.49099" lon="3.74296">
        <ele>1074.41</ele>
        <time>2021-07-22T05:53:03Z</time>
      </trkpt>
      <trkpt lat="44.49097" lon="3.74296">
        <ele>1074.41</ele>
        <time>2021-07-22T05:53:35Z</time>
      </trkpt>
      <trkpt lat="44.49097" lon="3.74296">
        <ele>1074.41</ele>
        <time>2021-07-22T05:54:04Z</time>
      </trkpt>
      <trkpt lat="44.49098" lon="3.74296">
        <ele>1074.41</ele>
        <time>2021-07-22T05:54:27Z</time>
      </trkpt>
      <trkpt lat="44.49098" lon="3.74297">
        <ele>1074.41</ele>
        <time>2021-07-22T05:54:46Z</time>
      </trkpt>
      <trkpt lat="44.49097" lon="3.74296">
        <ele>1074.41</ele>
        <time>2021-07-22T05:55:09Z</time>
      </trkpt>
      <trkpt lat="44.49097" lon="3.74297">
        <ele>1074.41</ele>
        <time>2021-07-22T05:55:26Z</time>
      </trkpt>
      <trkpt lat="44.49097" lon="3.74297">
        <ele>1074.41</ele>
        <time>2021-07-22T05:55:49Z</time>
      </trkpt>
      <trkpt lat="44.49098" lon="3.74298">
        <ele>1074.41</ele>
        <time>2021-07-22T05:56:14Z</time>
      </trkpt>
      <trkpt lat="44.49098" lon="3.74298">
        <ele>1074.89</ele>
        <time>2021-07-22T05:56:22Z</time>
      </trkpt>
      <trkpt lat="44.49099" lon="3.74298">
        <ele>1075.85</ele>
        <time>2021-07-22T05:56:32Z</time>
      </trkpt>
      <trkpt lat="44.49099" lon="3.74298">
        <ele>1074.89</ele>
        <time>2021-07-22T05:56:51Z</time>
      </trkpt>
      <trkpt lat="44.49099" lon="3.74298">
        <ele>1075.37</ele>
        <time>2021-07-22T05:56:56Z</time>
      </trkpt>
      <trkpt lat="44.49097" lon="3.74304">
        <ele>1074.89</ele>
        <time>2021-07-22T05:56:59Z</time>
      </trkpt>
      <trkpt lat="44.49095" lon="3.74312">
        <ele>1074.89</ele>
        <time>2021-07-22T05:57:03Z</time>
      </trkpt>
      <trkpt lat="44.49091" lon="3.74347">
        <ele>1072.97</ele>
        <time>2021-07-22T05:57:18Z</time>
      </trkpt>
      <trkpt lat="44.49105" lon="3.74358">
        <ele>1075.37</ele>
        <time>2021-07-22T05:57:29Z</time>
      </trkpt>
      <trkpt lat="44.49108" lon="3.74359">
        <ele>1075.37</ele>
        <time>2021-07-22T05:57:33Z</time>
      </trkpt>
      <trkpt lat="44.49113" lon="3.74357">
        <ele>1075.85</ele>
        <time>2021-07-22T05:57:37Z</time>
      </trkpt>
      <trkpt lat="44.49124" lon="3.74359">
        <ele>1078.74</ele>
        <time>2021-07-22T05:57:47Z</time>
      </trkpt>
      <trkpt lat="44.49124" lon="3.7437">
        <ele>1078.74</ele>
        <time>2021-07-22T05:58:00Z</time>
      </trkpt>
      <trkpt lat="44.49123" lon="3.7437">
        <ele>1078.26</ele>
        <time>2021-07-22T05:58:25Z</time>
      </trkpt>
      <trkpt lat="44.49124" lon="3.7437">
        <ele>1078.26</ele>
        <time>2021-07-22T05:58:53Z</time>
      </trkpt>
      <trkpt lat="44.49124" lon="3.74371">
        <ele>1078.26</ele>
        <time>2021-07-22T05:58:55Z</time>
      </trkpt>
      <trkpt lat="44.49127" lon="3.74368">
        <ele>1078.26</ele>
        <time>2021-07-22T05:59:06Z</time>
      </trkpt>
      <trkpt lat="44.49131" lon="3.74362">
        <ele>1078.26</ele>
        <time>2021-07-22T05:59:10Z</time>
      </trkpt>
      <trkpt lat="44.49132" lon="3.74356">
        <ele>1078.74</ele>
        <time>2021-07-22T05:59:14Z</time>
      </trkpt>
      <trkpt lat="44.49134" lon="3.74303">
        <ele>1077.78</ele>
        <time>2021-07-22T05:59:31Z</time>
      </trkpt>
      <trkpt lat="44.4913" lon="3.74233">
        <ele>1077.78</ele>
        <time>2021-07-22T05:59:50Z</time>
      </trkpt>
      <trkpt lat="44.49126" lon="3.74176">
        <ele>1078.26</ele>
        <time>2021-07-22T06:00:07Z</time>
      </trkpt>
      <trkpt lat="44.49117" lon="3.74115">
        <ele>1078.26</ele>
        <time>2021-07-22T06:00:23Z</time>
      </trkpt>
      <trkpt lat="44.49091" lon="3.74067">
        <ele>1076.81</ele>
        <time>2021-07-22T06:00:39Z</time>
      </trkpt>
      <trkpt lat="44.49062" lon="3.74036">
        <ele>1076.33</ele>
        <time>2021-07-22T06:00:52Z</time>
      </trkpt>
      <trkpt lat="44.4904" lon="3.74009">
        <ele>1075.37</ele>
        <time>2021-07-22T06:01:06Z</time>
      </trkpt>
      <trkpt lat="44.49021" lon="3.73949">
        <ele>1074.41</ele>
        <time>2021-07-22T06:01:23Z</time>
      </trkpt>
      <trkpt lat="44.49021" lon="3.73945">
        <ele>1074.41</ele>
        <time>2021-07-22T06:01:24Z</time>
      </trkpt>
      <trkpt lat="44.49012" lon="3.73946">
        <ele>1074.89</ele>
        <time>2021-07-22T06:01:29Z</time>
      </trkpt>
      <trkpt lat="44.49002" lon="3.73943">
        <ele>1075.37</ele>
        <time>2021-07-22T06:01:34Z</time>
      </trkpt>
      <trkpt lat="44.48943" lon="3.73931">
        <ele>1073.93</ele>
        <time>2021-07-22T06:01:47Z</time>
      </trkpt>
      <trkpt lat="44.48917" lon="3.73906">
        <ele>1073.45</ele>
        <time>2021-07-22T06:01:59Z</time>
      </trkpt>
      <trkpt lat="44.48911" lon="3.73866">
        <ele>1073.45</ele>
        <time>2021-07-22T06:02:15Z</time>
      </trkpt>
      <trkpt lat="44.48899" lon="3.73817">
        <ele>1074.89</ele>
        <time>2021-07-22T06:02:35Z</time>
      </trkpt>
      <trkpt lat="44.48888" lon="3.73818">
        <ele>1075.85</ele>
        <time>2021-07-22T06:02:44Z</time>
      </trkpt>
      <trkpt lat="44.48877" lon="3.73814">
        <ele>1075.85</ele>
        <time>2021-07-22T06:02:55Z</time>
      </trkpt>
      <trkpt lat="44.48885" lon="3.73811">
        <ele>1075.85</ele>
        <time>2021-07-22T06:03:04Z</time>
      </trkpt>
      <trkpt lat="44.48885" lon="3.73805">
        <ele>1075.37</ele>
        <time>2021-07-22T06:03:06Z</time>
      </trkpt>
      <trkpt lat="44.48873" lon="3.73785">
        <ele>1075.37</ele>
        <time>2021-07-22T06:03:21Z</time>
      </trkpt>
      <trkpt lat="44.48853" lon="3.73771">
        <ele>1078.26</ele>
        <time>2021-07-22T06:03:36Z</time>
      </trkpt>
      <trkpt lat="44.48837" lon="3.73756">
        <ele>1079.7</ele>
        <time>2021-07-22T06:03:50Z</time>
      </trkpt>
      <trkpt lat="44.48824" lon="3.73735">
        <ele>1080.18</ele>
        <time>2021-07-22T06:04:04Z</time>
      </trkpt>
      <trkpt lat="44.48812" lon="3.73712">
        <ele>1082.1</ele>
        <time>2021-07-22T06:04:19Z</time>
      </trkpt>
      <trkpt lat="44.48808" lon="3.73706">
        <ele>1083.06</ele>
        <time>2021-07-22T06:04:24Z</time>
      </trkpt>
      <trkpt lat="44.48796" lon="3.73684">
        <ele>1084.02</ele>
        <time>2021-07-22T06:04:39Z</time>
      </trkpt>
      <trkpt lat="44.48785" lon="3.73662">
        <ele>1087.39</ele>
        <time>2021-07-22T06:04:54Z</time>
      </trkpt>
      <trkpt lat="44.48773" lon="3.73643">
        <ele>1090.27</ele>
        <time>2021-07-22T06:05:08Z</time>
      </trkpt>
      <trkpt lat="44.48771" lon="3.7364">
        <ele>1090.75</ele>
        <time>2021-07-22T06:05:10Z</time>
      </trkpt>
      <trkpt lat="44.48762" lon="3.73633">
        <ele>1092.68</ele>
        <time>2021-07-22T06:05:17Z</time>
      </trkpt>
      <trkpt lat="44.48741" lon="3.73614">
        <ele>1093.64</ele>
        <time>2021-07-22T06:05:31Z</time>
      </trkpt>
      <trkpt lat="44.48714" lon="3.73584">
        <ele>1089.31</ele>
        <time>2021-07-22T06:05:45Z</time>
      </trkpt>
      <trkpt lat="44.48684" lon="3.73561">
        <ele>1084.02</ele>
        <time>2021-07-22T06:05:56Z</time>
      </trkpt>
      <trkpt lat="44.48676" lon="3.73553">
        <ele>1083.06</ele>
        <time>2021-07-22T06:06:00Z</time>
      </trkpt>
      <trkpt lat="44.48658" lon="3.73561">
        <ele>1081.62</ele>
        <time>2021-07-22T06:06:12Z</time>
      </trkpt>
      <trkpt lat="44.48648" lon="3.73561">
        <ele>1082.58</ele>
        <time>2021-07-22T06:06:21Z</time>
      </trkpt>
      <trkpt lat="44.48634" lon="3.73569">
        <ele>1083.06</ele>
        <time>2021-07-22T06:06:31Z</time>
      </trkpt>
      <trkpt lat="44.48632" lon="3.7358">
        <ele>1084.99</ele>
        <time>2021-07-22T06:06:37Z</time>
      </trkpt>
      <trkpt lat="44.48634" lon="3.7359">
        <ele>1086.43</ele>
        <time>2021-07-22T06:06:43Z</time>
      </trkpt>
      <trkpt lat="44.48645" lon="3.73595">
        <ele>1086.43</ele>
        <time>2021-07-22T06:06:55Z</time>
      </trkpt>
      <trkpt lat="44.48646" lon="3.73595">
        <ele>1085.95</ele>
        <time>2021-07-22T06:06:56Z</time>
      </trkpt>
      <trkpt lat="44.48661" lon="3.73595">
        <ele>1086.91</ele>
        <time>2021-07-22T06:07:10Z</time>
      </trkpt>
      <trkpt lat="44.48666" lon="3.73594">
        <ele>1088.83</ele>
        <time>2021-07-22T06:07:23Z</time>
      </trkpt>
      <trkpt lat="44.48664" lon="3.73605">
        <ele>1091.71</ele>
        <time>2021-07-22T06:07:37Z</time>
      </trkpt>
      <trkpt lat="44.48662" lon="3.73616">
        <ele>1093.64</ele>
        <time>2021-07-22T06:07:50Z</time>
      </trkpt>
      <trkpt lat="44.48661" lon="3.7363">
        <ele>1097.48</ele>
        <time>2021-07-22T06:08:05Z</time>
      </trkpt>
      <trkpt lat="44.48662" lon="3.73636">
        <ele>1098.92</ele>
        <time>2021-07-22T06:08:11Z</time>
      </trkpt>
      <trkpt lat="44.4867" lon="3.73646">
        <ele>1102.77</ele>
        <time>2021-07-22T06:08:26Z</time>
      </trkpt>
      <trkpt lat="44.48683" lon="3.73649">
        <ele>1105.17</ele>
        <time>2021-07-22T06:08:41Z</time>
      </trkpt>
      <trkpt lat="44.48691" lon="3.73648">
        <ele>1104.69</ele>
        <time>2021-07-22T06:08:57Z</time>
      </trkpt>
      <trkpt lat="44.4869" lon="3.73646">
        <ele>1102.77</ele>
        <time>2021-07-22T06:09:33Z</time>
      </trkpt>
      <trkpt lat="44.48691" lon="3.73646">
        <ele>1102.29</ele>
        <time>2021-07-22T06:10:04Z</time>
      </trkpt>
      <trkpt lat="44.48691" lon="3.73647">
        <ele>1101.33</ele>
        <time>2021-07-22T06:10:41Z</time>
      </trkpt>
      <trkpt lat="44.48692" lon="3.73649">
        <ele>1100.37</ele>
        <time>2021-07-22T06:11:14Z</time>
      </trkpt>
      <trkpt lat="44.48692" lon="3.73655">
        <ele>1102.29</ele>
        <time>2021-07-22T06:11:26Z</time>
      </trkpt>
      <trkpt lat="44.4869" lon="3.73658">
        <ele>1102.29</ele>
        <time>2021-07-22T06:11:36Z</time>
      </trkpt>
      <trkpt lat="44.48684" lon="3.73662">
        <ele>1103.25</ele>
        <time>2021-07-22T06:11:42Z</time>
      </trkpt>
      <trkpt lat="44.48675" lon="3.73666">
        <ele>1103.25</ele>
        <time>2021-07-22T06:11:51Z</time>
      </trkpt>
      <trkpt lat="44.48666" lon="3.73673">
        <ele>1103.73</ele>
        <time>2021-07-22T06:12:01Z</time>
      </trkpt>
      <trkpt lat="44.4865" lon="3.73688">
        <ele>1107.1</ele>
        <time>2021-07-22T06:12:18Z</time>
      </trkpt>
      <trkpt lat="44.48637" lon="3.73703">
        <ele>1108.06</ele>
        <time>2021-07-22T06:12:33Z</time>
      </trkpt>
      <trkpt lat="44.48625" lon="3.73718">
        <ele>1109.98</ele>
        <time>2021-07-22T06:12:50Z</time>
      </trkpt>
      <trkpt lat="44.48621" lon="3.73728">
        <ele>1109.98</ele>
        <time>2021-07-22T06:12:59Z</time>
      </trkpt>
      <trkpt lat="44.48621" lon="3.7374">
        <ele>1111.42</ele>
        <time>2021-07-22T06:13:09Z</time>
      </trkpt>
      <trkpt lat="44.48623" lon="3.73744">
        <ele>1111.42</ele>
        <time>2021-07-22T06:13:12Z</time>
      </trkpt>
      <trkpt lat="44.48627" lon="3.73759">
        <ele>1112.86</ele>
        <time>2021-07-22T06:13:28Z</time>
      </trkpt>
      <trkpt lat="44.48621" lon="3.73771">
        <ele>1113.82</ele>
        <time>2021-07-22T06:13:41Z</time>
      </trkpt>
      <trkpt lat="44.48615" lon="3.73779">
        <ele>1114.31</ele>
        <time>2021-07-22T06:13:57Z</time>
      </trkpt>
      <trkpt lat="44.48609" lon="3.73783">
        <ele>1115.27</ele>
        <time>2021-07-22T06:14:05Z</time>
      </trkpt>
      <trkpt lat="44.48601" lon="3.73787">
        <ele>1115.75</ele>
        <time>2021-07-22T06:14:14Z</time>
      </trkpt>
      <trkpt lat="44.48587" lon="3.73796">
        <ele>1117.19</ele>
        <time>2021-07-22T06:14:31Z</time>
      </trkpt>
      <trkpt lat="44.48572" lon="3.73807">
        <ele>1118.63</ele>
        <time>2021-07-22T06:14:49Z</time>
      </trkpt>
      <trkpt lat="44.48566" lon="3.73811">
        <ele>1120.55</ele>
        <time>2021-07-22T06:15:03Z</time>
      </trkpt>
      <trkpt lat="44.48563" lon="3.73814">
        <ele>1121.03</ele>
        <time>2021-07-22T06:15:21Z</time>
      </trkpt>
      <trkpt lat="44.48561" lon="3.73814">
        <ele>1120.55</ele>
        <time>2021-07-22T06:15:47Z</time>
      </trkpt>
      <trkpt lat="44.4856" lon="3.73814">
        <ele>1120.07</ele>
        <time>2021-07-22T06:15:55Z</time>
      </trkpt>
      <trkpt lat="44.48556" lon="3.73818">
        <ele>1120.55</ele>
        <time>2021-07-22T06:15:59Z</time>
      </trkpt>
      <trkpt lat="44.48538" lon="3.73836">
        <ele>1121.52</ele>
        <time>2021-07-22T06:16:13Z</time>
      </trkpt>
      <trkpt lat="44.48526" lon="3.73849">
        <ele>1121.52</ele>
        <time>2021-07-22T06:16:22Z</time>
      </trkpt>
      <trkpt lat="44.48502" lon="3.73872">
        <ele>1122.48</ele>
        <time>2021-07-22T06:16:40Z</time>
      </trkpt>
      <trkpt lat="44.48478" lon="3.73895">
        <ele>1122.96</ele>
        <time>2021-07-22T06:16:57Z</time>
      </trkpt>
      <trkpt lat="44.48463" lon="3.73907">
        <ele>1124.88</ele>
        <time>2021-07-22T06:17:08Z</time>
      </trkpt>
      <trkpt lat="44.48459" lon="3.73911">
        <ele>1125.84</ele>
        <time>2021-07-22T06:17:11Z</time>
      </trkpt>
      <trkpt lat="44.48437" lon="3.7393">
        <ele>1126.32</ele>
        <time>2021-07-22T06:17:27Z</time>
      </trkpt>
      <trkpt lat="44.48417" lon="3.73954">
        <ele>1125.84</ele>
        <time>2021-07-22T06:17:42Z</time>
      </trkpt>
      <trkpt lat="44.48401" lon="3.73973">
        <ele>1126.32</ele>
        <time>2021-07-22T06:17:55Z</time>
      </trkpt>
      <trkpt lat="44.48382" lon="3.73994">
        <ele>1128.24</ele>
        <time>2021-07-22T06:18:11Z</time>
      </trkpt>
      <trkpt lat="44.48379" lon="3.73999">
        <ele>1128.73</ele>
        <time>2021-07-22T06:18:23Z</time>
      </trkpt>
      <trkpt lat="44.48374" lon="3.74002">
        <ele>1129.21</ele>
        <time>2021-07-22T06:18:27Z</time>
      </trkpt>
      <trkpt lat="44.48356" lon="3.74017">
        <ele>1131.61</ele>
        <time>2021-07-22T06:18:42Z</time>
      </trkpt>
      <trkpt lat="44.48346" lon="3.7402">
        <ele>1132.09</ele>
        <time>2021-07-22T06:18:51Z</time>
      </trkpt>
      <trkpt lat="44.48337" lon="3.74017">
        <ele>1133.05</ele>
        <time>2021-07-22T06:19:03Z</time>
      </trkpt>
      <trkpt lat="44.4833" lon="3.74005">
        <ele>1135.45</ele>
        <time>2021-07-22T06:19:17Z</time>
      </trkpt>
      <trkpt lat="44.48324" lon="3.73987">
        <ele>1139.78</ele>
        <time>2021-07-22T06:19:35Z</time>
      </trkpt>
      <trkpt lat="44.48321" lon="3.73979">
        <ele>1140.74</ele>
        <time>2021-07-22T06:19:50Z</time>
      </trkpt>
      <trkpt lat="44.48314" lon="3.73964">
        <ele>1144.11</ele>
        <time>2021-07-22T06:20:06Z</time>
      </trkpt>
      <trkpt lat="44.48312" lon="3.7396">
        <ele>1144.59</ele>
        <time>2021-07-22T06:20:10Z</time>
      </trkpt>
      <trkpt lat="44.48306" lon="3.73948">
        <ele>1145.55</ele>
        <time>2021-07-22T06:20:25Z</time>
      </trkpt>
      <trkpt lat="44.483" lon="3.73931">
        <ele>1147.95</ele>
        <time>2021-07-22T06:20:43Z</time>
      </trkpt>
      <trkpt lat="44.48294" lon="3.73914">
        <ele>1149.39</ele>
        <time>2021-07-22T06:20:59Z</time>
      </trkpt>
      <trkpt lat="44.48287" lon="3.73907">
        <ele>1150.35</ele>
        <time>2021-07-22T06:21:08Z</time>
      </trkpt>
      <trkpt lat="44.48283" lon="3.73899">
        <ele>1150.84</ele>
        <time>2021-07-22T06:21:15Z</time>
      </trkpt>
      <trkpt lat="44.48274" lon="3.73889">
        <ele>1151.8</ele>
        <time>2021-07-22T06:21:31Z</time>
      </trkpt>
      <trkpt lat="44.48273" lon="3.7389">
        <ele>1150.84</ele>
        <time>2021-07-22T06:22:05Z</time>
      </trkpt>
      <trkpt lat="44.48274" lon="3.7389">
        <ele>1151.32</ele>
        <time>2021-07-22T06:22:40Z</time>
      </trkpt>
      <trkpt lat="44.48272" lon="3.73892">
        <ele>1152.28</ele>
        <time>2021-07-22T06:22:56Z</time>
      </trkpt>
      <trkpt lat="44.48254" lon="3.73892">
        <ele>1153.72</ele>
        <time>2021-07-22T06:23:13Z</time>
      </trkpt>
      <trkpt lat="44.4824" lon="3.73896">
        <ele>1153.72</ele>
        <time>2021-07-22T06:23:31Z</time>
      </trkpt>
      <trkpt lat="44.48241" lon="3.73896">
        <ele>1154.68</ele>
        <time>2021-07-22T06:23:55Z</time>
      </trkpt>
      <trkpt lat="44.48242" lon="3.73895">
        <ele>1154.68</ele>
        <time>2021-07-22T06:24:28Z</time>
      </trkpt>
      <trkpt lat="44.48242" lon="3.73894">
        <ele>1154.68</ele>
        <time>2021-07-22T06:25:05Z</time>
      </trkpt>
      <trkpt lat="44.48242" lon="3.73895">
        <ele>1154.68</ele>
        <time>2021-07-22T06:25:39Z</time>
      </trkpt>
      <trkpt lat="44.48243" lon="3.73896">
        <ele>1154.2</ele>
        <time>2021-07-22T06:26:09Z</time>
      </trkpt>
      <trkpt lat="44.48242" lon="3.73897">
        <ele>1153.72</ele>
        <time>2021-07-22T06:26:44Z</time>
      </trkpt>
      <trkpt lat="44.48236" lon="3.73897">
        <ele>1154.68</ele>
        <time>2021-07-22T06:27:08Z</time>
      </trkpt>
      <trkpt lat="44.48216" lon="3.73901">
        <ele>1154.2</ele>
        <time>2021-07-22T06:27:26Z</time>
      </trkpt>
      <trkpt lat="44.48205" lon="3.73907">
        <ele>1156.12</ele>
        <time>2021-07-22T06:27:38Z</time>
      </trkpt>
      <trkpt lat="44.48203" lon="3.73911">
        <ele>1156.6</ele>
        <time>2021-07-22T06:27:42Z</time>
      </trkpt>
      <trkpt lat="44.48189" lon="3.73919">
        <ele>1157.56</ele>
        <time>2021-07-22T06:27:57Z</time>
      </trkpt>
      <trkpt lat="44.48179" lon="3.73927">
        <ele>1159.01</ele>
        <time>2021-07-22T06:28:08Z</time>
      </trkpt>
      <trkpt lat="44.48178" lon="3.73928">
        <ele>1159.49</ele>
        <time>2021-07-22T06:28:10Z</time>
      </trkpt>
      <trkpt lat="44.48175" lon="3.73931">
        <ele>1160.45</ele>
        <time>2021-07-22T06:28:13Z</time>
      </trkpt>
      <trkpt lat="44.48162" lon="3.73942">
        <ele>1161.41</ele>
        <time>2021-07-22T06:28:28Z</time>
      </trkpt>
      <trkpt lat="44.48155" lon="3.73942">
        <ele>1162.37</ele>
        <time>2021-07-22T06:28:35Z</time>
      </trkpt>
      <trkpt lat="44.4815" lon="3.73945">
        <ele>1162.85</ele>
        <time>2021-07-22T06:28:42Z</time>
      </trkpt>
      <trkpt lat="44.48139" lon="3.7395">
        <ele>1165.26</ele>
        <time>2021-07-22T06:28:57Z</time>
      </trkpt>
      <trkpt lat="44.48125" lon="3.73955">
        <ele>1165.74</ele>
        <time>2021-07-22T06:29:13Z</time>
      </trkpt>
      <trkpt lat="44.48112" lon="3.7396">
        <ele>1168.14</ele>
        <time>2021-07-22T06:29:28Z</time>
      </trkpt>
      <trkpt lat="44.481" lon="3.73963">
        <ele>1170.06</ele>
        <time>2021-07-22T06:29:42Z</time>
      </trkpt>
      <trkpt lat="44.48086" lon="3.73966">
        <ele>1171.98</ele>
        <time>2021-07-22T06:29:58Z</time>
      </trkpt>
      <trkpt lat="44.48074" lon="3.73968">
        <ele>1172.95</ele>
        <time>2021-07-22T06:30:14Z</time>
      </trkpt>
      <trkpt lat="44.4806" lon="3.73975">
        <ele>1172.95</ele>
        <time>2021-07-22T06:30:29Z</time>
      </trkpt>
      <trkpt lat="44.4805" lon="3.73982">
        <ele>1174.39</ele>
        <time>2021-07-22T06:30:40Z</time>
      </trkpt>
      <trkpt lat="44.48034" lon="3.7399">
        <ele>1175.83</ele>
        <time>2021-07-22T06:30:59Z</time>
      </trkpt>
      <trkpt lat="44.48027" lon="3.73992">
        <ele>1176.79</ele>
        <time>2021-07-22T06:31:14Z</time>
      </trkpt>
      <trkpt lat="44.48012" lon="3.73997">
        <ele>1177.75</ele>
        <time>2021-07-22T06:31:26Z</time>
      </trkpt>
      <trkpt lat="44.47995" lon="3.74008">
        <ele>1179.19</ele>
        <time>2021-07-22T06:31:39Z</time>
      </trkpt>
      <trkpt lat="44.47975" lon="3.74019">
        <ele>1179.67</ele>
        <time>2021-07-22T06:31:54Z</time>
      </trkpt>
      <trkpt lat="44.47954" lon="3.7403">
        <ele>1182.56</ele>
        <time>2021-07-22T06:32:10Z</time>
      </trkpt>
      <trkpt lat="44.47937" lon="3.74039">
        <ele>1183.04</ele>
        <time>2021-07-22T06:32:24Z</time>
      </trkpt>
      <trkpt lat="44.47912" lon="3.74041">
        <ele>1183.04</ele>
        <time>2021-07-22T06:32:40Z</time>
      </trkpt>
      <trkpt lat="44.47893" lon="3.74042">
        <ele>1184.48</ele>
        <time>2021-07-22T06:32:53Z</time>
      </trkpt>
      <trkpt lat="44.47864" lon="3.74045">
        <ele>1187.37</ele>
        <time>2021-07-22T06:33:12Z</time>
      </trkpt>
      <trkpt lat="44.47839" lon="3.74047">
        <ele>1189.77</ele>
        <time>2021-07-22T06:33:28Z</time>
      </trkpt>
      <trkpt lat="44.47806" lon="3.74048">
        <ele>1189.77</ele>
        <time>2021-07-22T06:33:44Z</time>
      </trkpt>
      <trkpt lat="44.47774" lon="3.74046">
        <ele>1189.29</ele>
        <time>2021-07-22T06:33:59Z</time>
      </trkpt>
      <trkpt lat="44.47748" lon="3.74039">
        <ele>1190.25</ele>
        <time>2021-07-22T06:34:13Z</time>
      </trkpt>
      <trkpt lat="44.47724" lon="3.74028">
        <ele>1190.73</ele>
        <time>2021-07-22T06:34:26Z</time>
      </trkpt>
      <trkpt lat="44.47688" lon="3.74016">
        <ele>1190.25</ele>
        <time>2021-07-22T06:34:43Z</time>
      </trkpt>
      <trkpt lat="44.47658" lon="3.74005">
        <ele>1190.73</ele>
        <time>2021-07-22T06:34:58Z</time>
      </trkpt>
      <trkpt lat="44.47634" lon="3.74002">
        <ele>1192.17</ele>
        <time>2021-07-22T06:35:12Z</time>
      </trkpt>
      <trkpt lat="44.47611" lon="3.73996">
        <ele>1194.58</ele>
        <time>2021-07-22T06:35:28Z</time>
      </trkpt>
      <trkpt lat="44.47601" lon="3.73996">
        <ele>1196.02</ele>
        <time>2021-07-22T06:35:36Z</time>
      </trkpt>
      <trkpt lat="44.47577" lon="3.73989">
        <ele>1198.9</ele>
        <time>2021-07-22T06:35:56Z</time>
      </trkpt>
      <trkpt lat="44.47557" lon="3.73983">
        <ele>1200.34</ele>
        <time>2021-07-22T06:36:12Z</time>
      </trkpt>
      <trkpt lat="44.47535" lon="3.73968">
        <ele>1202.27</ele>
        <time>2021-07-22T06:36:29Z</time>
      </trkpt>
      <trkpt lat="44.4752" lon="3.73956">
        <ele>1202.75</ele>
        <time>2021-07-22T06:36:44Z</time>
      </trkpt>
      <trkpt lat="44.47517" lon="3.73954">
        <ele>1201.3</ele>
        <time>2021-07-22T06:37:14Z</time>
      </trkpt>
      <trkpt lat="44.47514" lon="3.73949">
        <ele>1201.3</ele>
        <time>2021-07-22T06:37:17Z</time>
      </trkpt>
      <trkpt lat="44.47481" lon="3.73898">
        <ele>1199.86</ele>
        <time>2021-07-22T06:37:36Z</time>
      </trkpt>
      <trkpt lat="44.4744" lon="3.73859">
        <ele>1198.9</ele>
        <time>2021-07-22T06:37:53Z</time>
      </trkpt>
      <trkpt lat="44.47389" lon="3.73844">
        <ele>1197.94</ele>
        <time>2021-07-22T06:38:12Z</time>
      </trkpt>
      <trkpt lat="44.47363" lon="3.73836">
        <ele>1199.86</ele>
        <time>2021-07-22T06:38:31Z</time>
      </trkpt>
      <trkpt lat="44.47353" lon="3.73835">
        <ele>1201.3</ele>
        <time>2021-07-22T06:38:43Z</time>
      </trkpt>
      <trkpt lat="44.47334" lon="3.73833">
        <ele>1203.71</ele>
        <time>2021-07-22T06:39:02Z</time>
      </trkpt>
      <trkpt lat="44.47315" lon="3.73836">
        <ele>1207.07</ele>
        <time>2021-07-22T06:39:21Z</time>
      </trkpt>
      <trkpt lat="44.47301" lon="3.73836">
        <ele>1208.51</ele>
        <time>2021-07-22T06:39:38Z</time>
      </trkpt>
      <trkpt lat="44.47297" lon="3.73836">
        <ele>1210.44</ele>
        <time>2021-07-22T06:40:00Z</time>
      </trkpt>
      <trkpt lat="44.47283" lon="3.73833">
        <ele>1214.28</ele>
        <time>2021-07-22T06:40:18Z</time>
      </trkpt>
      <trkpt lat="44.47276" lon="3.7383">
        <ele>1216.69</ele>
        <time>2021-07-22T06:40:34Z</time>
      </trkpt>
      <trkpt lat="44.47272" lon="3.73829">
        <ele>1219.09</ele>
        <time>2021-07-22T06:40:54Z</time>
      </trkpt>
      <trkpt lat="44.47263" lon="3.73824">
        <ele>1221.01</ele>
        <time>2021-07-22T06:41:11Z</time>
      </trkpt>
      <trkpt lat="44.47251" lon="3.73818">
        <ele>1224.38</ele>
        <time>2021-07-22T06:41:29Z</time>
      </trkpt>
      <trkpt lat="44.47241" lon="3.73812">
        <ele>1226.3</ele>
        <time>2021-07-22T06:41:47Z</time>
      </trkpt>
      <trkpt lat="44.47234" lon="3.7381">
        <ele>1227.26</ele>
        <time>2021-07-22T06:42:02Z</time>
      </trkpt>
      <trkpt lat="44.47235" lon="3.73808">
        <ele>1227.26</ele>
        <time>2021-07-22T06:42:22Z</time>
      </trkpt>
      <trkpt lat="44.47236" lon="3.73809">
        <ele>1228.22</ele>
        <time>2021-07-22T06:42:45Z</time>
      </trkpt>
      <trkpt lat="44.47235" lon="3.73809">
        <ele>1229.66</ele>
        <time>2021-07-22T06:43:14Z</time>
      </trkpt>
      <trkpt lat="44.47229" lon="3.73808">
        <ele>1230.14</ele>
        <time>2021-07-22T06:43:30Z</time>
      </trkpt>
      <trkpt lat="44.47214" lon="3.7381">
        <ele>1232.55</ele>
        <time>2021-07-22T06:43:47Z</time>
      </trkpt>
      <trkpt lat="44.47204" lon="3.73811">
        <ele>1233.03</ele>
        <time>2021-07-22T06:44:01Z</time>
      </trkpt>
      <trkpt lat="44.47185" lon="3.73815">
        <ele>1235.43</ele>
        <time>2021-07-22T06:44:19Z</time>
      </trkpt>
      <trkpt lat="44.47168" lon="3.7382">
        <ele>1236.87</ele>
        <time>2021-07-22T06:44:36Z</time>
      </trkpt>
      <trkpt lat="44.47155" lon="3.73822">
        <ele>1238.8</ele>
        <time>2021-07-22T06:44:52Z</time>
      </trkpt>
      <trkpt lat="44.47141" lon="3.73831">
        <ele>1238.32</ele>
        <time>2021-07-22T06:45:09Z</time>
      </trkpt>
      <trkpt lat="44.47136" lon="3.73835">
        <ele>1240.24</ele>
        <time>2021-07-22T06:45:15Z</time>
      </trkpt>
      <trkpt lat="44.47123" lon="3.73845">
        <ele>1242.16</ele>
        <time>2021-07-22T06:45:31Z</time>
      </trkpt>
      <trkpt lat="44.47111" lon="3.73851">
        <ele>1246.01</ele>
        <time>2021-07-22T06:45:46Z</time>
      </trkpt>
      <trkpt lat="44.471" lon="3.73857">
        <ele>1246.97</ele>
        <time>2021-07-22T06:46:00Z</time>
      </trkpt>
      <trkpt lat="44.47092" lon="3.73867">
        <ele>1247.45</ele>
        <time>2021-07-22T06:46:14Z</time>
      </trkpt>
      <trkpt lat="44.47087" lon="3.73883">
        <ele>1249.85</ele>
        <time>2021-07-22T06:46:28Z</time>
      </trkpt>
      <trkpt lat="44.47085" lon="3.73892">
        <ele>1250.81</ele>
        <time>2021-07-22T06:46:35Z</time>
      </trkpt>
      <trkpt lat="44.47077" lon="3.73911">
        <ele>1252.74</ele>
        <time>2021-07-22T06:46:52Z</time>
      </trkpt>
      <trkpt lat="44.47069" lon="3.73925">
        <ele>1253.22</ele>
        <time>2021-07-22T06:47:07Z</time>
      </trkpt>
      <trkpt lat="44.47063" lon="3.73936">
        <ele>1251.29</ele>
        <time>2021-07-22T06:47:24Z</time>
      </trkpt>
      <trkpt lat="44.47063" lon="3.7394">
        <ele>1249.85</ele>
        <time>2021-07-22T06:47:58Z</time>
      </trkpt>
      <trkpt lat="44.47061" lon="3.73947">
        <ele>1248.89</ele>
        <time>2021-07-22T06:48:14Z</time>
      </trkpt>
      <trkpt lat="44.47058" lon="3.73951">
        <ele>1248.89</ele>
        <time>2021-07-22T06:48:23Z</time>
      </trkpt>
      <trkpt lat="44.47054" lon="3.73957">
        <ele>1248.89</ele>
        <time>2021-07-22T06:48:27Z</time>
      </trkpt>
      <trkpt lat="44.4704" lon="3.73972">
        <ele>1252.25</ele>
        <time>2021-07-22T06:48:41Z</time>
      </trkpt>
      <trkpt lat="44.47026" lon="3.73995">
        <ele>1253.22</ele>
        <time>2021-07-22T06:48:55Z</time>
      </trkpt>
      <trkpt lat="44.47011" lon="3.74015">
        <ele>1257.06</ele>
        <time>2021-07-22T06:49:08Z</time>
      </trkpt>
      <trkpt lat="44.47008" lon="3.74017">
        <ele>1257.54</ele>
        <time>2021-07-22T06:49:10Z</time>
      </trkpt>
      <trkpt lat="44.47006" lon="3.7402">
        <ele>1258.02</ele>
        <time>2021-07-22T06:49:12Z</time>
      </trkpt>
      <trkpt lat="44.47002" lon="3.74022">
        <ele>1258.98</ele>
        <time>2021-07-22T06:49:15Z</time>
      </trkpt>
      <trkpt lat="44.46984" lon="3.74041">
        <ele>1264.75</ele>
        <time>2021-07-22T06:49:29Z</time>
      </trkpt>
      <trkpt lat="44.46977" lon="3.7405">
        <ele>1268.12</ele>
        <time>2021-07-22T06:49:35Z</time>
      </trkpt>
      <trkpt lat="44.4696" lon="3.74064">
        <ele>1274.36</ele>
        <time>2021-07-22T06:49:47Z</time>
      </trkpt>
      <trkpt lat="44.46955" lon="3.74069">
        <ele>1275.81</ele>
        <time>2021-07-22T06:49:52Z</time>
      </trkpt>
      <trkpt lat="44.4694" lon="3.74091">
        <ele>1280.13</ele>
        <time>2021-07-22T06:50:06Z</time>
      </trkpt>
      <trkpt lat="44.46932" lon="3.74101">
        <ele>1283.5</ele>
        <time>2021-07-22T06:50:14Z</time>
      </trkpt>
      <trkpt lat="44.46922" lon="3.74115">
        <ele>1284.94</ele>
        <time>2021-07-22T06:50:23Z</time>
      </trkpt>
      <trkpt lat="44.46909" lon="3.74134">
        <ele>1283.02</ele>
        <time>2021-07-22T06:50:36Z</time>
      </trkpt>
      <trkpt lat="44.46899" lon="3.74146">
        <ele>1285.42</ele>
        <time>2021-07-22T06:50:47Z</time>
      </trkpt>
      <trkpt lat="44.46897" lon="3.74148">
        <ele>1285.9</ele>
        <time>2021-07-22T06:50:49Z</time>
      </trkpt>
      <trkpt lat="44.4689" lon="3.74156">
        <ele>1286.38</ele>
        <time>2021-07-22T06:51:03Z</time>
      </trkpt>
      <trkpt lat="44.46882" lon="3.74162">
        <ele>1285.9</ele>
        <time>2021-07-22T06:51:20Z</time>
      </trkpt>
      <trkpt lat="44.46878" lon="3.7417">
        <ele>1284.46</ele>
        <time>2021-07-22T06:51:34Z</time>
      </trkpt>
      <trkpt lat="44.46872" lon="3.7418">
        <ele>1281.09</ele>
        <time>2021-07-22T06:51:47Z</time>
      </trkpt>
      <trkpt lat="44.46863" lon="3.74197">
        <ele>1279.65</ele>
        <time>2021-07-22T06:52:01Z</time>
      </trkpt>
      <trkpt lat="44.4686" lon="3.74203">
        <ele>1278.21</ele>
        <time>2021-07-22T06:52:06Z</time>
      </trkpt>
      <trkpt lat="44.46855" lon="3.74221">
        <ele>1280.13</ele>
        <time>2021-07-22T06:52:20Z</time>
      </trkpt>
      <trkpt lat="44.4685" lon="3.7423">
        <ele>1282.06</ele>
        <time>2021-07-22T06:52:33Z</time>
      </trkpt>
      <trkpt lat="44.46846" lon="3.74238">
        <ele>1282.54</ele>
        <time>2021-07-22T06:52:55Z</time>
      </trkpt>
      <trkpt lat="44.46843" lon="3.74253">
        <ele>1281.57</ele>
        <time>2021-07-22T06:53:07Z</time>
      </trkpt>
      <trkpt lat="44.46842" lon="3.74275">
        <ele>1284.94</ele>
        <time>2021-07-22T06:53:20Z</time>
      </trkpt>
      <trkpt lat="44.46842" lon="3.74278">
        <ele>1285.42</ele>
        <time>2021-07-22T06:53:22Z</time>
      </trkpt>
      <trkpt lat="44.46845" lon="3.74294">
        <ele>1286.38</ele>
        <time>2021-07-22T06:53:36Z</time>
      </trkpt>
      <trkpt lat="44.46845" lon="3.74296">
        <ele>1288.78</ele>
        <time>2021-07-22T06:54:05Z</time>
      </trkpt>
      <trkpt lat="44.46845" lon="3.74298">
        <ele>1288.78</ele>
        <time>2021-07-22T06:54:22Z</time>
      </trkpt>
      <trkpt lat="44.46848" lon="3.74307">
        <ele>1289.75</ele>
        <time>2021-07-22T06:54:27Z</time>
      </trkpt>
      <trkpt lat="44.46848" lon="3.74311">
        <ele>1289.75</ele>
        <time>2021-07-22T06:54:29Z</time>
      </trkpt>
      <trkpt lat="44.4685" lon="3.74316">
        <ele>1289.75</ele>
        <time>2021-07-22T06:54:33Z</time>
      </trkpt>
      <trkpt lat="44.46852" lon="3.74321">
        <ele>1291.19</ele>
        <time>2021-07-22T06:54:36Z</time>
      </trkpt>
      <trkpt lat="44.46853" lon="3.74332">
        <ele>1292.15</ele>
        <time>2021-07-22T06:54:40Z</time>
      </trkpt>
      <trkpt lat="44.46855" lon="3.74348">
        <ele>1293.11</ele>
        <time>2021-07-22T06:54:46Z</time>
      </trkpt>
      <trkpt lat="44.4686" lon="3.74379">
        <ele>1291.67</ele>
        <time>2021-07-22T06:54:59Z</time>
      </trkpt>
      <trkpt lat="44.46861" lon="3.74405">
        <ele>1295.51</ele>
        <time>2021-07-22T06:55:11Z</time>
      </trkpt>
      <trkpt lat="44.46862" lon="3.7441">
        <ele>1295.51</ele>
        <time>2021-07-22T06:55:14Z</time>
      </trkpt>
      <trkpt lat="44.46861" lon="3.74415">
        <ele>1295.03</ele>
        <time>2021-07-22T06:55:17Z</time>
      </trkpt>
      <trkpt lat="44.46855" lon="3.74439">
        <ele>1288.78</ele>
        <time>2021-07-22T06:55:32Z</time>
      </trkpt>
      <trkpt lat="44.4685" lon="3.74458">
        <ele>1290.71</ele>
        <time>2021-07-22T06:55:48Z</time>
      </trkpt>
      <trkpt lat="44.46845" lon="3.74469">
        <ele>1288.78</ele>
        <time>2021-07-22T06:56:01Z</time>
      </trkpt>
      <trkpt lat="44.46844" lon="3.74471">
        <ele>1286.38</ele>
        <time>2021-07-22T06:56:24Z</time>
      </trkpt>
      <trkpt lat="44.46837" lon="3.7448">
        <ele>1288.3</ele>
        <time>2021-07-22T06:56:36Z</time>
      </trkpt>
      <trkpt lat="44.46827" lon="3.74495">
        <ele>1292.15</ele>
        <time>2021-07-22T06:56:53Z</time>
      </trkpt>
      <trkpt lat="44.46816" lon="3.74511">
        <ele>1292.15</ele>
        <time>2021-07-22T06:57:12Z</time>
      </trkpt>
      <trkpt lat="44.46807" lon="3.74525">
        <ele>1292.63</ele>
        <time>2021-07-22T06:57:29Z</time>
      </trkpt>
      <trkpt lat="44.46797" lon="3.74537">
        <ele>1293.59</ele>
        <time>2021-07-22T06:57:46Z</time>
      </trkpt>
      <trkpt lat="44.46794" lon="3.74541">
        <ele>1294.07</ele>
        <time>2021-07-22T06:57:57Z</time>
      </trkpt>
      <trkpt lat="44.46794" lon="3.74542">
        <ele>1292.63</ele>
        <time>2021-07-22T06:58:28Z</time>
      </trkpt>
      <trkpt lat="44.46793" lon="3.74542">
        <ele>1291.19</ele>
        <time>2021-07-22T06:58:58Z</time>
      </trkpt>
      <trkpt lat="44.46792" lon="3.74542">
        <ele>1291.19</ele>
        <time>2021-07-22T06:59:31Z</time>
      </trkpt>
      <trkpt lat="44.46785" lon="3.74548">
        <ele>1291.19</ele>
        <time>2021-07-22T06:59:51Z</time>
      </trkpt>
      <trkpt lat="44.46773" lon="3.74555">
        <ele>1295.99</ele>
        <time>2021-07-22T07:00:07Z</time>
      </trkpt>
      <trkpt lat="44.46764" lon="3.74561">
        <ele>1303.2</ele>
        <time>2021-07-22T07:00:21Z</time>
      </trkpt>
      <trkpt lat="44.46757" lon="3.7457">
        <ele>1305.13</ele>
        <time>2021-07-22T07:00:35Z</time>
      </trkpt>
      <trkpt lat="44.46748" lon="3.74582">
        <ele>1307.05</ele>
        <time>2021-07-22T07:00:51Z</time>
      </trkpt>
      <trkpt lat="44.4674" lon="3.7459">
        <ele>1308.97</ele>
        <time>2021-07-22T07:01:04Z</time>
      </trkpt>
      <trkpt lat="44.46732" lon="3.74599">
        <ele>1310.41</ele>
        <time>2021-07-22T07:01:17Z</time>
      </trkpt>
      <trkpt lat="44.46722" lon="3.7461">
        <ele>1312.82</ele>
        <time>2021-07-22T07:01:32Z</time>
      </trkpt>
      <trkpt lat="44.46711" lon="3.74618">
        <ele>1317.14</ele>
        <time>2021-07-22T07:01:50Z</time>
      </trkpt>
      <trkpt lat="44.46704" lon="3.74622">
        <ele>1319.55</ele>
        <time>2021-07-22T07:02:02Z</time>
      </trkpt>
      <trkpt lat="44.46696" lon="3.74628">
        <ele>1322.91</ele>
        <time>2021-07-22T07:02:16Z</time>
      </trkpt>
      <trkpt lat="44.46693" lon="3.74632">
        <ele>1325.8</ele>
        <time>2021-07-22T07:02:30Z</time>
      </trkpt>
      <trkpt lat="44.4669" lon="3.74634">
        <ele>1326.76</ele>
        <time>2021-07-22T07:02:47Z</time>
      </trkpt>
      <trkpt lat="44.46682" lon="3.74639">
        <ele>1327.72</ele>
        <time>2021-07-22T07:03:00Z</time>
      </trkpt>
      <trkpt lat="44.4667" lon="3.74645">
        <ele>1331.08</ele>
        <time>2021-07-22T07:03:13Z</time>
      </trkpt>
      <trkpt lat="44.4666" lon="3.74649">
        <ele>1334.93</ele>
        <time>2021-07-22T07:03:26Z</time>
      </trkpt>
      <trkpt lat="44.4665" lon="3.74655">
        <ele>1339.25</ele>
        <time>2021-07-22T07:03:40Z</time>
      </trkpt>
      <trkpt lat="44.46641" lon="3.74661">
        <ele>1342.14</ele>
        <time>2021-07-22T07:03:55Z</time>
      </trkpt>
      <trkpt lat="44.46631" lon="3.7466">
        <ele>1344.06</ele>
        <time>2021-07-22T07:04:09Z</time>
      </trkpt>
      <trkpt lat="44.4662" lon="3.74659">
        <ele>1345.98</ele>
        <time>2021-07-22T07:04:23Z</time>
      </trkpt>
      <trkpt lat="44.46612" lon="3.74663">
        <ele>1349.35</ele>
        <time>2021-07-22T07:04:35Z</time>
      </trkpt>
      <trkpt lat="44.46601" lon="3.74667">
        <ele>1354.63</ele>
        <time>2021-07-22T07:04:50Z</time>
      </trkpt>
      <trkpt lat="44.46596" lon="3.74669">
        <ele>1359.44</ele>
        <time>2021-07-22T07:05:00Z</time>
      </trkpt>
      <trkpt lat="44.46585" lon="3.74673">
        <ele>1361.36</ele>
        <time>2021-07-22T07:05:14Z</time>
      </trkpt>
      <trkpt lat="44.46585" lon="3.74673">
        <ele>1361.36</ele>
        <time>2021-07-22T07:05:25Z</time>
      </trkpt>
      <trkpt lat="44.46573" lon="3.74683">
        <ele>1362.81</ele>
        <time>2021-07-22T07:05:39Z</time>
      </trkpt>
      <trkpt lat="44.46568" lon="3.74694">
        <ele>1362.81</ele>
        <time>2021-07-22T07:05:51Z</time>
      </trkpt>
      <trkpt lat="44.46559" lon="3.74705">
        <ele>1362.81</ele>
        <time>2021-07-22T07:06:05Z</time>
      </trkpt>
      <trkpt lat="44.4655" lon="3.74713">
        <ele>1357.04</ele>
        <time>2021-07-22T07:06:20Z</time>
      </trkpt>
      <trkpt lat="44.46536" lon="3.74727">
        <ele>1355.12</ele>
        <time>2021-07-22T07:06:35Z</time>
      </trkpt>
      <trkpt lat="44.46522" lon="3.74736">
        <ele>1352.71</ele>
        <time>2021-07-22T07:06:48Z</time>
      </trkpt>
      <trkpt lat="44.46505" lon="3.74748">
        <ele>1350.79</ele>
        <time>2021-07-22T07:07:07Z</time>
      </trkpt>
      <trkpt lat="44.46501" lon="3.74752">
        <ele>1352.23</ele>
        <time>2021-07-22T07:07:13Z</time>
      </trkpt>
      <trkpt lat="44.46489" lon="3.74765">
        <ele>1353.19</ele>
        <time>2021-07-22T07:07:29Z</time>
      </trkpt>
      <trkpt lat="44.46487" lon="3.74766">
        <ele>1354.15</ele>
        <time>2021-07-22T07:07:49Z</time>
      </trkpt>
      <trkpt lat="44.46487" lon="3.74765">
        <ele>1354.15</ele>
        <time>2021-07-22T07:08:24Z</time>
      </trkpt>
      <trkpt lat="44.46484" lon="3.74769">
        <ele>1357.04</ele>
        <time>2021-07-22T07:08:44Z</time>
      </trkpt>
      <trkpt lat="44.46476" lon="3.74777">
        <ele>1360.4</ele>
        <time>2021-07-22T07:08:58Z</time>
      </trkpt>
      <trkpt lat="44.46463" lon="3.74785">
        <ele>1361.36</ele>
        <time>2021-07-22T07:09:17Z</time>
      </trkpt>
      <trkpt lat="44.46457" lon="3.74789">
        <ele>1360.4</ele>
        <time>2021-07-22T07:09:32Z</time>
      </trkpt>
      <trkpt lat="44.46456" lon="3.7479">
        <ele>1359.92</ele>
        <time>2021-07-22T07:09:46Z</time>
      </trkpt>
      <trkpt lat="44.46454" lon="3.7479">
        <ele>1359.44</ele>
        <time>2021-07-22T07:10:04Z</time>
      </trkpt>
      <trkpt lat="44.46454" lon="3.74789">
        <ele>1358.96</ele>
        <time>2021-07-22T07:10:21Z</time>
      </trkpt>
      <trkpt lat="44.46454" lon="3.74789">
        <ele>1359.44</ele>
        <time>2021-07-22T07:10:42Z</time>
      </trkpt>
      <trkpt lat="44.46454" lon="3.74789">
        <ele>1359.44</ele>
        <time>2021-07-22T07:11:02Z</time>
      </trkpt>
      <trkpt lat="44.46451" lon="3.74791">
        <ele>1358.96</ele>
        <time>2021-07-22T07:11:25Z</time>
      </trkpt>
      <trkpt lat="44.4644" lon="3.74799">
        <ele>1359.92</ele>
        <time>2021-07-22T07:11:40Z</time>
      </trkpt>
      <trkpt lat="44.46427" lon="3.74809">
        <ele>1362.33</ele>
        <time>2021-07-22T07:11:57Z</time>
      </trkpt>
      <trkpt lat="44.46419" lon="3.74819">
        <ele>1364.73</ele>
        <time>2021-07-22T07:12:09Z</time>
      </trkpt>
      <trkpt lat="44.46409" lon="3.74823">
        <ele>1366.65</ele>
        <time>2021-07-22T07:12:24Z</time>
      </trkpt>
      <trkpt lat="44.46401" lon="3.74829">
        <ele>1368.09</ele>
        <time>2021-07-22T07:12:37Z</time>
      </trkpt>
      <trkpt lat="44.46398" lon="3.7483">
        <ele>1368.57</ele>
        <time>2021-07-22T07:12:49Z</time>
      </trkpt>
      <trkpt lat="44.46388" lon="3.74832">
        <ele>1369.54</ele>
        <time>2021-07-22T07:13:06Z</time>
      </trkpt>
      <trkpt lat="44.46384" lon="3.74833">
        <ele>1372.42</ele>
        <time>2021-07-22T07:13:20Z</time>
      </trkpt>
      <trkpt lat="44.4638" lon="3.74832">
        <ele>1372.9</ele>
        <time>2021-07-22T07:13:35Z</time>
      </trkpt>
      <trkpt lat="44.46372" lon="3.74832">
        <ele>1377.23</ele>
        <time>2021-07-22T07:13:50Z</time>
      </trkpt>
      <trkpt lat="44.4637" lon="3.74833">
        <ele>1379.15</ele>
        <time>2021-07-22T07:14:03Z</time>
      </trkpt>
      <trkpt lat="44.46359" lon="3.74831">
        <ele>1379.63</ele>
        <time>2021-07-22T07:14:17Z</time>
      </trkpt>
      <trkpt lat="44.46345" lon="3.74832">
        <ele>1382.03</ele>
        <time>2021-07-22T07:14:32Z</time>
      </trkpt>
      <trkpt lat="44.46338" lon="3.74835">
        <ele>1383.47</ele>
        <time>2021-07-22T07:14:47Z</time>
      </trkpt>
      <trkpt lat="44.46327" lon="3.74837">
        <ele>1383.47</ele>
        <time>2021-07-22T07:14:59Z</time>
      </trkpt>
      <trkpt lat="44.46314" lon="3.74834">
        <ele>1382.03</ele>
        <time>2021-07-22T07:15:13Z</time>
      </trkpt>
      <trkpt lat="44.46297" lon="3.74828">
        <ele>1381.55</ele>
        <time>2021-07-22T07:15:29Z</time>
      </trkpt>
      <trkpt lat="44.46286" lon="3.74823">
        <ele>1378.67</ele>
        <time>2021-07-22T07:15:43Z</time>
      </trkpt>
      <trkpt lat="44.46275" lon="3.74818">
        <ele>1378.67</ele>
        <time>2021-07-22T07:15:56Z</time>
      </trkpt>
      <trkpt lat="44.46265" lon="3.74816">
        <ele>1379.15</ele>
        <time>2021-07-22T07:16:12Z</time>
      </trkpt>
      <trkpt lat="44.46263" lon="3.74817">
        <ele>1382.99</ele>
        <time>2021-07-22T07:16:27Z</time>
      </trkpt>
      <trkpt lat="44.46252" lon="3.74814">
        <ele>1384.44</ele>
        <time>2021-07-22T07:16:37Z</time>
      </trkpt>
      <trkpt lat="44.46249" lon="3.74814">
        <ele>1384.92</ele>
        <time>2021-07-22T07:16:39Z</time>
      </trkpt>
      <trkpt lat="44.46242" lon="3.74812">
        <ele>1386.36</ele>
        <time>2021-07-22T07:16:45Z</time>
      </trkpt>
      <trkpt lat="44.4623" lon="3.74809">
        <ele>1387.32</ele>
        <time>2021-07-22T07:16:55Z</time>
      </trkpt>
      <trkpt lat="44.46221" lon="3.74806">
        <ele>1388.28</ele>
        <time>2021-07-22T07:17:02Z</time>
      </trkpt>
      <trkpt lat="44.46204" lon="3.74799">
        <ele>1391.65</ele>
        <time>2021-07-22T07:17:16Z</time>
      </trkpt>
      <trkpt lat="44.46188" lon="3.74795">
        <ele>1393.57</ele>
        <time>2021-07-22T07:17:31Z</time>
      </trkpt>
      <trkpt lat="44.4617" lon="3.74794">
        <ele>1393.57</ele>
        <time>2021-07-22T07:17:47Z</time>
      </trkpt>
      <trkpt lat="44.46163" lon="3.74793">
        <ele>1394.53</ele>
        <time>2021-07-22T07:17:53Z</time>
      </trkpt>
      <trkpt lat="44.46154" lon="3.74793">
        <ele>1394.05</ele>
        <time>2021-07-22T07:18:01Z</time>
      </trkpt>
      <trkpt lat="44.46136" lon="3.74797">
        <ele>1399.34</ele>
        <time>2021-07-22T07:18:17Z</time>
      </trkpt>
      <trkpt lat="44.46122" lon="3.748">
        <ele>1405.1</ele>
        <time>2021-07-22T07:18:31Z</time>
      </trkpt>
      <trkpt lat="44.4612" lon="3.74801">
        <ele>1405.58</ele>
        <time>2021-07-22T07:18:32Z</time>
      </trkpt>
      <trkpt lat="44.46117" lon="3.74802">
        <ele>1406.07</ele>
        <time>2021-07-22T07:18:35Z</time>
      </trkpt>
      <trkpt lat="44.46112" lon="3.74805">
        <ele>1407.51</ele>
        <time>2021-07-22T07:18:39Z</time>
      </trkpt>
      <trkpt lat="44.46094" lon="3.74807">
        <ele>1407.51</ele>
        <time>2021-07-22T07:18:51Z</time>
      </trkpt>
      <trkpt lat="44.46091" lon="3.74807">
        <ele>1407.03</ele>
        <time>2021-07-22T07:18:53Z</time>
      </trkpt>
      <trkpt lat="44.46064" lon="3.74814">
        <ele>1407.51</ele>
        <time>2021-07-22T07:19:11Z</time>
      </trkpt>
      <trkpt lat="44.46038" lon="3.7482">
        <ele>1411.35</ele>
        <time>2021-07-22T07:19:28Z</time>
      </trkpt>
      <trkpt lat="44.46031" lon="3.74815">
        <ele>1413.28</ele>
        <time>2021-07-22T07:19:39Z</time>
      </trkpt>
      <trkpt lat="44.46031" lon="3.74816">
        <ele>1412.31</ele>
        <time>2021-07-22T07:20:06Z</time>
      </trkpt>
      <trkpt lat="44.46028" lon="3.7482">
        <ele>1411.83</ele>
        <time>2021-07-22T07:20:09Z</time>
      </trkpt>
      <trkpt lat="44.46018" lon="3.74828">
        <ele>1411.35</ele>
        <time>2021-07-22T07:20:15Z</time>
      </trkpt>
      <trkpt lat="44.45992" lon="3.74838">
        <ele>1410.87</ele>
        <time>2021-07-22T07:20:28Z</time>
      </trkpt>
      <trkpt lat="44.45964" lon="3.74842">
        <ele>1410.87</ele>
        <time>2021-07-22T07:20:40Z</time>
      </trkpt>
      <trkpt lat="44.45955" lon="3.74845">
        <ele>1409.91</ele>
        <time>2021-07-22T07:20:52Z</time>
      </trkpt>
      <trkpt lat="44.45954" lon="3.74846">
        <ele>1410.39</ele>
        <time>2021-07-22T07:21:22Z</time>
      </trkpt>
      <trkpt lat="44.45957" lon="3.74847">
        <ele>1411.83</ele>
        <time>2021-07-22T07:22:00Z</time>
      </trkpt>
      <trkpt lat="44.45957" lon="3.74846">
        <ele>1412.31</ele>
        <time>2021-07-22T07:22:34Z</time>
      </trkpt>
      <trkpt lat="44.45957" lon="3.74847">
        <ele>1410.87</ele>
        <time>2021-07-22T07:23:12Z</time>
      </trkpt>
      <trkpt lat="44.45957" lon="3.74846">
        <ele>1410.39</ele>
        <time>2021-07-22T07:23:50Z</time>
      </trkpt>
      <trkpt lat="44.45956" lon="3.74845">
        <ele>1410.87</ele>
        <time>2021-07-22T07:24:35Z</time>
      </trkpt>
      <trkpt lat="44.45957" lon="3.74844">
        <ele>1410.87</ele>
        <time>2021-07-22T07:25:17Z</time>
      </trkpt>
      <trkpt lat="44.45957" lon="3.74844">
        <ele>1410.39</ele>
        <time>2021-07-22T07:25:54Z</time>
      </trkpt>
      <trkpt lat="44.45957" lon="3.74845">
        <ele>1410.87</ele>
        <time>2021-07-22T07:26:28Z</time>
      </trkpt>
      <trkpt lat="44.45958" lon="3.74845">
        <ele>1412.31</ele>
        <time>2021-07-22T07:26:57Z</time>
      </trkpt>
      <trkpt lat="44.45957" lon="3.74845">
        <ele>1412.79</ele>
        <time>2021-07-22T07:27:15Z</time>
      </trkpt>
      <trkpt lat="44.45956" lon="3.74844">
        <ele>1413.76</ele>
        <time>2021-07-22T07:27:43Z</time>
      </trkpt>
      <trkpt lat="44.45956" lon="3.74844">
        <ele>1413.76</ele>
        <time>2021-07-22T07:27:45Z</time>
      </trkpt>
      <trkpt lat="44.45925" lon="3.74851">
        <ele>1411.83</ele>
        <time>2021-07-22T07:27:56Z</time>
      </trkpt>
      <trkpt lat="44.4584" lon="3.7488">
        <ele>1407.99</ele>
        <time>2021-07-22T07:28:13Z</time>
      </trkpt>
      <trkpt lat="44.45811" lon="3.74896">
        <ele>1407.51</ele>
        <time>2021-07-22T07:28:20Z</time>
      </trkpt>
      <trkpt lat="44.45734" lon="3.74933">
        <ele>1403.18</ele>
        <time>2021-07-22T07:28:36Z</time>
      </trkpt>
      <trkpt lat="44.4569" lon="3.74955">
        <ele>1402.7</ele>
        <time>2021-07-22T07:28:48Z</time>
      </trkpt>
      <trkpt lat="44.4568" lon="3.74951">
        <ele>1402.7</ele>
        <time>2021-07-22T07:28:51Z</time>
      </trkpt>
      <trkpt lat="44.45629" lon="3.74945">
        <ele>1403.18</ele>
        <time>2021-07-22T07:29:05Z</time>
      </trkpt>
      <trkpt lat="44.45582" lon="3.74945">
        <ele>1405.1</ele>
        <time>2021-07-22T07:29:20Z</time>
      </trkpt>
      <trkpt lat="44.45531" lon="3.74941">
        <ele>1407.99</ele>
        <time>2021-07-22T07:29:39Z</time>
      </trkpt>
      <trkpt lat="44.45495" lon="3.7494">
        <ele>1409.43</ele>
        <time>2021-07-22T07:29:56Z</time>
      </trkpt>
      <trkpt lat="44.45483" lon="3.74937">
        <ele>1409.91</ele>
        <time>2021-07-22T07:30:07Z</time>
      </trkpt>
      <trkpt lat="44.45447" lon="3.74934">
        <ele>1412.79</ele>
        <time>2021-07-22T07:30:27Z</time>
      </trkpt>
      <trkpt lat="44.45415" lon="3.74928">
        <ele>1413.76</ele>
        <time>2021-07-22T07:30:45Z</time>
      </trkpt>
      <trkpt lat="44.45389" lon="3.74922">
        <ele>1416.16</ele>
        <time>2021-07-22T07:31:00Z</time>
      </trkpt>
      <trkpt lat="44.45365" lon="3.74912">
        <ele>1417.12</ele>
        <time>2021-07-22T07:31:14Z</time>
      </trkpt>
      <trkpt lat="44.45338" lon="3.74895">
        <ele>1418.56</ele>
        <time>2021-07-22T07:31:31Z</time>
      </trkpt>
      <trkpt lat="44.4531" lon="3.74879">
        <ele>1419.04</ele>
        <time>2021-07-22T07:31:48Z</time>
      </trkpt>
      <trkpt lat="44.453" lon="3.74867">
        <ele>1420</ele>
        <time>2021-07-22T07:31:57Z</time>
      </trkpt>
      <trkpt lat="44.45265" lon="3.74843">
        <ele>1420.49</ele>
        <time>2021-07-22T07:32:14Z</time>
      </trkpt>
      <trkpt lat="44.45225" lon="3.74819">
        <ele>1418.56</ele>
        <time>2021-07-22T07:32:27Z</time>
      </trkpt>
      <trkpt lat="44.45199" lon="3.74798">
        <ele>1417.6</ele>
        <time>2021-07-22T07:32:35Z</time>
      </trkpt>
      <trkpt lat="44.45177" lon="3.74792">
        <ele>1417.12</ele>
        <time>2021-07-22T07:32:41Z</time>
      </trkpt>
      <trkpt lat="44.45163" lon="3.7479">
        <ele>1417.12</ele>
        <time>2021-07-22T07:32:46Z</time>
      </trkpt>
      <trkpt lat="44.45145" lon="3.74777">
        <ele>1417.6</ele>
        <time>2021-07-22T07:32:55Z</time>
      </trkpt>
      <trkpt lat="44.45113" lon="3.74774">
        <ele>1419.04</ele>
        <time>2021-07-22T07:33:15Z</time>
      </trkpt>
      <trkpt lat="44.45088" lon="3.7477">
        <ele>1420.49</ele>
        <time>2021-07-22T07:33:31Z</time>
      </trkpt>
      <trkpt lat="44.45061" lon="3.74764">
        <ele>1422.41</ele>
        <time>2021-07-22T07:33:49Z</time>
      </trkpt>
      <trkpt lat="44.45039" lon="3.74757">
        <ele>1423.37</ele>
        <time>2021-07-22T07:34:05Z</time>
      </trkpt>
      <trkpt lat="44.45029" lon="3.74757">
        <ele>1424.33</ele>
        <time>2021-07-22T07:34:13Z</time>
      </trkpt>
      <trkpt lat="44.45025" lon="3.74735">
        <ele>1424.33</ele>
        <time>2021-07-22T07:34:24Z</time>
      </trkpt>
      <trkpt lat="44.45025" lon="3.74733">
        <ele>1424.33</ele>
        <time>2021-07-22T07:34:25Z</time>
      </trkpt>
      <trkpt lat="44.45019" lon="3.74729">
        <ele>1425.29</ele>
        <time>2021-07-22T07:34:37Z</time>
      </trkpt>
      <trkpt lat="44.4502" lon="3.74728">
        <ele>1424.81</ele>
        <time>2021-07-22T07:35:11Z</time>
      </trkpt>
      <trkpt lat="44.45015" lon="3.74727">
        <ele>1425.77</ele>
        <time>2021-07-22T07:35:29Z</time>
      </trkpt>
      <trkpt lat="44.44994" lon="3.74713">
        <ele>1427.7</ele>
        <time>2021-07-22T07:35:47Z</time>
      </trkpt>
      <trkpt lat="44.44977" lon="3.7471">
        <ele>1429.62</ele>
        <time>2021-07-22T07:36:01Z</time>
      </trkpt>
      <trkpt lat="44.44974" lon="3.74709">
        <ele>1429.62</ele>
        <time>2021-07-22T07:36:03Z</time>
      </trkpt>
      <trkpt lat="44.44969" lon="3.74708">
        <ele>1429.62</ele>
        <time>2021-07-22T07:36:07Z</time>
      </trkpt>
      <trkpt lat="44.44946" lon="3.74701">
        <ele>1431.54</ele>
        <time>2021-07-22T07:36:26Z</time>
      </trkpt>
      <trkpt lat="44.44934" lon="3.74695">
        <ele>1432.02</ele>
        <time>2021-07-22T07:36:36Z</time>
      </trkpt>
      <trkpt lat="44.44922" lon="3.7469">
        <ele>1433.94</ele>
        <time>2021-07-22T07:36:47Z</time>
      </trkpt>
      <trkpt lat="44.44905" lon="3.74682">
        <ele>1433.94</ele>
        <time>2021-07-22T07:37:06Z</time>
      </trkpt>
      <trkpt lat="44.44887" lon="3.74677">
        <ele>1436.35</ele>
        <time>2021-07-22T07:37:24Z</time>
      </trkpt>
      <trkpt lat="44.44873" lon="3.74675">
        <ele>1437.79</ele>
        <time>2021-07-22T07:37:38Z</time>
      </trkpt>
      <trkpt lat="44.44853" lon="3.74673">
        <ele>1440.19</ele>
        <time>2021-07-22T07:37:58Z</time>
      </trkpt>
      <trkpt lat="44.44832" lon="3.74675">
        <ele>1441.63</ele>
        <time>2021-07-22T07:38:17Z</time>
      </trkpt>
      <trkpt lat="44.44811" lon="3.74677">
        <ele>1443.56</ele>
        <time>2021-07-22T07:38:33Z</time>
      </trkpt>
      <trkpt lat="44.44788" lon="3.74679">
        <ele>1445.48</ele>
        <time>2021-07-22T07:38:51Z</time>
      </trkpt>
      <trkpt lat="44.44767" lon="3.74678">
        <ele>1446.44</ele>
        <time>2021-07-22T07:39:09Z</time>
      </trkpt>
      <trkpt lat="44.44761" lon="3.74679">
        <ele>1446.44</ele>
        <time>2021-07-22T07:39:14Z</time>
      </trkpt>
      <trkpt lat="44.44743" lon="3.74684">
        <ele>1448.36</ele>
        <time>2021-07-22T07:39:30Z</time>
      </trkpt>
      <trkpt lat="44.44724" lon="3.7469">
        <ele>1449.81</ele>
        <time>2021-07-22T07:39:48Z</time>
      </trkpt>
      <trkpt lat="44.44704" lon="3.74695">
        <ele>1450.77</ele>
        <time>2021-07-22T07:40:07Z</time>
      </trkpt>
      <trkpt lat="44.44689" lon="3.747">
        <ele>1451.73</ele>
        <time>2021-07-22T07:40:24Z</time>
      </trkpt>
      <trkpt lat="44.44688" lon="3.747">
        <ele>1451.25</ele>
        <time>2021-07-22T07:40:38Z</time>
      </trkpt>
      <trkpt lat="44.44683" lon="3.74703">
        <ele>1452.21</ele>
        <time>2021-07-22T07:40:52Z</time>
      </trkpt>
      <trkpt lat="44.4467" lon="3.74709">
        <ele>1454.13</ele>
        <time>2021-07-22T07:41:06Z</time>
      </trkpt>
      <trkpt lat="44.44661" lon="3.74712">
        <ele>1455.57</ele>
        <time>2021-07-22T07:41:14Z</time>
      </trkpt>
      <trkpt lat="44.44659" lon="3.74712">
        <ele>1454.61</ele>
        <time>2021-07-22T07:41:30Z</time>
      </trkpt>
      <trkpt lat="44.44648" lon="3.74716">
        <ele>1456.05</ele>
        <time>2021-07-22T07:41:47Z</time>
      </trkpt>
      <trkpt lat="44.44636" lon="3.74719">
        <ele>1457.98</ele>
        <time>2021-07-22T07:41:59Z</time>
      </trkpt>
      <trkpt lat="44.4462" lon="3.74726">
        <ele>1459.9</ele>
        <time>2021-07-22T07:42:16Z</time>
      </trkpt>
      <trkpt lat="44.44607" lon="3.74733">
        <ele>1461.34</ele>
        <time>2021-07-22T07:42:31Z</time>
      </trkpt>
      <trkpt lat="44.44603" lon="3.74735">
        <ele>1462.3</ele>
        <time>2021-07-22T07:42:46Z</time>
      </trkpt>
      <trkpt lat="44.44603" lon="3.74734">
        <ele>1463.26</ele>
        <time>2021-07-22T07:43:04Z</time>
      </trkpt>
      <trkpt lat="44.446" lon="3.74736">
        <ele>1461.82</ele>
        <time>2021-07-22T07:43:33Z</time>
      </trkpt>
      <trkpt lat="44.4459" lon="3.74739">
        <ele>1463.74</ele>
        <time>2021-07-22T07:43:45Z</time>
      </trkpt>
      <trkpt lat="44.44575" lon="3.74745">
        <ele>1466.15</ele>
        <time>2021-07-22T07:44:02Z</time>
      </trkpt>
      <trkpt lat="44.44568" lon="3.74747">
        <ele>1468.07</ele>
        <time>2021-07-22T07:44:19Z</time>
      </trkpt>
      <trkpt lat="44.44557" lon="3.74751">
        <ele>1469.51</ele>
        <time>2021-07-22T07:44:33Z</time>
      </trkpt>
      <trkpt lat="44.4455" lon="3.74754">
        <ele>1471.92</ele>
        <time>2021-07-22T07:44:42Z</time>
      </trkpt>
      <trkpt lat="44.44538" lon="3.74764">
        <ele>1474.8</ele>
        <time>2021-07-22T07:44:57Z</time>
      </trkpt>
      <trkpt lat="44.44531" lon="3.74773">
        <ele>1477.68</ele>
        <time>2021-07-22T07:45:11Z</time>
      </trkpt>
      <trkpt lat="44.44531" lon="3.74775">
        <ele>1477.2</ele>
        <time>2021-07-22T07:45:28Z</time>
      </trkpt>
      <trkpt lat="44.44524" lon="3.74785">
        <ele>1478.65</ele>
        <time>2021-07-22T07:45:47Z</time>
      </trkpt>
      <trkpt lat="44.44519" lon="3.74796">
        <ele>1478.65</ele>
        <time>2021-07-22T07:46:03Z</time>
      </trkpt>
      <trkpt lat="44.44513" lon="3.74807">
        <ele>1479.61</ele>
        <time>2021-07-22T07:46:13Z</time>
      </trkpt>
      <trkpt lat="44.445" lon="3.74812">
        <ele>1480.57</ele>
        <time>2021-07-22T07:46:28Z</time>
      </trkpt>
      <trkpt lat="44.44489" lon="3.74814">
        <ele>1482.01</ele>
        <time>2021-07-22T07:46:42Z</time>
      </trkpt>
      <trkpt lat="44.44478" lon="3.74816">
        <ele>1482.97</ele>
        <time>2021-07-22T07:46:54Z</time>
      </trkpt>
      <trkpt lat="44.44468" lon="3.74816">
        <ele>1485.37</ele>
        <time>2021-07-22T07:47:07Z</time>
      </trkpt>
      <trkpt lat="44.44457" lon="3.74819">
        <ele>1487.78</ele>
        <time>2021-07-22T07:47:20Z</time>
      </trkpt>
      <trkpt lat="44.44446" lon="3.74822">
        <ele>1488.74</ele>
        <time>2021-07-22T07:47:33Z</time>
      </trkpt>
      <trkpt lat="44.4444" lon="3.74826">
        <ele>1490.18</ele>
        <time>2021-07-22T07:47:47Z</time>
      </trkpt>
      <trkpt lat="44.44428" lon="3.74829">
        <ele>1489.7</ele>
        <time>2021-07-22T07:48:02Z</time>
      </trkpt>
      <trkpt lat="44.44416" lon="3.7483">
        <ele>1491.62</ele>
        <time>2021-07-22T07:48:16Z</time>
      </trkpt>
      <trkpt lat="44.44411" lon="3.74831">
        <ele>1492.1</ele>
        <time>2021-07-22T07:48:30Z</time>
      </trkpt>
      <trkpt lat="44.44402" lon="3.74835">
        <ele>1493.55</ele>
        <time>2021-07-22T07:48:42Z</time>
      </trkpt>
      <trkpt lat="44.44391" lon="3.74846">
        <ele>1496.43</ele>
        <time>2021-07-22T07:48:57Z</time>
      </trkpt>
      <trkpt lat="44.44386" lon="3.74849">
        <ele>1497.39</ele>
        <time>2021-07-22T07:49:11Z</time>
      </trkpt>
      <trkpt lat="44.44383" lon="3.74852">
        <ele>1497.87</ele>
        <time>2021-07-22T07:49:32Z</time>
      </trkpt>
      <trkpt lat="44.44373" lon="3.74864">
        <ele>1498.83</ele>
        <time>2021-07-22T07:49:47Z</time>
      </trkpt>
      <trkpt lat="44.4436" lon="3.74876">
        <ele>1500.76</ele>
        <time>2021-07-22T07:50:04Z</time>
      </trkpt>
      <trkpt lat="44.4435" lon="3.74886">
        <ele>1503.16</ele>
        <time>2021-07-22T07:50:18Z</time>
      </trkpt>
      <trkpt lat="44.44344" lon="3.7489">
        <ele>1505.08</ele>
        <time>2021-07-22T07:50:34Z</time>
      </trkpt>
      <trkpt lat="44.44337" lon="3.74897">
        <ele>1506.52</ele>
        <time>2021-07-22T07:50:53Z</time>
      </trkpt>
      <trkpt lat="44.44325" lon="3.74905">
        <ele>1507.48</ele>
        <time>2021-07-22T07:51:09Z</time>
      </trkpt>
      <trkpt lat="44.4432" lon="3.74907">
        <ele>1507.97</ele>
        <time>2021-07-22T07:51:15Z</time>
      </trkpt>
      <trkpt lat="44.44317" lon="3.74908">
        <ele>1508.45</ele>
        <time>2021-07-22T07:51:18Z</time>
      </trkpt>
      <trkpt lat="44.44306" lon="3.74917">
        <ele>1509.41</ele>
        <time>2021-07-22T07:51:31Z</time>
      </trkpt>
      <trkpt lat="44.44303" lon="3.74919">
        <ele>1509.89</ele>
        <time>2021-07-22T07:51:49Z</time>
      </trkpt>
      <trkpt lat="44.44296" lon="3.7492">
        <ele>1510.37</ele>
        <time>2021-07-22T07:52:00Z</time>
      </trkpt>
      <trkpt lat="44.44289" lon="3.74924">
        <ele>1511.33</ele>
        <time>2021-07-22T07:52:08Z</time>
      </trkpt>
      <trkpt lat="44.44274" lon="3.74936">
        <ele>1512.29</ele>
        <time>2021-07-22T07:52:26Z</time>
      </trkpt>
      <trkpt lat="44.4426" lon="3.74944">
        <ele>1513.73</ele>
        <time>2021-07-22T07:52:43Z</time>
      </trkpt>
      <trkpt lat="44.44255" lon="3.74945">
        <ele>1513.73</ele>
        <time>2021-07-22T07:52:59Z</time>
      </trkpt>
      <trkpt lat="44.44255" lon="3.74944">
        <ele>1513.25</ele>
        <time>2021-07-22T07:53:30Z</time>
      </trkpt>
      <trkpt lat="44.44249" lon="3.74946">
        <ele>1514.21</ele>
        <time>2021-07-22T07:53:49Z</time>
      </trkpt>
      <trkpt lat="44.44244" lon="3.74946">
        <ele>1515.18</ele>
        <time>2021-07-22T07:53:54Z</time>
      </trkpt>
      <trkpt lat="44.44234" lon="3.74953">
        <ele>1516.14</ele>
        <time>2021-07-22T07:54:10Z</time>
      </trkpt>
      <trkpt lat="44.44228" lon="3.74952">
        <ele>1517.1</ele>
        <time>2021-07-22T07:54:31Z</time>
      </trkpt>
      <trkpt lat="44.44212" lon="3.74954">
        <ele>1518.06</ele>
        <time>2021-07-22T07:54:46Z</time>
      </trkpt>
      <trkpt lat="44.44197" lon="3.74955">
        <ele>1519.98</ele>
        <time>2021-07-22T07:55:01Z</time>
      </trkpt>
      <trkpt lat="44.44184" lon="3.74953">
        <ele>1521.9</ele>
        <time>2021-07-22T07:55:15Z</time>
      </trkpt>
      <trkpt lat="44.44175" lon="3.74954">
        <ele>1522.39</ele>
        <time>2021-07-22T07:55:30Z</time>
      </trkpt>
      <trkpt lat="44.44173" lon="3.74955">
        <ele>1522.39</ele>
        <time>2021-07-22T07:55:47Z</time>
      </trkpt>
      <trkpt lat="44.44158" lon="3.74954">
        <ele>1523.35</ele>
        <time>2021-07-22T07:56:02Z</time>
      </trkpt>
      <trkpt lat="44.44142" lon="3.74952">
        <ele>1525.75</ele>
        <time>2021-07-22T07:56:17Z</time>
      </trkpt>
      <trkpt lat="44.44127" lon="3.74951">
        <ele>1527.19</ele>
        <time>2021-07-22T07:56:33Z</time>
      </trkpt>
      <trkpt lat="44.44113" lon="3.74949">
        <ele>1528.15</ele>
        <time>2021-07-22T07:56:48Z</time>
      </trkpt>
      <trkpt lat="44.44107" lon="3.74949">
        <ele>1528.63</ele>
        <time>2021-07-22T07:56:55Z</time>
      </trkpt>
      <trkpt lat="44.441" lon="3.7495">
        <ele>1529.59</ele>
        <time>2021-07-22T07:57:07Z</time>
      </trkpt>
      <trkpt lat="44.44098" lon="3.7495">
        <ele>1529.11</ele>
        <time>2021-07-22T07:57:34Z</time>
      </trkpt>
      <trkpt lat="44.44099" lon="3.74949">
        <ele>1528.63</ele>
        <time>2021-07-22T07:58:05Z</time>
      </trkpt>
      <trkpt lat="44.44099" lon="3.7495">
        <ele>1528.63</ele>
        <time>2021-07-22T07:58:27Z</time>
      </trkpt>
      <trkpt lat="44.44099" lon="3.7495">
        <ele>1528.63</ele>
        <time>2021-07-22T07:58:52Z</time>
      </trkpt>
      <trkpt lat="44.44097" lon="3.74948">
        <ele>1529.11</ele>
        <time>2021-07-22T07:59:14Z</time>
      </trkpt>
      <trkpt lat="44.44092" lon="3.74946">
        <ele>1530.08</ele>
        <time>2021-07-22T07:59:21Z</time>
      </trkpt>
      <trkpt lat="44.44075" lon="3.74946">
        <ele>1531.52</ele>
        <time>2021-07-22T07:59:39Z</time>
      </trkpt>
      <trkpt lat="44.44062" lon="3.74952">
        <ele>1531.04</ele>
        <time>2021-07-22T07:59:53Z</time>
      </trkpt>
      <trkpt lat="44.4405" lon="3.74953">
        <ele>1531.52</ele>
        <time>2021-07-22T08:00:07Z</time>
      </trkpt>
      <trkpt lat="44.44044" lon="3.74951">
        <ele>1532.96</ele>
        <time>2021-07-22T08:00:19Z</time>
      </trkpt>
      <trkpt lat="44.44025" lon="3.74949">
        <ele>1533.92</ele>
        <time>2021-07-22T08:00:34Z</time>
      </trkpt>
      <trkpt lat="44.44012" lon="3.74947">
        <ele>1534.4</ele>
        <time>2021-07-22T08:00:43Z</time>
      </trkpt>
      <trkpt lat="44.43994" lon="3.74945">
        <ele>1536.32</ele>
        <time>2021-07-22T08:00:56Z</time>
      </trkpt>
      <trkpt lat="44.4398" lon="3.74942">
        <ele>1536.32</ele>
        <time>2021-07-22T08:01:05Z</time>
      </trkpt>
      <trkpt lat="44.43967" lon="3.74938">
        <ele>1537.77</ele>
        <time>2021-07-22T08:01:14Z</time>
      </trkpt>
      <trkpt lat="44.43959" lon="3.74938">
        <ele>1538.73</ele>
        <time>2021-07-22T08:01:20Z</time>
      </trkpt>
      <trkpt lat="44.4393" lon="3.74936">
        <ele>1538.73</ele>
        <time>2021-07-22T08:01:38Z</time>
      </trkpt>
      <trkpt lat="44.43924" lon="3.74937">
        <ele>1539.69</ele>
        <time>2021-07-22T08:01:42Z</time>
      </trkpt>
      <trkpt lat="44.43921" lon="3.74937">
        <ele>1539.69</ele>
        <time>2021-07-22T08:01:44Z</time>
      </trkpt>
      <trkpt lat="44.43899" lon="3.74935">
        <ele>1540.17</ele>
        <time>2021-07-22T08:02:00Z</time>
      </trkpt>
      <trkpt lat="44.43899" lon="3.74935">
        <ele>1539.69</ele>
        <time>2021-07-22T08:02:25Z</time>
      </trkpt>
      <trkpt lat="44.43899" lon="3.74935">
        <ele>1539.69</ele>
        <time>2021-07-22T08:02:47Z</time>
      </trkpt>
      <trkpt lat="44.439" lon="3.74935">
        <ele>1539.69</ele>
        <time>2021-07-22T08:03:02Z</time>
      </trkpt>
      <trkpt lat="44.43899" lon="3.74936">
        <ele>1539.69</ele>
        <time>2021-07-22T08:03:17Z</time>
      </trkpt>
      <trkpt lat="44.43892" lon="3.74935">
        <ele>1540.17</ele>
        <time>2021-07-22T08:03:35Z</time>
      </trkpt>
      <trkpt lat="44.43885" lon="3.74935">
        <ele>1540.17</ele>
        <time>2021-07-22T08:03:42Z</time>
      </trkpt>
      <trkpt lat="44.43874" lon="3.74932">
        <ele>1541.13</ele>
        <time>2021-07-22T08:03:53Z</time>
      </trkpt>
      <trkpt lat="44.43864" lon="3.74934">
        <ele>1541.61</ele>
        <time>2021-07-22T08:04:09Z</time>
      </trkpt>
      <trkpt lat="44.43864" lon="3.74934">
        <ele>1541.13</ele>
        <time>2021-07-22T08:04:35Z</time>
      </trkpt>
      <trkpt lat="44.43865" lon="3.74933">
        <ele>1541.13</ele>
        <time>2021-07-22T08:05:02Z</time>
      </trkpt>
      <trkpt lat="44.43865" lon="3.74934">
        <ele>1541.13</ele>
        <time>2021-07-22T08:05:14Z</time>
      </trkpt>
      <trkpt lat="44.43847" lon="3.74933">
        <ele>1542.09</ele>
        <time>2021-07-22T08:05:30Z</time>
      </trkpt>
      <trkpt lat="44.43826" lon="3.7493">
        <ele>1543.53</ele>
        <time>2021-07-22T08:05:48Z</time>
      </trkpt>
      <trkpt lat="44.43807" lon="3.74929">
        <ele>1545.94</ele>
        <time>2021-07-22T08:06:06Z</time>
      </trkpt>
      <trkpt lat="44.43789" lon="3.74926">
        <ele>1548.82</ele>
        <time>2021-07-22T08:06:24Z</time>
      </trkpt>
      <trkpt lat="44.43774" lon="3.74925">
        <ele>1549.78</ele>
        <time>2021-07-22T08:06:40Z</time>
      </trkpt>
      <trkpt lat="44.4377" lon="3.74926">
        <ele>1550.26</ele>
        <time>2021-07-22T08:06:44Z</time>
      </trkpt>
      <trkpt lat="44.43765" lon="3.74929">
        <ele>1550.26</ele>
        <time>2021-07-22T08:06:50Z</time>
      </trkpt>
      <trkpt lat="44.43745" lon="3.74927">
        <ele>1551.22</ele>
        <time>2021-07-22T08:07:09Z</time>
      </trkpt>
      <trkpt lat="44.43735" lon="3.74927">
        <ele>1552.19</ele>
        <time>2021-07-22T08:07:23Z</time>
      </trkpt>
      <trkpt lat="44.43735" lon="3.74926">
        <ele>1552.67</ele>
        <time>2021-07-22T08:07:50Z</time>
      </trkpt>
      <trkpt lat="44.43722" lon="3.74927">
        <ele>1554.11</ele>
        <time>2021-07-22T08:08:06Z</time>
      </trkpt>
      <trkpt lat="44.43705" lon="3.74927">
        <ele>1554.59</ele>
        <time>2021-07-22T08:08:22Z</time>
      </trkpt>
      <trkpt lat="44.43685" lon="3.74927">
        <ele>1556.51</ele>
        <time>2021-07-22T08:08:39Z</time>
      </trkpt>
      <trkpt lat="44.43679" lon="3.74926">
        <ele>1556.51</ele>
        <time>2021-07-22T08:08:45Z</time>
      </trkpt>
      <trkpt lat="44.43665" lon="3.74929">
        <ele>1559.4</ele>
        <time>2021-07-22T08:08:59Z</time>
      </trkpt>
      <trkpt lat="44.43655" lon="3.74925">
        <ele>1560.84</ele>
        <time>2021-07-22T08:09:13Z</time>
      </trkpt>
      <trkpt lat="44.43648" lon="3.74925">
        <ele>1560.84</ele>
        <time>2021-07-22T08:09:30Z</time>
      </trkpt>
      <trkpt lat="44.43632" lon="3.74927">
        <ele>1562.28</ele>
        <time>2021-07-22T08:09:47Z</time>
      </trkpt>
      <trkpt lat="44.43616" lon="3.74929">
        <ele>1563.24</ele>
        <time>2021-07-22T08:10:03Z</time>
      </trkpt>
      <trkpt lat="44.43598" lon="3.74929">
        <ele>1565.16</ele>
        <time>2021-07-22T08:10:20Z</time>
      </trkpt>
      <trkpt lat="44.43585" lon="3.7493">
        <ele>1565.64</ele>
        <time>2021-07-22T08:10:35Z</time>
      </trkpt>
      <trkpt lat="44.43585" lon="3.74931">
        <ele>1565.64</ele>
        <time>2021-07-22T08:10:51Z</time>
      </trkpt>
      <trkpt lat="44.43586" lon="3.74932">
        <ele>1563.72</ele>
        <time>2021-07-22T08:11:31Z</time>
      </trkpt>
      <trkpt lat="44.43586" lon="3.74932">
        <ele>1563.24</ele>
        <time>2021-07-22T08:12:21Z</time>
      </trkpt>
      <trkpt lat="44.43587" lon="3.74932">
        <ele>1563.24</ele>
        <time>2021-07-22T08:13:01Z</time>
      </trkpt>
      <trkpt lat="44.43587" lon="3.74932">
        <ele>1563.24</ele>
        <time>2021-07-22T08:13:40Z</time>
      </trkpt>
      <trkpt lat="44.43586" lon="3.74932">
        <ele>1562.76</ele>
        <time>2021-07-22T08:14:10Z</time>
      </trkpt>
      <trkpt lat="44.43586" lon="3.74932">
        <ele>1562.28</ele>
        <time>2021-07-22T08:14:50Z</time>
      </trkpt>
      <trkpt lat="44.43585" lon="3.74931">
        <ele>1563.24</ele>
        <time>2021-07-22T08:15:04Z</time>
      </trkpt>
      <trkpt lat="44.43572" lon="3.7493">
        <ele>1566.12</ele>
        <time>2021-07-22T08:15:19Z</time>
      </trkpt>
      <trkpt lat="44.4356" lon="3.74928">
        <ele>1567.57</ele>
        <time>2021-07-22T08:15:35Z</time>
      </trkpt>
      <trkpt lat="44.43547" lon="3.74926">
        <ele>1568.53</ele>
        <time>2021-07-22T08:15:46Z</time>
      </trkpt>
      <trkpt lat="44.43517" lon="3.74919">
        <ele>1569.49</ele>
        <time>2021-07-22T08:16:00Z</time>
      </trkpt>
      <trkpt lat="44.43472" lon="3.74905">
        <ele>1568.53</ele>
        <time>2021-07-22T08:16:17Z</time>
      </trkpt>
      <trkpt lat="44.43444" lon="3.74899">
        <ele>1568.05</ele>
        <time>2021-07-22T08:16:30Z</time>
      </trkpt>
      <trkpt lat="44.43413" lon="3.74892">
        <ele>1568.53</ele>
        <time>2021-07-22T08:16:45Z</time>
      </trkpt>
      <trkpt lat="44.43383" lon="3.7489">
        <ele>1569.97</ele>
        <time>2021-07-22T08:17:01Z</time>
      </trkpt>
      <trkpt lat="44.43356" lon="3.74888">
        <ele>1573.33</ele>
        <time>2021-07-22T08:17:19Z</time>
      </trkpt>
      <trkpt lat="44.43332" lon="3.74888">
        <ele>1574.78</ele>
        <time>2021-07-22T08:17:36Z</time>
      </trkpt>
      <trkpt lat="44.43311" lon="3.74889">
        <ele>1576.7</ele>
        <time>2021-07-22T08:17:53Z</time>
      </trkpt>
      <trkpt lat="44.43299" lon="3.74891">
        <ele>1577.66</ele>
        <time>2021-07-22T08:18:04Z</time>
      </trkpt>
      <trkpt lat="44.43297" lon="3.74891">
        <ele>1577.66</ele>
        <time>2021-07-22T08:18:06Z</time>
      </trkpt>
      <trkpt lat="44.4328" lon="3.74894">
        <ele>1579.1</ele>
        <time>2021-07-22T08:18:21Z</time>
      </trkpt>
      <trkpt lat="44.43271" lon="3.74895">
        <ele>1578.62</ele>
        <time>2021-07-22T08:18:28Z</time>
      </trkpt>
      <trkpt lat="44.43262" lon="3.74898">
        <ele>1579.58</ele>
        <time>2021-07-22T08:18:36Z</time>
      </trkpt>
      <trkpt lat="44.43258" lon="3.749">
        <ele>1579.58</ele>
        <time>2021-07-22T08:18:40Z</time>
      </trkpt>
      <trkpt lat="44.43248" lon="3.74903">
        <ele>1580.06</ele>
        <time>2021-07-22T08:18:49Z</time>
      </trkpt>
      <trkpt lat="44.43242" lon="3.74905">
        <ele>1581.03</ele>
        <time>2021-07-22T08:18:54Z</time>
      </trkpt>
      <trkpt lat="44.43219" lon="3.74913">
        <ele>1583.43</ele>
        <time>2021-07-22T08:19:15Z</time>
      </trkpt>
      <trkpt lat="44.43204" lon="3.74918">
        <ele>1585.83</ele>
        <time>2021-07-22T08:19:30Z</time>
      </trkpt>
      <trkpt lat="44.432" lon="3.74918">
        <ele>1586.31</ele>
        <time>2021-07-22T08:19:42Z</time>
      </trkpt>
      <trkpt lat="44.43192" lon="3.74918">
        <ele>1588.24</ele>
        <time>2021-07-22T08:19:54Z</time>
      </trkpt>
      <trkpt lat="44.43185" lon="3.74918">
        <ele>1589.2</ele>
        <time>2021-07-22T08:20:09Z</time>
      </trkpt>
      <trkpt lat="44.43185" lon="3.74919">
        <ele>1589.2</ele>
        <time>2021-07-22T08:20:39Z</time>
      </trkpt>
      <trkpt lat="44.43185" lon="3.74917">
        <ele>1587.75</ele>
        <time>2021-07-22T08:20:55Z</time>
      </trkpt>
      <trkpt lat="44.43184" lon="3.74917">
        <ele>1587.75</ele>
        <time>2021-07-22T08:21:15Z</time>
      </trkpt>
      <trkpt lat="44.43184" lon="3.74917">
        <ele>1587.75</ele>
        <time>2021-07-22T08:21:17Z</time>
      </trkpt>
      <trkpt lat="44.43165" lon="3.74921">
        <ele>1591.12</ele>
        <time>2021-07-22T08:21:37Z</time>
      </trkpt>
      <trkpt lat="44.43148" lon="3.74924">
        <ele>1592.08</ele>
        <time>2021-07-22T08:21:53Z</time>
      </trkpt>
      <trkpt lat="44.43131" lon="3.74929">
        <ele>1593.52</ele>
        <time>2021-07-22T08:22:10Z</time>
      </trkpt>
      <trkpt lat="44.43115" lon="3.74936">
        <ele>1595.93</ele>
        <time>2021-07-22T08:22:28Z</time>
      </trkpt>
      <trkpt lat="44.43102" lon="3.7494">
        <ele>1596.89</ele>
        <time>2021-07-22T08:22:45Z</time>
      </trkpt>
      <trkpt lat="44.4309" lon="3.74945">
        <ele>1598.81</ele>
        <time>2021-07-22T08:23:02Z</time>
      </trkpt>
      <trkpt lat="44.43074" lon="3.7495">
        <ele>1600.73</ele>
        <time>2021-07-22T08:23:21Z</time>
      </trkpt>
      <trkpt lat="44.43071" lon="3.74952">
        <ele>1600.25</ele>
        <time>2021-07-22T08:23:36Z</time>
      </trkpt>
      <trkpt lat="44.43072" lon="3.74952">
        <ele>1600.25</ele>
        <time>2021-07-22T08:24:19Z</time>
      </trkpt>
      <trkpt lat="44.43072" lon="3.74952">
        <ele>1599.77</ele>
        <time>2021-07-22T08:24:46Z</time>
      </trkpt>
      <trkpt lat="44.43072" lon="3.74952">
        <ele>1599.77</ele>
        <time>2021-07-22T08:25:24Z</time>
      </trkpt>
      <trkpt lat="44.43072" lon="3.74951">
        <ele>1599.77</ele>
        <time>2021-07-22T08:25:59Z</time>
      </trkpt>
      <trkpt lat="44.43072" lon="3.74951">
        <ele>1598.81</ele>
        <time>2021-07-22T08:26:35Z</time>
      </trkpt>
      <trkpt lat="44.43069" lon="3.74954">
        <ele>1598.81</ele>
        <time>2021-07-22T08:26:40Z</time>
      </trkpt>
      <trkpt lat="44.43047" lon="3.7496">
        <ele>1600.73</ele>
        <time>2021-07-22T08:27:00Z</time>
      </trkpt>
      <trkpt lat="44.43038" lon="3.74964">
        <ele>1602.17</ele>
        <time>2021-07-22T08:27:08Z</time>
      </trkpt>
      <trkpt lat="44.43021" lon="3.74974">
        <ele>1604.1</ele>
        <time>2021-07-22T08:27:27Z</time>
      </trkpt>
      <trkpt lat="44.43005" lon="3.74982">
        <ele>1605.06</ele>
        <time>2021-07-22T08:27:45Z</time>
      </trkpt>
      <trkpt lat="44.42987" lon="3.7499">
        <ele>1606.5</ele>
        <time>2021-07-22T08:28:05Z</time>
      </trkpt>
      <trkpt lat="44.42979" lon="3.74993">
        <ele>1607.94</ele>
        <time>2021-07-22T08:28:19Z</time>
      </trkpt>
      <trkpt lat="44.42962" lon="3.74999">
        <ele>1608.9</ele>
        <time>2021-07-22T08:28:36Z</time>
      </trkpt>
      <trkpt lat="44.42948" lon="3.75008">
        <ele>1611.31</ele>
        <time>2021-07-22T08:28:52Z</time>
      </trkpt>
      <trkpt lat="44.42943" lon="3.7501">
        <ele>1611.79</ele>
        <time>2021-07-22T08:28:57Z</time>
      </trkpt>
      <trkpt lat="44.4294" lon="3.7501">
        <ele>1612.27</ele>
        <time>2021-07-22T08:29:01Z</time>
      </trkpt>
      <trkpt lat="44.4293" lon="3.75012">
        <ele>1613.23</ele>
        <time>2021-07-22T08:29:13Z</time>
      </trkpt>
      <trkpt lat="44.42919" lon="3.75014">
        <ele>1614.67</ele>
        <time>2021-07-22T08:29:29Z</time>
      </trkpt>
      <trkpt lat="44.42908" lon="3.75017">
        <ele>1616.11</ele>
        <time>2021-07-22T08:29:47Z</time>
      </trkpt>
      <trkpt lat="44.42895" lon="3.75022">
        <ele>1617.56</ele>
        <time>2021-07-22T08:30:02Z</time>
      </trkpt>
      <trkpt lat="44.42889" lon="3.75023">
        <ele>1618.52</ele>
        <time>2021-07-22T08:30:15Z</time>
      </trkpt>
      <trkpt lat="44.42889" lon="3.75022">
        <ele>1619</ele>
        <time>2021-07-22T08:30:39Z</time>
      </trkpt>
      <trkpt lat="44.42889" lon="3.75023">
        <ele>1619</ele>
        <time>2021-07-22T08:31:02Z</time>
      </trkpt>
      <trkpt lat="44.42877" lon="3.75026">
        <ele>1620.44</ele>
        <time>2021-07-22T08:31:17Z</time>
      </trkpt>
      <trkpt lat="44.42872" lon="3.75028">
        <ele>1620.92</ele>
        <time>2021-07-22T08:31:21Z</time>
      </trkpt>
      <trkpt lat="44.42856" lon="3.7504">
        <ele>1621.88</ele>
        <time>2021-07-22T08:31:36Z</time>
      </trkpt>
      <trkpt lat="44.42843" lon="3.75043">
        <ele>1622.84</ele>
        <time>2021-07-22T08:31:50Z</time>
      </trkpt>
      <trkpt lat="44.42827" lon="3.75049">
        <ele>1624.77</ele>
        <time>2021-07-22T08:32:07Z</time>
      </trkpt>
      <trkpt lat="44.42813" lon="3.75055">
        <ele>1626.21</ele>
        <time>2021-07-22T08:32:24Z</time>
      </trkpt>
      <trkpt lat="44.42804" lon="3.75061">
        <ele>1626.69</ele>
        <time>2021-07-22T08:32:37Z</time>
      </trkpt>
      <trkpt lat="44.42801" lon="3.75063">
        <ele>1626.69</ele>
        <time>2021-07-22T08:32:40Z</time>
      </trkpt>
      <trkpt lat="44.42784" lon="3.7507">
        <ele>1628.13</ele>
        <time>2021-07-22T08:32:57Z</time>
      </trkpt>
      <trkpt lat="44.42778" lon="3.75075">
        <ele>1628.61</ele>
        <time>2021-07-22T08:33:06Z</time>
      </trkpt>
      <trkpt lat="44.42769" lon="3.75081">
        <ele>1629.09</ele>
        <time>2021-07-22T08:33:20Z</time>
      </trkpt>
      <trkpt lat="44.42751" lon="3.75089">
        <ele>1629.57</ele>
        <time>2021-07-22T08:33:38Z</time>
      </trkpt>
      <trkpt lat="44.42732" lon="3.75098">
        <ele>1630.05</ele>
        <time>2021-07-22T08:33:55Z</time>
      </trkpt>
      <trkpt lat="44.42725" lon="3.75099">
        <ele>1631.01</ele>
        <time>2021-07-22T08:34:11Z</time>
      </trkpt>
      <trkpt lat="44.42718" lon="3.75102">
        <ele>1631.49</ele>
        <time>2021-07-22T08:34:30Z</time>
      </trkpt>
      <trkpt lat="44.4271" lon="3.75107">
        <ele>1631.49</ele>
        <time>2021-07-22T08:34:43Z</time>
      </trkpt>
      <trkpt lat="44.4271" lon="3.75107">
        <ele>1631.49</ele>
        <time>2021-07-22T08:35:08Z</time>
      </trkpt>
      <trkpt lat="44.4271" lon="3.75108">
        <ele>1631.49</ele>
        <time>2021-07-22T08:35:36Z</time>
      </trkpt>
      <trkpt lat="44.42709" lon="3.75109">
        <ele>1631.49</ele>
        <time>2021-07-22T08:35:49Z</time>
      </trkpt>
      <trkpt lat="44.42686" lon="3.75119">
        <ele>1632.94</ele>
        <time>2021-07-22T08:36:03Z</time>
      </trkpt>
      <trkpt lat="44.42662" lon="3.75126">
        <ele>1634.38</ele>
        <time>2021-07-22T08:36:18Z</time>
      </trkpt>
      <trkpt lat="44.42643" lon="3.75143">
        <ele>1634.38</ele>
        <time>2021-07-22T08:36:33Z</time>
      </trkpt>
      <trkpt lat="44.4264" lon="3.75146">
        <ele>1633.9</ele>
        <time>2021-07-22T08:36:43Z</time>
      </trkpt>
      <trkpt lat="44.42639" lon="3.75146">
        <ele>1633.42</ele>
        <time>2021-07-22T08:37:09Z</time>
      </trkpt>
      <trkpt lat="44.42639" lon="3.75146">
        <ele>1633.42</ele>
        <time>2021-07-22T08:37:27Z</time>
      </trkpt>
      <trkpt lat="44.42639" lon="3.75145">
        <ele>1633.42</ele>
        <time>2021-07-22T08:37:41Z</time>
      </trkpt>
      <trkpt lat="44.42638" lon="3.75145">
        <ele>1633.42</ele>
        <time>2021-07-22T08:37:48Z</time>
      </trkpt>
      <trkpt lat="44.42634" lon="3.75146">
        <ele>1633.42</ele>
        <time>2021-07-22T08:37:52Z</time>
      </trkpt>
      <trkpt lat="44.42609" lon="3.7516">
        <ele>1633.9</ele>
        <time>2021-07-22T08:38:05Z</time>
      </trkpt>
      <trkpt lat="44.42571" lon="3.75167">
        <ele>1634.38</ele>
        <time>2021-07-22T08:38:20Z</time>
      </trkpt>
      <trkpt lat="44.42541" lon="3.75159">
        <ele>1635.82</ele>
        <time>2021-07-22T08:38:33Z</time>
      </trkpt>
      <trkpt lat="44.42503" lon="3.7515">
        <ele>1634.86</ele>
        <time>2021-07-22T08:38:46Z</time>
      </trkpt>
      <trkpt lat="44.42497" lon="3.75154">
        <ele>1634.38</ele>
        <time>2021-07-22T08:38:48Z</time>
      </trkpt>
      <trkpt lat="44.4249" lon="3.75168">
        <ele>1633.9</ele>
        <time>2021-07-22T08:38:52Z</time>
      </trkpt>
      <trkpt lat="44.42465" lon="3.75201">
        <ele>1632.46</ele>
        <time>2021-07-22T08:39:04Z</time>
      </trkpt>
      <trkpt lat="44.42426" lon="3.75244">
        <ele>1632.46</ele>
        <time>2021-07-22T08:39:19Z</time>
      </trkpt>
      <trkpt lat="44.42367" lon="3.75283">
        <ele>1632.46</ele>
        <time>2021-07-22T08:39:37Z</time>
      </trkpt>
      <trkpt lat="44.42337" lon="3.75297">
        <ele>1632.94</ele>
        <time>2021-07-22T08:39:50Z</time>
      </trkpt>
      <trkpt lat="44.42338" lon="3.75297">
        <ele>1631.98</ele>
        <time>2021-07-22T08:40:13Z</time>
      </trkpt>
      <trkpt lat="44.4234" lon="3.75297">
        <ele>1632.46</ele>
        <time>2021-07-22T08:40:25Z</time>
      </trkpt>
      <trkpt lat="44.42346" lon="3.75294">
        <ele>1631.49</ele>
        <time>2021-07-22T08:40:36Z</time>
      </trkpt>
      <trkpt lat="44.42392" lon="3.75272">
        <ele>1631.49</ele>
        <time>2021-07-22T08:40:52Z</time>
      </trkpt>
      <trkpt lat="44.42431" lon="3.75243">
        <ele>1632.46</ele>
        <time>2021-07-22T08:41:06Z</time>
      </trkpt>
      <trkpt lat="44.42468" lon="3.75199">
        <ele>1632.46</ele>
        <time>2021-07-22T08:41:23Z</time>
      </trkpt>
      <trkpt lat="44.4247" lon="3.75196">
        <ele>1632.94</ele>
        <time>2021-07-22T08:41:24Z</time>
      </trkpt>
      <trkpt lat="44.42485" lon="3.75171">
        <ele>1632.94</ele>
        <time>2021-07-22T08:41:37Z</time>
      </trkpt>
      <trkpt lat="44.42484" lon="3.75171">
        <ele>1633.42</ele>
        <time>2021-07-22T08:42:10Z</time>
      </trkpt>
      <trkpt lat="44.42489" lon="3.75166">
        <ele>1633.9</ele>
        <time>2021-07-22T08:42:22Z</time>
      </trkpt>
      <trkpt lat="44.42495" lon="3.75155">
        <ele>1633.42</ele>
        <time>2021-07-22T08:42:36Z</time>
      </trkpt>
      <trkpt lat="44.42494" lon="3.75152">
        <ele>1632.94</ele>
        <time>2021-07-22T08:43:04Z</time>
      </trkpt>
      <trkpt lat="44.42491" lon="3.75149">
        <ele>1632.46</ele>
        <time>2021-07-22T08:43:15Z</time>
      </trkpt>
      <trkpt lat="44.42479" lon="3.75149">
        <ele>1631.98</ele>
        <time>2021-07-22T08:43:34Z</time>
      </trkpt>
      <trkpt lat="44.42474" lon="3.75152">
        <ele>1631.01</ele>
        <time>2021-07-22T08:43:42Z</time>
      </trkpt>
      <trkpt lat="44.42465" lon="3.75161">
        <ele>1629.57</ele>
        <time>2021-07-22T08:43:52Z</time>
      </trkpt>
      <trkpt lat="44.42463" lon="3.7516">
        <ele>1629.57</ele>
        <time>2021-07-22T08:43:54Z</time>
      </trkpt>
      <trkpt lat="44.4245" lon="3.75152">
        <ele>1628.61</ele>
        <time>2021-07-22T08:44:08Z</time>
      </trkpt>
      <trkpt lat="44.42448" lon="3.75153">
        <ele>1628.13</ele>
        <time>2021-07-22T08:44:23Z</time>
      </trkpt>
      <trkpt lat="44.42447" lon="3.75153">
        <ele>1628.13</ele>
        <time>2021-07-22T08:44:24Z</time>
      </trkpt>
      <trkpt lat="44.42437" lon="3.75155">
        <ele>1627.17</ele>
        <time>2021-07-22T08:44:31Z</time>
      </trkpt>
      <trkpt lat="44.42405" lon="3.75148">
        <ele>1622.36</ele>
        <time>2021-07-22T08:44:42Z</time>
      </trkpt>
      <trkpt lat="44.42374" lon="3.75138">
        <ele>1616.11</ele>
        <time>2021-07-22T08:44:53Z</time>
      </trkpt>
      <trkpt lat="44.42371" lon="3.7514">
        <ele>1615.63</ele>
        <time>2021-07-22T08:44:59Z</time>
      </trkpt>
      <trkpt lat="44.42351" lon="3.7514">
        <ele>1613.71</ele>
        <time>2021-07-22T08:45:09Z</time>
      </trkpt>
      <trkpt lat="44.42341" lon="3.75141">
        <ele>1612.75</ele>
        <time>2021-07-22T08:45:19Z</time>
      </trkpt>
      <trkpt lat="44.42337" lon="3.75141">
        <ele>1612.75</ele>
        <time>2021-07-22T08:45:31Z</time>
      </trkpt>
      <trkpt lat="44.42329" lon="3.75141">
        <ele>1614.19</ele>
        <time>2021-07-22T08:45:43Z</time>
      </trkpt>
      <trkpt lat="44.42323" lon="3.75139">
        <ele>1613.23</ele>
        <time>2021-07-22T08:45:58Z</time>
      </trkpt>
      <trkpt lat="44.42315" lon="3.75139">
        <ele>1610.35</ele>
        <time>2021-07-22T08:46:08Z</time>
      </trkpt>
      <trkpt lat="44.4231" lon="3.75138">
        <ele>1609.86</ele>
        <time>2021-07-22T08:46:14Z</time>
      </trkpt>
      <trkpt lat="44.42304" lon="3.75132">
        <ele>1607.94</ele>
        <time>2021-07-22T08:46:23Z</time>
      </trkpt>
      <trkpt lat="44.42291" lon="3.75126">
        <ele>1605.06</ele>
        <time>2021-07-22T08:46:30Z</time>
      </trkpt>
      <trkpt lat="44.42282" lon="3.75121">
        <ele>1603.62</ele>
        <time>2021-07-22T08:46:34Z</time>
      </trkpt>
      <trkpt lat="44.42269" lon="3.75119">
        <ele>1601.21</ele>
        <time>2021-07-22T08:46:39Z</time>
      </trkpt>
      <trkpt lat="44.42251" lon="3.75108">
        <ele>1597.85</ele>
        <time>2021-07-22T08:46:47Z</time>
      </trkpt>
      <trkpt lat="44.42245" lon="3.75106">
        <ele>1596.41</ele>
        <time>2021-07-22T08:46:49Z</time>
      </trkpt>
      <trkpt lat="44.42231" lon="3.751">
        <ele>1592.08</ele>
        <time>2021-07-22T08:46:58Z</time>
      </trkpt>
      <trkpt lat="44.42229" lon="3.751">
        <ele>1591.6</ele>
        <time>2021-07-22T08:47:00Z</time>
      </trkpt>
      <trkpt lat="44.42221" lon="3.751">
        <ele>1590.16</ele>
        <time>2021-07-22T08:47:14Z</time>
      </trkpt>
      <trkpt lat="44.42221" lon="3.751">
        <ele>1590.16</ele>
        <time>2021-07-22T08:47:17Z</time>
      </trkpt>
      <trkpt lat="44.42204" lon="3.75096">
        <ele>1589.2</ele>
        <time>2021-07-22T08:47:26Z</time>
      </trkpt>
      <trkpt lat="44.42201" lon="3.75096">
        <ele>1588.72</ele>
        <time>2021-07-22T08:47:28Z</time>
      </trkpt>
      <trkpt lat="44.4218" lon="3.7509">
        <ele>1586.31</ele>
        <time>2021-07-22T08:47:37Z</time>
      </trkpt>
      <trkpt lat="44.42164" lon="3.75091">
        <ele>1581.51</ele>
        <time>2021-07-22T08:47:47Z</time>
      </trkpt>
      <trkpt lat="44.42161" lon="3.75091">
        <ele>1580.06</ele>
        <time>2021-07-22T08:48:02Z</time>
      </trkpt>
      <trkpt lat="44.42152" lon="3.75092">
        <ele>1579.1</ele>
        <time>2021-07-22T08:48:16Z</time>
      </trkpt>
      <trkpt lat="44.42143" lon="3.7509">
        <ele>1578.14</ele>
        <time>2021-07-22T08:48:29Z</time>
      </trkpt>
      <trkpt lat="44.42136" lon="3.75086">
        <ele>1576.7</ele>
        <time>2021-07-22T08:48:41Z</time>
      </trkpt>
      <trkpt lat="44.42131" lon="3.75082">
        <ele>1575.74</ele>
        <time>2021-07-22T08:48:52Z</time>
      </trkpt>
      <trkpt lat="44.42128" lon="3.75082">
        <ele>1574.3</ele>
        <time>2021-07-22T08:49:05Z</time>
      </trkpt>
      <trkpt lat="44.42123" lon="3.75082">
        <ele>1571.89</ele>
        <time>2021-07-22T08:49:17Z</time>
      </trkpt>
      <trkpt lat="44.42123" lon="3.75082">
        <ele>1569.49</ele>
        <time>2021-07-22T08:49:47Z</time>
      </trkpt>
      <trkpt lat="44.42122" lon="3.75079">
        <ele>1571.41</ele>
        <time>2021-07-22T08:50:01Z</time>
      </trkpt>
      <trkpt lat="44.42124" lon="3.75076">
        <ele>1571.41</ele>
        <time>2021-07-22T08:50:20Z</time>
      </trkpt>
      <trkpt lat="44.42124" lon="3.75075">
        <ele>1570.93</ele>
        <time>2021-07-22T08:50:22Z</time>
      </trkpt>
      <trkpt lat="44.42125" lon="3.75072">
        <ele>1570.93</ele>
        <time>2021-07-22T08:50:24Z</time>
      </trkpt>
      <trkpt lat="44.42134" lon="3.75061">
        <ele>1569.01</ele>
        <time>2021-07-22T08:50:29Z</time>
      </trkpt>
      <trkpt lat="44.42155" lon="3.75022">
        <ele>1566.61</ele>
        <time>2021-07-22T08:50:41Z</time>
      </trkpt>
      <trkpt lat="44.42134" lon="3.74981">
        <ele>1565.16</ele>
        <time>2021-07-22T08:50:51Z</time>
      </trkpt>
      <trkpt lat="44.42126" lon="3.74949">
        <ele>1562.76</ele>
        <time>2021-07-22T08:50:56Z</time>
      </trkpt>
      <trkpt lat="44.42123" lon="3.74902">
        <ele>1559.88</ele>
        <time>2021-07-22T08:51:05Z</time>
      </trkpt>
      <trkpt lat="44.42126" lon="3.74876">
        <ele>1558.43</ele>
        <time>2021-07-22T08:51:09Z</time>
      </trkpt>
      <trkpt lat="44.42155" lon="3.74788">
        <ele>1555.55</ele>
        <time>2021-07-22T08:51:22Z</time>
      </trkpt>
      <trkpt lat="44.4216" lon="3.74765">
        <ele>1554.59</ele>
        <time>2021-07-22T08:51:25Z</time>
      </trkpt>
      <trkpt lat="44.42146" lon="3.74734">
        <ele>1553.63</ele>
        <time>2021-07-22T08:51:32Z</time>
      </trkpt>
      <trkpt lat="44.42142" lon="3.74734">
        <ele>1553.63</ele>
        <time>2021-07-22T08:51:33Z</time>
      </trkpt>
      <trkpt lat="44.42114" lon="3.74736">
        <ele>1552.67</ele>
        <time>2021-07-22T08:51:40Z</time>
      </trkpt>
      <trkpt lat="44.42051" lon="3.74718">
        <ele>1549.3</ele>
        <time>2021-07-22T08:51:51Z</time>
      </trkpt>
      <trkpt lat="44.42032" lon="3.74713">
        <ele>1548.82</ele>
        <time>2021-07-22T08:51:54Z</time>
      </trkpt>
      <trkpt lat="44.42003" lon="3.74714">
        <ele>1547.38</ele>
        <time>2021-07-22T08:51:58Z</time>
      </trkpt>
      <trkpt lat="44.41974" lon="3.74708">
        <ele>1545.46</ele>
        <time>2021-07-22T08:52:02Z</time>
      </trkpt>
      <trkpt lat="44.41938" lon="3.74693">
        <ele>1543.05</ele>
        <time>2021-07-22T08:52:07Z</time>
      </trkpt>
      <trkpt lat="44.41868" lon="3.74672">
        <ele>1538.25</ele>
        <time>2021-07-22T08:52:18Z</time>
      </trkpt>
      <trkpt lat="44.41795" lon="3.74667">
        <ele>1533.92</ele>
        <time>2021-07-22T08:52:27Z</time>
      </trkpt>
      <trkpt lat="44.41772" lon="3.74667">
        <ele>1532</ele>
        <time>2021-07-22T08:52:30Z</time>
      </trkpt>
      <trkpt lat="44.41692" lon="3.74643">
        <ele>1523.83</ele>
        <time>2021-07-22T08:52:41Z</time>
      </trkpt>
      <trkpt lat="44.41684" lon="3.7464">
        <ele>1522.87</ele>
        <time>2021-07-22T08:52:42Z</time>
      </trkpt>
      <trkpt lat="44.41619" lon="3.74625">
        <ele>1516.62</ele>
        <time>2021-07-22T08:52:50Z</time>
      </trkpt>
      <trkpt lat="44.41564" lon="3.74585">
        <ele>1511.33</ele>
        <time>2021-07-22T08:52:58Z</time>
      </trkpt>
      <trkpt lat="44.41526" lon="3.74575">
        <ele>1508.45</ele>
        <time>2021-07-22T08:53:03Z</time>
      </trkpt>
      <trkpt lat="44.41493" lon="3.7455">
        <ele>1505.08</ele>
        <time>2021-07-22T08:53:08Z</time>
      </trkpt>
      <trkpt lat="44.41452" lon="3.74495">
        <ele>1500.27</ele>
        <time>2021-07-22T08:53:16Z</time>
      </trkpt>
      <trkpt lat="44.41435" lon="3.74443">
        <ele>1497.87</ele>
        <time>2021-07-22T08:53:22Z</time>
      </trkpt>
      <trkpt lat="44.41419" lon="3.74391">
        <ele>1495.47</ele>
        <time>2021-07-22T08:53:28Z</time>
      </trkpt>
      <trkpt lat="44.41407" lon="3.74251">
        <ele>1491.62</ele>
        <time>2021-07-22T08:53:41Z</time>
      </trkpt>
      <trkpt lat="44.41406" lon="3.74167">
        <ele>1488.74</ele>
        <time>2021-07-22T08:53:49Z</time>
      </trkpt>
      <trkpt lat="44.41407" lon="3.74119">
        <ele>1486.34</ele>
        <time>2021-07-22T08:53:54Z</time>
      </trkpt>
      <trkpt lat="44.41408" lon="3.74069">
        <ele>1485.37</ele>
        <time>2021-07-22T08:53:59Z</time>
      </trkpt>
      <trkpt lat="44.41419" lon="3.73969">
        <ele>1482.97</ele>
        <time>2021-07-22T08:54:10Z</time>
      </trkpt>
      <trkpt lat="44.41424" lon="3.7394">
        <ele>1482.49</ele>
        <time>2021-07-22T08:54:14Z</time>
      </trkpt>
      <trkpt lat="44.41425" lon="3.73928">
        <ele>1483.45</ele>
        <time>2021-07-22T08:54:16Z</time>
      </trkpt>
      <trkpt lat="44.41429" lon="3.73902">
        <ele>1483.45</ele>
        <time>2021-07-22T08:54:20Z</time>
      </trkpt>
      <trkpt lat="44.41435" lon="3.73885">
        <ele>1482.97</ele>
        <time>2021-07-22T08:54:23Z</time>
      </trkpt>
      <trkpt lat="44.41439" lon="3.73874">
        <ele>1482.97</ele>
        <time>2021-07-22T08:54:25Z</time>
      </trkpt>
      <trkpt lat="44.41453" lon="3.73835">
        <ele>1482.97</ele>
        <time>2021-07-22T08:54:31Z</time>
      </trkpt>
      <trkpt lat="44.41459" lon="3.73823">
        <ele>1482.49</ele>
        <time>2021-07-22T08:54:33Z</time>
      </trkpt>
      <trkpt lat="44.41473" lon="3.7379">
        <ele>1481.05</ele>
        <time>2021-07-22T08:54:39Z</time>
      </trkpt>
      <trkpt lat="44.41482" lon="3.73776">
        <ele>1480.09</ele>
        <time>2021-07-22T08:54:42Z</time>
      </trkpt>
      <trkpt lat="44.41498" lon="3.73748">
        <ele>1476.72</ele>
        <time>2021-07-22T08:54:48Z</time>
      </trkpt>
      <trkpt lat="44.41504" lon="3.73737">
        <ele>1475.76</ele>
        <time>2021-07-22T08:54:50Z</time>
      </trkpt>
      <trkpt lat="44.41517" lon="3.73712">
        <ele>1473.84</ele>
        <time>2021-07-22T08:54:56Z</time>
      </trkpt>
      <trkpt lat="44.41505" lon="3.737">
        <ele>1472.88</ele>
        <time>2021-07-22T08:55:03Z</time>
      </trkpt>
      <trkpt lat="44.41497" lon="3.73707">
        <ele>1472.4</ele>
        <time>2021-07-22T08:55:06Z</time>
      </trkpt>
      <trkpt lat="44.41453" lon="3.73732">
        <ele>1469.51</ele>
        <time>2021-07-22T08:55:15Z</time>
      </trkpt>
      <trkpt lat="44.41398" lon="3.73754">
        <ele>1465.19</ele>
        <time>2021-07-22T08:55:26Z</time>
      </trkpt>
      <trkpt lat="44.41398" lon="3.73755">
        <ele>1467.11</ele>
        <time>2021-07-22T08:55:45Z</time>
      </trkpt>
      <trkpt lat="44.41397" lon="3.73759">
        <ele>1469.03</ele>
        <time>2021-07-22T08:56:01Z</time>
      </trkpt>
      <trkpt lat="44.41398" lon="3.73757">
        <ele>1468.07</ele>
        <time>2021-07-22T08:56:35Z</time>
      </trkpt>
      <trkpt lat="44.41399" lon="3.73757">
        <ele>1468.07</ele>
        <time>2021-07-22T08:57:06Z</time>
      </trkpt>
      <trkpt lat="44.41398" lon="3.73759">
        <ele>1469.03</ele>
        <time>2021-07-22T08:57:28Z</time>
      </trkpt>
      <trkpt lat="44.41396" lon="3.73759">
        <ele>1470.47</ele>
        <time>2021-07-22T08:57:56Z</time>
      </trkpt>
      <trkpt lat="44.41395" lon="3.73759">
        <ele>1471.44</ele>
        <time>2021-07-22T08:58:22Z</time>
      </trkpt>
      <trkpt lat="44.41394" lon="3.73759">
        <ele>1471.44</ele>
        <time>2021-07-22T08:58:46Z</time>
      </trkpt>
      <trkpt lat="44.41366" lon="3.73773">
        <ele>1470.47</ele>
        <time>2021-07-22T08:58:57Z</time>
      </trkpt>
      <trkpt lat="44.41362" lon="3.73775">
        <ele>1469.99</ele>
        <time>2021-07-22T08:58:58Z</time>
      </trkpt>
      <trkpt lat="44.41328" lon="3.73791">
        <ele>1467.11</ele>
        <time>2021-07-22T08:59:06Z</time>
      </trkpt>
      <trkpt lat="44.41309" lon="3.73806">
        <ele>1465.19</ele>
        <time>2021-07-22T08:59:10Z</time>
      </trkpt>
      <trkpt lat="44.41284" lon="3.73866">
        <ele>1462.3</ele>
        <time>2021-07-22T08:59:19Z</time>
      </trkpt>
      <trkpt lat="44.41261" lon="3.73868">
        <ele>1459.42</ele>
        <time>2021-07-22T08:59:26Z</time>
      </trkpt>
      <trkpt lat="44.41224" lon="3.73785">
        <ele>1455.09</ele>
        <time>2021-07-22T08:59:37Z</time>
      </trkpt>
      <trkpt lat="44.41175" lon="3.73665">
        <ele>1450.29</ele>
        <time>2021-07-22T08:59:50Z</time>
      </trkpt>
      <trkpt lat="44.41132" lon="3.73568">
        <ele>1448.36</ele>
        <time>2021-07-22T09:00:01Z</time>
      </trkpt>
      <trkpt lat="44.41075" lon="3.73469">
        <ele>1445.48</ele>
        <time>2021-07-22T09:00:12Z</time>
      </trkpt>
      <trkpt lat="44.4101" lon="3.73389">
        <ele>1441.15</ele>
        <time>2021-07-22T09:00:22Z</time>
      </trkpt>
      <trkpt lat="44.40907" lon="3.73334">
        <ele>1434.91</ele>
        <time>2021-07-22T09:00:34Z</time>
      </trkpt>
      <trkpt lat="44.40843" lon="3.73285">
        <ele>1432.02</ele>
        <time>2021-07-22T09:00:44Z</time>
      </trkpt>
      <trkpt lat="44.40838" lon="3.7328">
        <ele>1431.54</ele>
        <time>2021-07-22T09:00:45Z</time>
      </trkpt>
      <trkpt lat="44.40814" lon="3.73244">
        <ele>1429.62</ele>
        <time>2021-07-22T09:00:50Z</time>
      </trkpt>
      <trkpt lat="44.408" lon="3.7322">
        <ele>1429.14</ele>
        <time>2021-07-22T09:00:53Z</time>
      </trkpt>
      <trkpt lat="44.40768" lon="3.73174">
        <ele>1424.81</ele>
        <time>2021-07-22T09:00:59Z</time>
      </trkpt>
      <trkpt lat="44.40726" lon="3.73147">
        <ele>1421.93</ele>
        <time>2021-07-22T09:01:05Z</time>
      </trkpt>
      <trkpt lat="44.40628" lon="3.73127">
        <ele>1418.08</ele>
        <time>2021-07-22T09:01:17Z</time>
      </trkpt>
      <trkpt lat="44.40605" lon="3.73128">
        <ele>1416.64</ele>
        <time>2021-07-22T09:01:20Z</time>
      </trkpt>
      <trkpt lat="44.40571" lon="3.73137">
        <ele>1415.2</ele>
        <time>2021-07-22T09:01:26Z</time>
      </trkpt>
      <trkpt lat="44.40549" lon="3.73117">
        <ele>1411.83</ele>
        <time>2021-07-22T09:01:35Z</time>
      </trkpt>
      <trkpt lat="44.40552" lon="3.73105">
        <ele>1410.87</ele>
        <time>2021-07-22T09:01:38Z</time>
      </trkpt>
      <trkpt lat="44.40555" lon="3.73069">
        <ele>1407.51</ele>
        <time>2021-07-22T09:01:44Z</time>
      </trkpt>
      <trkpt lat="44.40554" lon="3.73023">
        <ele>1408.47</ele>
        <time>2021-07-22T09:01:50Z</time>
      </trkpt>
      <trkpt lat="44.40555" lon="3.72979">
        <ele>1408.95</ele>
        <time>2021-07-22T09:01:57Z</time>
      </trkpt>
      <trkpt lat="44.4055" lon="3.72956">
        <ele>1409.91</ele>
        <time>2021-07-22T09:02:07Z</time>
      </trkpt>
      <trkpt lat="44.40546" lon="3.72951">
        <ele>1409.43</ele>
        <time>2021-07-22T09:02:24Z</time>
      </trkpt>
      <trkpt lat="44.40546" lon="3.7295">
        <ele>1408.95</ele>
        <time>2021-07-22T09:02:35Z</time>
      </trkpt>
      <trkpt lat="44.40537" lon="3.72948">
        <ele>1408.47</ele>
        <time>2021-07-22T09:02:40Z</time>
      </trkpt>
      <trkpt lat="44.4053" lon="3.72945">
        <ele>1407.99</ele>
        <time>2021-07-22T09:02:43Z</time>
      </trkpt>
      <trkpt lat="44.40514" lon="3.72938">
        <ele>1405.1</ele>
        <time>2021-07-22T09:02:52Z</time>
      </trkpt>
      <trkpt lat="44.40512" lon="3.72936">
        <ele>1404.62</ele>
        <time>2021-07-22T09:03:01Z</time>
      </trkpt>
      <trkpt lat="44.405" lon="3.72928">
        <ele>1403.18</ele>
        <time>2021-07-22T09:03:10Z</time>
      </trkpt>
      <trkpt lat="44.40471" lon="3.72917">
        <ele>1398.37</ele>
        <time>2021-07-22T09:03:21Z</time>
      </trkpt>
      <trkpt lat="44.40446" lon="3.72907">
        <ele>1394.53</ele>
        <time>2021-07-22T09:03:32Z</time>
      </trkpt>
      <trkpt lat="44.40425" lon="3.72901">
        <ele>1392.13</ele>
        <time>2021-07-22T09:03:41Z</time>
      </trkpt>
      <trkpt lat="44.40402" lon="3.72898">
        <ele>1387.8</ele>
        <time>2021-07-22T09:03:54Z</time>
      </trkpt>
      <trkpt lat="44.40387" lon="3.72895">
        <ele>1384.92</ele>
        <time>2021-07-22T09:04:04Z</time>
      </trkpt>
      <trkpt lat="44.40384" lon="3.72896">
        <ele>1383.96</ele>
        <time>2021-07-22T09:04:16Z</time>
      </trkpt>
      <trkpt lat="44.40368" lon="3.72893">
        <ele>1382.03</ele>
        <time>2021-07-22T09:04:24Z</time>
      </trkpt>
      <trkpt lat="44.40368" lon="3.72892">
        <ele>1381.55</ele>
        <time>2021-07-22T09:04:42Z</time>
      </trkpt>
      <trkpt lat="44.40368" lon="3.72894">
        <ele>1381.55</ele>
        <time>2021-07-22T09:05:09Z</time>
      </trkpt>
      <trkpt lat="44.40368" lon="3.72898">
        <ele>1380.59</ele>
        <time>2021-07-22T09:05:21Z</time>
      </trkpt>
      <trkpt lat="44.40368" lon="3.72899">
        <ele>1380.11</ele>
        <time>2021-07-22T09:05:50Z</time>
      </trkpt>
      <trkpt lat="44.40367" lon="3.72899">
        <ele>1379.15</ele>
        <time>2021-07-22T09:06:22Z</time>
      </trkpt>
      <trkpt lat="44.40367" lon="3.72898">
        <ele>1378.67</ele>
        <time>2021-07-22T09:06:53Z</time>
      </trkpt>
      <trkpt lat="44.40368" lon="3.72898">
        <ele>1378.67</ele>
        <time>2021-07-22T09:07:29Z</time>
      </trkpt>
      <trkpt lat="44.40366" lon="3.72894">
        <ele>1378.67</ele>
        <time>2021-07-22T09:07:48Z</time>
      </trkpt>
      <trkpt lat="44.40352" lon="3.72888">
        <ele>1378.19</ele>
        <time>2021-07-22T09:08:02Z</time>
      </trkpt>
      <trkpt lat="44.40324" lon="3.72881">
        <ele>1375.78</ele>
        <time>2021-07-22T09:08:14Z</time>
      </trkpt>
      <trkpt lat="44.40309" lon="3.72878">
        <ele>1372.42</ele>
        <time>2021-07-22T09:08:22Z</time>
      </trkpt>
      <trkpt lat="44.40299" lon="3.72877">
        <ele>1370.98</ele>
        <time>2021-07-22T09:08:27Z</time>
      </trkpt>
      <trkpt lat="44.40291" lon="3.72878">
        <ele>1369.54</ele>
        <time>2021-07-22T09:08:31Z</time>
      </trkpt>
      <trkpt lat="44.40263" lon="3.72882">
        <ele>1363.77</ele>
        <time>2021-07-22T09:08:44Z</time>
      </trkpt>
      <trkpt lat="44.40261" lon="3.72882">
        <ele>1362.81</ele>
        <time>2021-07-22T09:08:51Z</time>
      </trkpt>
      <trkpt lat="44.40239" lon="3.72885">
        <ele>1359.44</ele>
        <time>2021-07-22T09:09:01Z</time>
      </trkpt>
      <trkpt lat="44.40208" lon="3.72899">
        <ele>1356.08</ele>
        <time>2021-07-22T09:09:11Z</time>
      </trkpt>
      <trkpt lat="44.40196" lon="3.72916">
        <ele>1354.15</ele>
        <time>2021-07-22T09:09:16Z</time>
      </trkpt>
      <trkpt lat="44.40196" lon="3.72933">
        <ele>1352.71</ele>
        <time>2021-07-22T09:09:20Z</time>
      </trkpt>
      <trkpt lat="44.40196" lon="3.72954">
        <ele>1350.79</ele>
        <time>2021-07-22T09:09:24Z</time>
      </trkpt>
      <trkpt lat="44.40199" lon="3.73014">
        <ele>1345.5</ele>
        <time>2021-07-22T09:09:35Z</time>
      </trkpt>
      <trkpt lat="44.40205" lon="3.73043">
        <ele>1342.14</ele>
        <time>2021-07-22T09:09:41Z</time>
      </trkpt>
      <trkpt lat="44.40209" lon="3.7307">
        <ele>1338.77</ele>
        <time>2021-07-22T09:09:46Z</time>
      </trkpt>
      <trkpt lat="44.40196" lon="3.73134">
        <ele>1334.93</ele>
        <time>2021-07-22T09:09:55Z</time>
      </trkpt>
      <trkpt lat="44.40183" lon="3.73209">
        <ele>1332.04</ele>
        <time>2021-07-22T09:10:04Z</time>
      </trkpt>
      <trkpt lat="44.40165" lon="3.73252">
        <ele>1329.16</ele>
        <time>2021-07-22T09:10:09Z</time>
      </trkpt>
      <trkpt lat="44.40158" lon="3.73268">
        <ele>1328.2</ele>
        <time>2021-07-22T09:10:11Z</time>
      </trkpt>
      <trkpt lat="44.40145" lon="3.73316">
        <ele>1324.35</ele>
        <time>2021-07-22T09:10:17Z</time>
      </trkpt>
      <trkpt lat="44.40142" lon="3.73337">
        <ele>1322.43</ele>
        <time>2021-07-22T09:10:20Z</time>
      </trkpt>
      <trkpt lat="44.40137" lon="3.73359">
        <ele>1320.99</ele>
        <time>2021-07-22T09:10:23Z</time>
      </trkpt>
      <trkpt lat="44.40136" lon="3.73395">
        <ele>1317.62</ele>
        <time>2021-07-22T09:10:28Z</time>
      </trkpt>
      <trkpt lat="44.40137" lon="3.73409">
        <ele>1316.18</ele>
        <time>2021-07-22T09:10:30Z</time>
      </trkpt>
      <trkpt lat="44.40133" lon="3.73444">
        <ele>1314.26</ele>
        <time>2021-07-22T09:10:35Z</time>
      </trkpt>
      <trkpt lat="44.40152" lon="3.73522">
        <ele>1308.97</ele>
        <time>2021-07-22T09:10:46Z</time>
      </trkpt>
      <trkpt lat="44.40156" lon="3.73545">
        <ele>1307.53</ele>
        <time>2021-07-22T09:10:49Z</time>
      </trkpt>
      <trkpt lat="44.40154" lon="3.73631">
        <ele>1302.24</ele>
        <time>2021-07-22T09:10:59Z</time>
      </trkpt>
      <trkpt lat="44.40147" lon="3.73706">
        <ele>1297.92</ele>
        <time>2021-07-22T09:11:07Z</time>
      </trkpt>
      <trkpt lat="44.40153" lon="3.73747">
        <ele>1295.99</ele>
        <time>2021-07-22T09:11:11Z</time>
      </trkpt>
      <trkpt lat="44.40168" lon="3.73827">
        <ele>1291.19</ele>
        <time>2021-07-22T09:11:20Z</time>
      </trkpt>
      <trkpt lat="44.4017" lon="3.73855">
        <ele>1288.3</ele>
        <time>2021-07-22T09:11:23Z</time>
      </trkpt>
      <trkpt lat="44.40182" lon="3.73911">
        <ele>1283.5</ele>
        <time>2021-07-22T09:11:29Z</time>
      </trkpt>
      <trkpt lat="44.40189" lon="3.7395">
        <ele>1280.13</ele>
        <time>2021-07-22T09:11:32Z</time>
      </trkpt>
      <trkpt lat="44.40195" lon="3.73977">
        <ele>1277.73</ele>
        <time>2021-07-22T09:11:34Z</time>
      </trkpt>
      <trkpt lat="44.402" lon="3.74003">
        <ele>1275.81</ele>
        <time>2021-07-22T09:11:36Z</time>
      </trkpt>
      <trkpt lat="44.40214" lon="3.74044">
        <ele>1271.96</ele>
        <time>2021-07-22T09:11:40Z</time>
      </trkpt>
      <trkpt lat="44.40242" lon="3.74077">
        <ele>1268.6</ele>
        <time>2021-07-22T09:11:45Z</time>
      </trkpt>
      <trkpt lat="44.40277" lon="3.74114">
        <ele>1265.71</ele>
        <time>2021-07-22T09:11:51Z</time>
      </trkpt>
      <trkpt lat="44.40305" lon="3.74173">
        <ele>1260.43</ele>
        <time>2021-07-22T09:11:56Z</time>
      </trkpt>
      <trkpt lat="44.40345" lon="3.74224">
        <ele>1253.7</ele>
        <time>2021-07-22T09:12:02Z</time>
      </trkpt>
      <trkpt lat="44.40361" lon="3.74255">
        <ele>1250.81</ele>
        <time>2021-07-22T09:12:06Z</time>
      </trkpt>
      <trkpt lat="44.40374" lon="3.74273">
        <ele>1249.37</ele>
        <time>2021-07-22T09:12:11Z</time>
      </trkpt>
      <trkpt lat="44.40379" lon="3.74277">
        <ele>1248.89</ele>
        <time>2021-07-22T09:12:21Z</time>
      </trkpt>
      <trkpt lat="44.40381" lon="3.74278">
        <ele>1249.85</ele>
        <time>2021-07-22T09:12:33Z</time>
      </trkpt>
      <trkpt lat="44.40393" lon="3.74287">
        <ele>1250.33</ele>
        <time>2021-07-22T09:12:45Z</time>
      </trkpt>
      <trkpt lat="44.40398" lon="3.7429">
        <ele>1251.29</ele>
        <time>2021-07-22T09:12:59Z</time>
      </trkpt>
      <trkpt lat="44.40414" lon="3.74304">
        <ele>1251.29</ele>
        <time>2021-07-22T09:13:07Z</time>
      </trkpt>
      <trkpt lat="44.40419" lon="3.74313">
        <ele>1251.77</ele>
        <time>2021-07-22T09:13:09Z</time>
      </trkpt>
      <trkpt lat="44.40428" lon="3.74331">
        <ele>1252.25</ele>
        <time>2021-07-22T09:13:12Z</time>
      </trkpt>
      <trkpt lat="44.40432" lon="3.74368">
        <ele>1249.85</ele>
        <time>2021-07-22T09:13:16Z</time>
      </trkpt>
      <trkpt lat="44.40429" lon="3.74395">
        <ele>1247.93</ele>
        <time>2021-07-22T09:13:19Z</time>
      </trkpt>
      <trkpt lat="44.40412" lon="3.7444">
        <ele>1242.64</ele>
        <time>2021-07-22T09:13:27Z</time>
      </trkpt>
      <trkpt lat="44.40415" lon="3.74447">
        <ele>1241.68</ele>
        <time>2021-07-22T09:13:28Z</time>
      </trkpt>
      <trkpt lat="44.4042" lon="3.74492">
        <ele>1238.32</ele>
        <time>2021-07-22T09:13:33Z</time>
      </trkpt>
      <trkpt lat="44.40416" lon="3.74515">
        <ele>1236.87</ele>
        <time>2021-07-22T09:13:36Z</time>
      </trkpt>
      <trkpt lat="44.40414" lon="3.74538">
        <ele>1233.99</ele>
        <time>2021-07-22T09:13:40Z</time>
      </trkpt>
      <trkpt lat="44.40419" lon="3.74539">
        <ele>1233.03</ele>
        <time>2021-07-22T09:13:50Z</time>
      </trkpt>
      <trkpt lat="44.4042" lon="3.7454">
        <ele>1235.91</ele>
        <time>2021-07-22T09:14:18Z</time>
      </trkpt>
      <trkpt lat="44.40418" lon="3.7454">
        <ele>1237.35</ele>
        <time>2021-07-22T09:14:47Z</time>
      </trkpt>
      <trkpt lat="44.40419" lon="3.7454">
        <ele>1238.32</ele>
        <time>2021-07-22T09:15:12Z</time>
      </trkpt>
      <trkpt lat="44.40421" lon="3.74538">
        <ele>1238.32</ele>
        <time>2021-07-22T09:15:41Z</time>
      </trkpt>
      <trkpt lat="44.40421" lon="3.74537">
        <ele>1238.8</ele>
        <time>2021-07-22T09:15:42Z</time>
      </trkpt>
      <trkpt lat="44.40417" lon="3.74525">
        <ele>1239.76</ele>
        <time>2021-07-22T09:15:52Z</time>
      </trkpt>
      <trkpt lat="44.40416" lon="3.74522">
        <ele>1239.76</ele>
        <time>2021-07-22T09:15:54Z</time>
      </trkpt>
      <trkpt lat="44.40414" lon="3.74526">
        <ele>1240.24</ele>
        <time>2021-07-22T09:15:59Z</time>
      </trkpt>
      <trkpt lat="44.4041" lon="3.74509">
        <ele>1239.76</ele>
        <time>2021-07-22T09:16:12Z</time>
      </trkpt>
      <trkpt lat="44.40406" lon="3.74506">
        <ele>1238.8</ele>
        <time>2021-07-22T09:16:25Z</time>
      </trkpt>
      <trkpt lat="44.40407" lon="3.74505">
        <ele>1239.76</ele>
        <time>2021-07-22T09:16:53Z</time>
      </trkpt>
      <trkpt lat="44.40406" lon="3.74506">
        <ele>1237.83</ele>
        <time>2021-07-22T09:17:33Z</time>
      </trkpt>
      <trkpt lat="44.40406" lon="3.74506">
        <ele>1237.83</ele>
        <time>2021-07-22T09:18:08Z</time>
      </trkpt>
      <trkpt lat="44.40406" lon="3.74504">
        <ele>1237.35</ele>
        <time>2021-07-22T09:18:45Z</time>
      </trkpt>
      <trkpt lat="44.40407" lon="3.74505">
        <ele>1237.83</ele>
        <time>2021-07-22T09:19:17Z</time>
      </trkpt>
      <trkpt lat="44.40405" lon="3.74506">
        <ele>1239.28</ele>
        <time>2021-07-22T09:19:51Z</time>
      </trkpt>
      <trkpt lat="44.40405" lon="3.74505">
        <ele>1239.28</ele>
        <time>2021-07-22T09:20:24Z</time>
      </trkpt>
      <trkpt lat="44.40405" lon="3.74505">
        <ele>1238.8</ele>
        <time>2021-07-22T09:20:58Z</time>
      </trkpt>
      <trkpt lat="44.40406" lon="3.74505">
        <ele>1239.76</ele>
        <time>2021-07-22T09:21:31Z</time>
      </trkpt>
      <trkpt lat="44.40406" lon="3.74503">
        <ele>1238.8</ele>
        <time>2021-07-22T09:22:07Z</time>
      </trkpt>
      <trkpt lat="44.40406" lon="3.74504">
        <ele>1239.76</ele>
        <time>2021-07-22T09:22:38Z</time>
      </trkpt>
      <trkpt lat="44.40405" lon="3.74505">
        <ele>1240.72</ele>
        <time>2021-07-22T09:23:14Z</time>
      </trkpt>
      <trkpt lat="44.40405" lon="3.74504">
        <ele>1241.2</ele>
        <time>2021-07-22T09:23:50Z</time>
      </trkpt>
      <trkpt lat="44.40405" lon="3.74504">
        <ele>1240.72</ele>
        <time>2021-07-22T09:24:22Z</time>
      </trkpt>
      <trkpt lat="44.40406" lon="3.74504">
        <ele>1240.72</ele>
        <time>2021-07-22T09:24:54Z</time>
      </trkpt>
      <trkpt lat="44.40404" lon="3.74504">
        <ele>1241.2</ele>
        <time>2021-07-22T09:25:23Z</time>
      </trkpt>
      <trkpt lat="44.40406" lon="3.74504">
        <ele>1241.68</ele>
        <time>2021-07-22T09:25:55Z</time>
      </trkpt>
      <trkpt lat="44.40408" lon="3.74502">
        <ele>1242.16</ele>
        <time>2021-07-22T09:26:24Z</time>
      </trkpt>
      <trkpt lat="44.40406" lon="3.74504">
        <ele>1241.68</ele>
        <time>2021-07-22T09:26:55Z</time>
      </trkpt>
      <trkpt lat="44.40404" lon="3.74506">
        <ele>1242.16</ele>
        <time>2021-07-22T09:27:30Z</time>
      </trkpt>
      <trkpt lat="44.40403" lon="3.74506">
        <ele>1241.2</ele>
        <time>2021-07-22T09:28:07Z</time>
      </trkpt>
      <trkpt lat="44.40405" lon="3.74505">
        <ele>1241.2</ele>
        <time>2021-07-22T09:28:36Z</time>
      </trkpt>
      <trkpt lat="44.40404" lon="3.74506">
        <ele>1241.68</ele>
        <time>2021-07-22T09:29:13Z</time>
      </trkpt>
      <trkpt lat="44.40404" lon="3.74505">
        <ele>1241.2</ele>
        <time>2021-07-22T09:29:43Z</time>
      </trkpt>
      <trkpt lat="44.40405" lon="3.74507">
        <ele>1238.32</ele>
        <time>2021-07-22T09:29:54Z</time>
      </trkpt>
      <trkpt lat="44.40405" lon="3.74507">
        <ele>1237.83</ele>
        <time>2021-07-22T09:29:59Z</time>
      </trkpt>
      <trkpt lat="44.40401" lon="3.74509">
        <ele>1237.35</ele>
        <time>2021-07-22T09:30:02Z</time>
      </trkpt>
      <trkpt lat="44.40389" lon="3.74517">
        <ele>1237.35</ele>
        <time>2021-07-22T09:30:06Z</time>
      </trkpt>
      <trkpt lat="44.40363" lon="3.74529">
        <ele>1235.43</ele>
        <time>2021-07-22T09:30:14Z</time>
      </trkpt>
      <trkpt lat="44.40324" lon="3.74494">
        <ele>1233.03</ele>
        <time>2021-07-22T09:30:26Z</time>
      </trkpt>
      <trkpt lat="44.4032" lon="3.74491">
        <ele>1232.55</ele>
        <time>2021-07-22T09:30:27Z</time>
      </trkpt>
      <trkpt lat="44.40297" lon="3.74483">
        <ele>1231.11</ele>
        <time>2021-07-22T09:30:32Z</time>
      </trkpt>
      <trkpt lat="44.40278" lon="3.74482">
        <ele>1229.18</ele>
        <time>2021-07-22T09:30:36Z</time>
      </trkpt>
      <trkpt lat="44.40206" lon="3.74435">
        <ele>1224.86</ele>
        <time>2021-07-22T09:30:49Z</time>
      </trkpt>
      <trkpt lat="44.40182" lon="3.74432">
        <ele>1222.93</ele>
        <time>2021-07-22T09:30:53Z</time>
      </trkpt>
      <trkpt lat="44.40112" lon="3.74429">
        <ele>1217.65</ele>
        <time>2021-07-22T09:31:02Z</time>
      </trkpt>
      <trkpt lat="44.40097" lon="3.74418">
        <ele>1215.72</ele>
        <time>2021-07-22T09:31:05Z</time>
      </trkpt>
      <trkpt lat="44.40072" lon="3.74378">
        <ele>1212.36</ele>
        <time>2021-07-22T09:31:13Z</time>
      </trkpt>
      <trkpt lat="44.40061" lon="3.74377">
        <ele>1211.88</ele>
        <time>2021-07-22T09:31:15Z</time>
      </trkpt>
      <trkpt lat="44.4005" lon="3.74375">
        <ele>1210.92</ele>
        <time>2021-07-22T09:31:17Z</time>
      </trkpt>
      <trkpt lat="44.40034" lon="3.74369">
        <ele>1209.48</ele>
        <time>2021-07-22T09:31:20Z</time>
      </trkpt>
      <trkpt lat="44.40016" lon="3.74359">
        <ele>1209</ele>
        <time>2021-07-22T09:31:24Z</time>
      </trkpt>
      <trkpt lat="44.3999" lon="3.74348">
        <ele>1207.07</ele>
        <time>2021-07-22T09:31:37Z</time>
      </trkpt>
      <trkpt lat="44.3999" lon="3.74347">
        <ele>1207.07</ele>
        <time>2021-07-22T09:31:42Z</time>
      </trkpt>
      <trkpt lat="44.39999" lon="3.74349">
        <ele>1206.11</ele>
        <time>2021-07-22T09:31:49Z</time>
      </trkpt>
      <trkpt lat="44.40021" lon="3.74366">
        <ele>1206.59</ele>
        <time>2021-07-22T09:31:59Z</time>
      </trkpt>
      <trkpt lat="44.40019" lon="3.74387">
        <ele>1206.59</ele>
        <time>2021-07-22T09:32:04Z</time>
      </trkpt>
      <trkpt lat="44.40014" lon="3.74408">
        <ele>1206.59</ele>
        <time>2021-07-22T09:32:07Z</time>
      </trkpt>
      <trkpt lat="44.39974" lon="3.74444">
        <ele>1206.59</ele>
        <time>2021-07-22T09:32:15Z</time>
      </trkpt>
      <trkpt lat="44.39968" lon="3.74444">
        <ele>1206.59</ele>
        <time>2021-07-22T09:32:16Z</time>
      </trkpt>
      <trkpt lat="44.39941" lon="3.74449">
        <ele>1206.11</ele>
        <time>2021-07-22T09:32:21Z</time>
      </trkpt>
      <trkpt lat="44.39922" lon="3.74458">
        <ele>1205.15</ele>
        <time>2021-07-22T09:32:24Z</time>
      </trkpt>
      <trkpt lat="44.399" lon="3.74462">
        <ele>1205.15</ele>
        <time>2021-07-22T09:32:27Z</time>
      </trkpt>
      <trkpt lat="44.39877" lon="3.74457">
        <ele>1204.19</ele>
        <time>2021-07-22T09:32:31Z</time>
      </trkpt>
      <trkpt lat="44.39831" lon="3.74446">
        <ele>1203.23</ele>
        <time>2021-07-22T09:32:43Z</time>
      </trkpt>
      <trkpt lat="44.39807" lon="3.74452">
        <ele>1202.27</ele>
        <time>2021-07-22T09:32:48Z</time>
      </trkpt>
      <trkpt lat="44.39779" lon="3.7446">
        <ele>1201.3</ele>
        <time>2021-07-22T09:32:54Z</time>
      </trkpt>
      <trkpt lat="44.3976" lon="3.74497">
        <ele>1200.82</ele>
        <time>2021-07-22T09:33:01Z</time>
      </trkpt>
      <trkpt lat="44.39746" lon="3.7451">
        <ele>1199.86</ele>
        <time>2021-07-22T09:33:05Z</time>
      </trkpt>
      <trkpt lat="44.3971" lon="3.74511">
        <ele>1197.46</ele>
        <time>2021-07-22T09:33:12Z</time>
      </trkpt>
      <trkpt lat="44.39701" lon="3.7451">
        <ele>1196.98</ele>
        <time>2021-07-22T09:33:14Z</time>
      </trkpt>
      <trkpt lat="44.39658" lon="3.74513">
        <ele>1193.61</ele>
        <time>2021-07-22T09:33:24Z</time>
      </trkpt>
      <trkpt lat="44.39637" lon="3.74504">
        <ele>1191.69</ele>
        <time>2021-07-22T09:33:33Z</time>
      </trkpt>
      <trkpt lat="44.39637" lon="3.74504">
        <ele>1190.25</ele>
        <time>2021-07-22T09:33:58Z</time>
      </trkpt>
      <trkpt lat="44.39637" lon="3.74502">
        <ele>1189.29</ele>
        <time>2021-07-22T09:34:17Z</time>
      </trkpt>
      <trkpt lat="44.39636" lon="3.74502">
        <ele>1188.33</ele>
        <time>2021-07-22T09:34:53Z</time>
      </trkpt>
      <trkpt lat="44.39636" lon="3.74502">
        <ele>1188.33</ele>
        <time>2021-07-22T09:35:12Z</time>
      </trkpt>
      <trkpt lat="44.39636" lon="3.74503">
        <ele>1188.81</ele>
        <time>2021-07-22T09:35:19Z</time>
      </trkpt>
      <trkpt lat="44.39617" lon="3.74513">
        <ele>1189.29</ele>
        <time>2021-07-22T09:35:27Z</time>
      </trkpt>
      <trkpt lat="44.39591" lon="3.74521">
        <ele>1187.85</ele>
        <time>2021-07-22T09:35:33Z</time>
      </trkpt>
      <trkpt lat="44.39582" lon="3.74522">
        <ele>1187.37</ele>
        <time>2021-07-22T09:35:35Z</time>
      </trkpt>
      <trkpt lat="44.39514" lon="3.74532">
        <ele>1184</ele>
        <time>2021-07-22T09:35:48Z</time>
      </trkpt>
      <trkpt lat="44.39484" lon="3.74538">
        <ele>1183.04</ele>
        <time>2021-07-22T09:35:55Z</time>
      </trkpt>
      <trkpt lat="44.39449" lon="3.74555">
        <ele>1180.64</ele>
        <time>2021-07-22T09:36:03Z</time>
      </trkpt>
      <trkpt lat="44.39439" lon="3.74563">
        <ele>1180.64</ele>
        <time>2021-07-22T09:36:05Z</time>
      </trkpt>
      <trkpt lat="44.39426" lon="3.74577">
        <ele>1179.67</ele>
        <time>2021-07-22T09:36:08Z</time>
      </trkpt>
      <trkpt lat="44.39393" lon="3.74614">
        <ele>1174.39</ele>
        <time>2021-07-22T09:36:16Z</time>
      </trkpt>
      <trkpt lat="44.39361" lon="3.74602">
        <ele>1171.98</ele>
        <time>2021-07-22T09:36:22Z</time>
      </trkpt>
      <trkpt lat="44.39355" lon="3.74572">
        <ele>1169.58</ele>
        <time>2021-07-22T09:36:26Z</time>
      </trkpt>
      <trkpt lat="44.39355" lon="3.74554">
        <ele>1168.14</ele>
        <time>2021-07-22T09:36:28Z</time>
      </trkpt>
      <trkpt lat="44.39378" lon="3.74485">
        <ele>1160.45</ele>
        <time>2021-07-22T09:36:37Z</time>
      </trkpt>
      <trkpt lat="44.39389" lon="3.7446">
        <ele>1157.08</ele>
        <time>2021-07-22T09:36:40Z</time>
      </trkpt>
      <trkpt lat="44.39383" lon="3.74412">
        <ele>1152.28</ele>
        <time>2021-07-22T09:36:46Z</time>
      </trkpt>
      <trkpt lat="44.39365" lon="3.7439">
        <ele>1151.32</ele>
        <time>2021-07-22T09:36:51Z</time>
      </trkpt>
      <trkpt lat="44.3935" lon="3.74358">
        <ele>1155.16</ele>
        <time>2021-07-22T09:37:01Z</time>
      </trkpt>
      <trkpt lat="44.39325" lon="3.74344">
        <ele>1159.01</ele>
        <time>2021-07-22T09:37:13Z</time>
      </trkpt>
      <trkpt lat="44.39282" lon="3.74347">
        <ele>1158.05</ele>
        <time>2021-07-22T09:37:25Z</time>
      </trkpt>
      <trkpt lat="44.3925" lon="3.7435">
        <ele>1154.2</ele>
        <time>2021-07-22T09:37:34Z</time>
      </trkpt>
      <trkpt lat="44.39234" lon="3.74354">
        <ele>1151.32</ele>
        <time>2021-07-22T09:37:38Z</time>
      </trkpt>
      <trkpt lat="44.39201" lon="3.74339">
        <ele>1145.07</ele>
        <time>2021-07-22T09:37:45Z</time>
      </trkpt>
      <trkpt lat="44.39179" lon="3.74301">
        <ele>1138.82</ele>
        <time>2021-07-22T09:37:57Z</time>
      </trkpt>
      <trkpt lat="44.39153" lon="3.74297">
        <ele>1136.42</ele>
        <time>2021-07-22T09:38:04Z</time>
      </trkpt>
      <trkpt lat="44.39138" lon="3.74303">
        <ele>1135.94</ele>
        <time>2021-07-22T09:38:08Z</time>
      </trkpt>
      <trkpt lat="44.3911" lon="3.74337">
        <ele>1134.97</ele>
        <time>2021-07-22T09:38:15Z</time>
      </trkpt>
      <trkpt lat="44.3906" lon="3.74363">
        <ele>1133.53</ele>
        <time>2021-07-22T09:38:25Z</time>
      </trkpt>
      <trkpt lat="44.39056" lon="3.74365">
        <ele>1134.01</ele>
        <time>2021-07-22T09:38:26Z</time>
      </trkpt>
      <trkpt lat="44.39017" lon="3.74407">
        <ele>1133.05</ele>
        <time>2021-07-22T09:38:36Z</time>
      </trkpt>
      <trkpt lat="44.39011" lon="3.74414">
        <ele>1133.05</ele>
        <time>2021-07-22T09:38:38Z</time>
      </trkpt>
      <trkpt lat="44.38976" lon="3.74446">
        <ele>1138.82</ele>
        <time>2021-07-22T09:38:52Z</time>
      </trkpt>
      <trkpt lat="44.38936" lon="3.7447">
        <ele>1144.59</ele>
        <time>2021-07-22T09:39:10Z</time>
      </trkpt>
      <trkpt lat="44.38922" lon="3.74474">
        <ele>1146.51</ele>
        <time>2021-07-22T09:39:23Z</time>
      </trkpt>
      <trkpt lat="44.38922" lon="3.74474">
        <ele>1146.51</ele>
        <time>2021-07-22T09:39:54Z</time>
      </trkpt>
      <trkpt lat="44.38923" lon="3.74475">
        <ele>1146.99</ele>
        <time>2021-07-22T09:40:20Z</time>
      </trkpt>
      <trkpt lat="44.38921" lon="3.74474">
        <ele>1146.99</ele>
        <time>2021-07-22T09:40:22Z</time>
      </trkpt>
      <trkpt lat="44.38883" lon="3.74475">
        <ele>1146.99</ele>
        <time>2021-07-22T09:40:34Z</time>
      </trkpt>
      <trkpt lat="44.38871" lon="3.74472">
        <ele>1146.99</ele>
        <time>2021-07-22T09:40:37Z</time>
      </trkpt>
      <trkpt lat="44.38862" lon="3.74469">
        <ele>1146.51</ele>
        <time>2021-07-22T09:40:39Z</time>
      </trkpt>
      <trkpt lat="44.38805" lon="3.74479">
        <ele>1143.14</ele>
        <time>2021-07-22T09:40:49Z</time>
      </trkpt>
      <trkpt lat="44.38739" lon="3.74501">
        <ele>1139.78</ele>
        <time>2021-07-22T09:40:59Z</time>
      </trkpt>
      <trkpt lat="44.38722" lon="3.74514">
        <ele>1139.3</ele>
        <time>2021-07-22T09:41:02Z</time>
      </trkpt>
      <trkpt lat="44.387" lon="3.74533">
        <ele>1137.86</ele>
        <time>2021-07-22T09:41:06Z</time>
      </trkpt>
      <trkpt lat="44.38676" lon="3.74542">
        <ele>1137.38</ele>
        <time>2021-07-22T09:41:10Z</time>
      </trkpt>
      <trkpt lat="44.38645" lon="3.74539">
        <ele>1136.42</ele>
        <time>2021-07-22T09:41:15Z</time>
      </trkpt>
      <trkpt lat="44.38606" lon="3.74523">
        <ele>1134.97</ele>
        <time>2021-07-22T09:41:21Z</time>
      </trkpt>
      <trkpt lat="44.38563" lon="3.74484">
        <ele>1132.09</ele>
        <time>2021-07-22T09:41:28Z</time>
      </trkpt>
      <trkpt lat="44.3854" lon="3.74464">
        <ele>1132.09</ele>
        <time>2021-07-22T09:41:32Z</time>
      </trkpt>
      <trkpt lat="44.38492" lon="3.74473">
        <ele>1130.17</ele>
        <time>2021-07-22T09:41:39Z</time>
      </trkpt>
      <trkpt lat="44.38456" lon="3.74478">
        <ele>1128.73</ele>
        <time>2021-07-22T09:41:44Z</time>
      </trkpt>
      <trkpt lat="44.38432" lon="3.74472">
        <ele>1128.24</ele>
        <time>2021-07-22T09:41:48Z</time>
      </trkpt>
      <trkpt lat="44.38421" lon="3.74464">
        <ele>1127.76</ele>
        <time>2021-07-22T09:41:50Z</time>
      </trkpt>
      <trkpt lat="44.38391" lon="3.74453">
        <ele>1126.8</ele>
        <time>2021-07-22T09:41:55Z</time>
      </trkpt>
      <trkpt lat="44.38347" lon="3.74452">
        <ele>1123.92</ele>
        <time>2021-07-22T09:42:06Z</time>
      </trkpt>
      <trkpt lat="44.38343" lon="3.7445">
        <ele>1124.88</ele>
        <time>2021-07-22T09:42:17Z</time>
      </trkpt>
      <trkpt lat="44.38342" lon="3.74449">
        <ele>1125.36</ele>
        <time>2021-07-22T09:42:29Z</time>
      </trkpt>
      <trkpt lat="44.38339" lon="3.74447">
        <ele>1123.92</ele>
        <time>2021-07-22T09:42:46Z</time>
      </trkpt>
      <trkpt lat="44.38335" lon="3.74445">
        <ele>1122.96</ele>
        <time>2021-07-22T09:43:03Z</time>
      </trkpt>
      <trkpt lat="44.38329" lon="3.74445">
        <ele>1123.92</ele>
        <time>2021-07-22T09:43:25Z</time>
      </trkpt>
      <trkpt lat="44.38328" lon="3.74444">
        <ele>1123.44</ele>
        <time>2021-07-22T09:43:29Z</time>
      </trkpt>
      <trkpt lat="44.38322" lon="3.74443">
        <ele>1123.44</ele>
        <time>2021-07-22T09:43:33Z</time>
      </trkpt>
      <trkpt lat="44.38314" lon="3.74444">
        <ele>1123.92</ele>
        <time>2021-07-22T09:43:36Z</time>
      </trkpt>
      <trkpt lat="44.38301" lon="3.74455">
        <ele>1123.44</ele>
        <time>2021-07-22T09:43:40Z</time>
      </trkpt>
      <trkpt lat="44.38286" lon="3.7448">
        <ele>1122</ele>
        <time>2021-07-22T09:43:45Z</time>
      </trkpt>
      <trkpt lat="44.38272" lon="3.74491">
        <ele>1121.52</ele>
        <time>2021-07-22T09:43:49Z</time>
      </trkpt>
      <trkpt lat="44.38242" lon="3.74504">
        <ele>1120.55</ele>
        <time>2021-07-22T09:43:56Z</time>
      </trkpt>
      <trkpt lat="44.38231" lon="3.74516">
        <ele>1120.55</ele>
        <time>2021-07-22T09:44:00Z</time>
      </trkpt>
      <trkpt lat="44.3819" lon="3.74507">
        <ele>1120.55</ele>
        <time>2021-07-22T09:44:11Z</time>
      </trkpt>
      <trkpt lat="44.38168" lon="3.745">
        <ele>1120.07</ele>
        <time>2021-07-22T09:44:16Z</time>
      </trkpt>
      <trkpt lat="44.38139" lon="3.74487">
        <ele>1118.63</ele>
        <time>2021-07-22T09:44:21Z</time>
      </trkpt>
      <trkpt lat="44.38105" lon="3.74468">
        <ele>1117.67</ele>
        <time>2021-07-22T09:44:28Z</time>
      </trkpt>
      <trkpt lat="44.38087" lon="3.74465">
        <ele>1116.23</ele>
        <time>2021-07-22T09:44:32Z</time>
      </trkpt>
      <trkpt lat="44.38073" lon="3.74475">
        <ele>1113.82</ele>
        <time>2021-07-22T09:44:36Z</time>
      </trkpt>
      <trkpt lat="44.38056" lon="3.74474">
        <ele>1110.46</ele>
        <time>2021-07-22T09:44:43Z</time>
      </trkpt>
      <trkpt lat="44.38041" lon="3.74444">
        <ele>1107.1</ele>
        <time>2021-07-22T09:44:51Z</time>
      </trkpt>
      <trkpt lat="44.38038" lon="3.74444">
        <ele>1106.61</ele>
        <time>2021-07-22T09:44:52Z</time>
      </trkpt>
      <trkpt lat="44.38026" lon="3.74448">
        <ele>1105.65</ele>
        <time>2021-07-22T09:44:55Z</time>
      </trkpt>
      <trkpt lat="44.38008" lon="3.74447">
        <ele>1104.21</ele>
        <time>2021-07-22T09:44:59Z</time>
      </trkpt>
      <trkpt lat="44.37977" lon="3.74455">
        <ele>1103.73</ele>
        <time>2021-07-22T09:45:06Z</time>
      </trkpt>
      <trkpt lat="44.37966" lon="3.74446">
        <ele>1102.77</ele>
        <time>2021-07-22T09:45:16Z</time>
      </trkpt>
      <trkpt lat="44.37962" lon="3.7444">
        <ele>1102.77</ele>
        <time>2021-07-22T09:45:29Z</time>
      </trkpt>
      <trkpt lat="44.37958" lon="3.74439">
        <ele>1103.73</ele>
        <time>2021-07-22T09:45:43Z</time>
      </trkpt>
      <trkpt lat="44.37947" lon="3.7444">
        <ele>1103.25</ele>
        <time>2021-07-22T09:45:52Z</time>
      </trkpt>
      <trkpt lat="44.37928" lon="3.74442">
        <ele>1103.73</ele>
        <time>2021-07-22T09:46:06Z</time>
      </trkpt>
      <trkpt lat="44.37927" lon="3.74442">
        <ele>1103.25</ele>
        <time>2021-07-22T09:46:07Z</time>
      </trkpt>
      <trkpt lat="44.37923" lon="3.74442">
        <ele>1102.77</ele>
        <time>2021-07-22T09:46:10Z</time>
      </trkpt>
      <trkpt lat="44.37919" lon="3.74442">
        <ele>1102.77</ele>
        <time>2021-07-22T09:46:14Z</time>
      </trkpt>
      <trkpt lat="44.37907" lon="3.74446">
        <ele>1103.25</ele>
        <time>2021-07-22T09:46:29Z</time>
      </trkpt>
      <trkpt lat="44.37906" lon="3.74446">
        <ele>1103.25</ele>
        <time>2021-07-22T09:46:30Z</time>
      </trkpt>
      <trkpt lat="44.37894" lon="3.74438">
        <ele>1102.29</ele>
        <time>2021-07-22T09:46:46Z</time>
      </trkpt>
      <trkpt lat="44.37886" lon="3.74422">
        <ele>1103.25</ele>
        <time>2021-07-22T09:47:00Z</time>
      </trkpt>
      <trkpt lat="44.37875" lon="3.74408">
        <ele>1103.73</ele>
        <time>2021-07-22T09:47:12Z</time>
      </trkpt>
      <trkpt lat="44.37864" lon="3.74395">
        <ele>1105.17</ele>
        <time>2021-07-22T09:47:26Z</time>
      </trkpt>
      <trkpt lat="44.37861" lon="3.74373">
        <ele>1107.58</ele>
        <time>2021-07-22T09:47:43Z</time>
      </trkpt>
      <trkpt lat="44.37857" lon="3.7436">
        <ele>1108.54</ele>
        <time>2021-07-22T09:47:52Z</time>
      </trkpt>
      <trkpt lat="44.37855" lon="3.74353">
        <ele>1110.46</ele>
        <time>2021-07-22T09:47:59Z</time>
      </trkpt>
      <trkpt lat="44.37852" lon="3.74347">
        <ele>1110.94</ele>
        <time>2021-07-22T09:48:11Z</time>
      </trkpt>
      <trkpt lat="44.37847" lon="3.74345">
        <ele>1111.9</ele>
        <time>2021-07-22T09:48:23Z</time>
      </trkpt>
      <trkpt lat="44.37841" lon="3.74334">
        <ele>1112.38</ele>
        <time>2021-07-22T09:48:37Z</time>
      </trkpt>
      <trkpt lat="44.37838" lon="3.74324">
        <ele>1114.31</ele>
        <time>2021-07-22T09:48:46Z</time>
      </trkpt>
      <trkpt lat="44.37833" lon="3.7432">
        <ele>1114.79</ele>
        <time>2021-07-22T09:48:52Z</time>
      </trkpt>
      <trkpt lat="44.37823" lon="3.74315">
        <ele>1115.75</ele>
        <time>2021-07-22T09:49:07Z</time>
      </trkpt>
      <trkpt lat="44.3782" lon="3.74316">
        <ele>1114.79</ele>
        <time>2021-07-22T09:49:21Z</time>
      </trkpt>
      <trkpt lat="44.37814" lon="3.74316">
        <ele>1114.79</ele>
        <time>2021-07-22T09:49:35Z</time>
      </trkpt>
      <trkpt lat="44.3779" lon="3.74326">
        <ele>1113.34</ele>
        <time>2021-07-22T09:49:45Z</time>
      </trkpt>
      <trkpt lat="44.37756" lon="3.74373">
        <ele>1111.9</ele>
        <time>2021-07-22T09:49:59Z</time>
      </trkpt>
      <trkpt lat="44.37737" lon="3.74377">
        <ele>1111.42</ele>
        <time>2021-07-22T09:50:05Z</time>
      </trkpt>
      <trkpt lat="44.37684" lon="3.74362">
        <ele>1109.98</ele>
        <time>2021-07-22T09:50:20Z</time>
      </trkpt>
      <trkpt lat="44.37638" lon="3.74361">
        <ele>1108.54</ele>
        <time>2021-07-22T09:50:33Z</time>
      </trkpt>
      <trkpt lat="44.37633" lon="3.74362">
        <ele>1108.54</ele>
        <time>2021-07-22T09:50:42Z</time>
      </trkpt>
      <trkpt lat="44.37634" lon="3.74362">
        <ele>1109.02</ele>
        <time>2021-07-22T09:51:03Z</time>
      </trkpt>
      <trkpt lat="44.37635" lon="3.74362">
        <ele>1109.02</ele>
        <time>2021-07-22T09:51:36Z</time>
      </trkpt>
      <trkpt lat="44.3763" lon="3.74361">
        <ele>1109.5</ele>
        <time>2021-07-22T09:51:49Z</time>
      </trkpt>
      <trkpt lat="44.37615" lon="3.7435">
        <ele>1108.54</ele>
        <time>2021-07-22T09:52:05Z</time>
      </trkpt>
      <trkpt lat="44.37614" lon="3.7435">
        <ele>1107.1</ele>
        <time>2021-07-22T09:52:19Z</time>
      </trkpt>
      <trkpt lat="44.37614" lon="3.74349">
        <ele>1107.1</ele>
        <time>2021-07-22T09:52:20Z</time>
      </trkpt>
      <trkpt lat="44.37613" lon="3.74344">
        <ele>1106.61</ele>
        <time>2021-07-22T09:52:33Z</time>
      </trkpt>
      <trkpt lat="44.37613" lon="3.74344">
        <ele>1106.13</ele>
        <time>2021-07-22T09:52:54Z</time>
      </trkpt>
      <trkpt lat="44.37613" lon="3.74337">
        <ele>1105.65</ele>
        <time>2021-07-22T09:53:07Z</time>
      </trkpt>
      <trkpt lat="44.37611" lon="3.74333">
        <ele>1105.17</ele>
        <time>2021-07-22T09:53:21Z</time>
      </trkpt>
      <trkpt lat="44.3761" lon="3.74332">
        <ele>1104.69</ele>
        <time>2021-07-22T09:53:33Z</time>
      </trkpt>
      <trkpt lat="44.3761" lon="3.74333">
        <ele>1104.21</ele>
        <time>2021-07-22T09:54:02Z</time>
      </trkpt>
      <trkpt lat="44.3761" lon="3.74333">
        <ele>1104.69</ele>
        <time>2021-07-22T09:54:41Z</time>
      </trkpt>
      <trkpt lat="44.3761" lon="3.74333">
        <ele>1103.25</ele>
        <time>2021-07-22T09:55:21Z</time>
      </trkpt>
      <trkpt lat="44.37609" lon="3.74332">
        <ele>1105.17</ele>
        <time>2021-07-22T09:56:02Z</time>
      </trkpt>
      <trkpt lat="44.37609" lon="3.74333">
        <ele>1105.65</ele>
        <time>2021-07-22T09:56:31Z</time>
      </trkpt>
      <trkpt lat="44.3761" lon="3.74334">
        <ele>1096.52</ele>
        <time>2021-07-22T09:57:17Z</time>
      </trkpt>
      <trkpt lat="44.37609" lon="3.74332">
        <ele>1103.25</ele>
        <time>2021-07-22T09:57:57Z</time>
      </trkpt>
      <trkpt lat="44.37608" lon="3.74332">
        <ele>1102.29</ele>
        <time>2021-07-22T09:58:35Z</time>
      </trkpt>
      <trkpt lat="44.37609" lon="3.74332">
        <ele>1107.58</ele>
        <time>2021-07-22T09:59:13Z</time>
      </trkpt>
      <trkpt lat="44.37605" lon="3.74328">
        <ele>1105.17</ele>
        <time>2021-07-22T09:59:25Z</time>
      </trkpt>
      <trkpt lat="44.37604" lon="3.74327">
        <ele>1103.73</ele>
        <time>2021-07-22T09:59:37Z</time>
      </trkpt>
      <trkpt lat="44.37601" lon="3.74319">
        <ele>1102.77</ele>
        <time>2021-07-22T09:59:41Z</time>
      </trkpt>
      <trkpt lat="44.37587" lon="3.7428">
        <ele>1097</ele>
        <time>2021-07-22T09:59:52Z</time>
      </trkpt>
      <trkpt lat="44.37583" lon="3.74269">
        <ele>1094.12</ele>
        <time>2021-07-22T10:00:01Z</time>
      </trkpt>
      <trkpt lat="44.37579" lon="3.74266">
        <ele>1092.2</ele>
        <time>2021-07-22T10:00:12Z</time>
      </trkpt>
      <trkpt lat="44.37576" lon="3.74263">
        <ele>1091.71</ele>
        <time>2021-07-22T10:00:24Z</time>
      </trkpt>
      <trkpt lat="44.37576" lon="3.74261">
        <ele>1091.23</ele>
        <time>2021-07-22T10:00:39Z</time>
      </trkpt>
      <trkpt lat="44.37564" lon="3.74255">
        <ele>1092.2</ele>
        <time>2021-07-22T10:00:48Z</time>
      </trkpt>
      <trkpt lat="44.37558" lon="3.74265">
        <ele>1092.68</ele>
        <time>2021-07-22T10:00:53Z</time>
      </trkpt>
      <trkpt lat="44.37553" lon="3.74272">
        <ele>1092.68</ele>
        <time>2021-07-22T10:00:58Z</time>
      </trkpt>
      <trkpt lat="44.37546" lon="3.7428">
        <ele>1092.68</ele>
        <time>2021-07-22T10:01:03Z</time>
      </trkpt>
      <trkpt lat="44.37539" lon="3.74282">
        <ele>1093.64</ele>
        <time>2021-07-22T10:01:16Z</time>
      </trkpt>
      <trkpt lat="44.37539" lon="3.74283">
        <ele>1095.56</ele>
        <time>2021-07-22T10:01:28Z</time>
      </trkpt>
      <trkpt lat="44.37531" lon="3.74285">
        <ele>1096.04</ele>
        <time>2021-07-22T10:01:41Z</time>
      </trkpt>
      <trkpt lat="44.37529" lon="3.74286">
        <ele>1095.08</ele>
        <time>2021-07-22T10:01:43Z</time>
      </trkpt>
      <trkpt lat="44.37518" lon="3.74287">
        <ele>1094.12</ele>
        <time>2021-07-22T10:01:56Z</time>
      </trkpt>
      <trkpt lat="44.37515" lon="3.7429">
        <ele>1094.12</ele>
        <time>2021-07-22T10:02:08Z</time>
      </trkpt>
      <trkpt lat="44.37488" lon="3.74313">
        <ele>1091.71</ele>
        <time>2021-07-22T10:02:19Z</time>
      </trkpt>
      <trkpt lat="44.37468" lon="3.74325">
        <ele>1091.23</ele>
        <time>2021-07-22T10:02:28Z</time>
      </trkpt>
      <trkpt lat="44.37446" lon="3.74349">
        <ele>1091.71</ele>
        <time>2021-07-22T10:02:40Z</time>
      </trkpt>
      <trkpt lat="44.37432" lon="3.74364">
        <ele>1092.68</ele>
        <time>2021-07-22T10:02:50Z</time>
      </trkpt>
      <trkpt lat="44.37431" lon="3.74364">
        <ele>1093.16</ele>
        <time>2021-07-22T10:03:05Z</time>
      </trkpt>
      <trkpt lat="44.37431" lon="3.74368">
        <ele>1093.16</ele>
        <time>2021-07-22T10:03:11Z</time>
      </trkpt>
      <trkpt lat="44.37429" lon="3.74385">
        <ele>1091.71</ele>
        <time>2021-07-22T10:03:25Z</time>
      </trkpt>
      <trkpt lat="44.37429" lon="3.74388">
        <ele>1091.23</ele>
        <time>2021-07-22T10:03:36Z</time>
      </trkpt>
      <trkpt lat="44.37428" lon="3.74391">
        <ele>1091.23</ele>
        <time>2021-07-22T10:03:40Z</time>
      </trkpt>
      <trkpt lat="44.37425" lon="3.74396">
        <ele>1091.23</ele>
        <time>2021-07-22T10:03:46Z</time>
      </trkpt>
      <trkpt lat="44.3741" lon="3.74424">
        <ele>1090.75</ele>
        <time>2021-07-22T10:03:58Z</time>
      </trkpt>
      <trkpt lat="44.374" lon="3.74444">
        <ele>1091.23</ele>
        <time>2021-07-22T10:04:05Z</time>
      </trkpt>
      <trkpt lat="44.37392" lon="3.74464">
        <ele>1090.27</ele>
        <time>2021-07-22T10:04:11Z</time>
      </trkpt>
      <trkpt lat="44.37366" lon="3.745">
        <ele>1088.83</ele>
        <time>2021-07-22T10:04:19Z</time>
      </trkpt>
      <trkpt lat="44.37339" lon="3.7452">
        <ele>1088.83</ele>
        <time>2021-07-22T10:04:27Z</time>
      </trkpt>
      <trkpt lat="44.3733" lon="3.74525">
        <ele>1087.87</ele>
        <time>2021-07-22T10:04:38Z</time>
      </trkpt>
      <trkpt lat="44.37326" lon="3.74526">
        <ele>1086.91</ele>
        <time>2021-07-22T10:04:48Z</time>
      </trkpt>
      <trkpt lat="44.37317" lon="3.74529">
        <ele>1085.95</ele>
        <time>2021-07-22T10:05:00Z</time>
      </trkpt>
      <trkpt lat="44.3731" lon="3.74527">
        <ele>1085.47</ele>
        <time>2021-07-22T10:05:11Z</time>
      </trkpt>
      <trkpt lat="44.37302" lon="3.74528">
        <ele>1084.5</ele>
        <time>2021-07-22T10:05:21Z</time>
      </trkpt>
      <trkpt lat="44.37294" lon="3.74525">
        <ele>1083.06</ele>
        <time>2021-07-22T10:05:35Z</time>
      </trkpt>
      <trkpt lat="44.37286" lon="3.74527">
        <ele>1081.62</ele>
        <time>2021-07-22T10:05:46Z</time>
      </trkpt>
      <trkpt lat="44.37277" lon="3.74526">
        <ele>1079.22</ele>
        <time>2021-07-22T10:05:59Z</time>
      </trkpt>
      <trkpt lat="44.37269" lon="3.74524">
        <ele>1077.78</ele>
        <time>2021-07-22T10:06:10Z</time>
      </trkpt>
      <trkpt lat="44.37263" lon="3.74522">
        <ele>1076.33</ele>
        <time>2021-07-22T10:06:20Z</time>
      </trkpt>
      <trkpt lat="44.37257" lon="3.74525">
        <ele>1073.93</ele>
        <time>2021-07-22T10:06:32Z</time>
      </trkpt>
      <trkpt lat="44.37257" lon="3.74525">
        <ele>1073.93</ele>
        <time>2021-07-22T10:06:34Z</time>
      </trkpt>
      <trkpt lat="44.37249" lon="3.74533">
        <ele>1072.49</ele>
        <time>2021-07-22T10:06:39Z</time>
      </trkpt>
      <trkpt lat="44.37241" lon="3.74543">
        <ele>1070.08</ele>
        <time>2021-07-22T10:06:43Z</time>
      </trkpt>
      <trkpt lat="44.3723" lon="3.74567">
        <ele>1066.24</ele>
        <time>2021-07-22T10:06:51Z</time>
      </trkpt>
      <trkpt lat="44.37226" lon="3.74575">
        <ele>1064.8</ele>
        <time>2021-07-22T10:07:00Z</time>
      </trkpt>
      <trkpt lat="44.37226" lon="3.74575">
        <ele>1064.32</ele>
        <time>2021-07-22T10:07:25Z</time>
      </trkpt>
      <trkpt lat="44.37219" lon="3.74581">
        <ele>1063.84</ele>
        <time>2021-07-22T10:07:31Z</time>
      </trkpt>
      <trkpt lat="44.37192" lon="3.74605">
        <ele>1060.47</ele>
        <time>2021-07-22T10:07:43Z</time>
      </trkpt>
      <trkpt lat="44.37191" lon="3.74608">
        <ele>1060.95</ele>
        <time>2021-07-22T10:07:56Z</time>
      </trkpt>
      <trkpt lat="44.37187" lon="3.74614">
        <ele>1059.03</ele>
        <time>2021-07-22T10:08:09Z</time>
      </trkpt>
      <trkpt lat="44.37182" lon="3.74616">
        <ele>1058.55</ele>
        <time>2021-07-22T10:08:22Z</time>
      </trkpt>
      <trkpt lat="44.37178" lon="3.74615">
        <ele>1057.59</ele>
        <time>2021-07-22T10:08:35Z</time>
      </trkpt>
      <trkpt lat="44.37174" lon="3.74613">
        <ele>1057.59</ele>
        <time>2021-07-22T10:08:45Z</time>
      </trkpt>
      <trkpt lat="44.37168" lon="3.7461">
        <ele>1057.11</ele>
        <time>2021-07-22T10:08:49Z</time>
      </trkpt>
      <trkpt lat="44.37164" lon="3.74609">
        <ele>1056.63</ele>
        <time>2021-07-22T10:08:51Z</time>
      </trkpt>
      <trkpt lat="44.3716" lon="3.74607">
        <ele>1055.67</ele>
        <time>2021-07-22T10:08:53Z</time>
      </trkpt>
      <trkpt lat="44.37155" lon="3.74605">
        <ele>1053.26</ele>
        <time>2021-07-22T10:09:03Z</time>
      </trkpt>
      <trkpt lat="44.37149" lon="3.74602">
        <ele>1051.82</ele>
        <time>2021-07-22T10:09:15Z</time>
      </trkpt>
      <trkpt lat="44.37144" lon="3.74603">
        <ele>1049.9</ele>
        <time>2021-07-22T10:09:23Z</time>
      </trkpt>
      <trkpt lat="44.37139" lon="3.74608">
        <ele>1047.49</ele>
        <time>2021-07-22T10:09:36Z</time>
      </trkpt>
      <trkpt lat="44.37139" lon="3.74609">
        <ele>1047.97</ele>
        <time>2021-07-22T10:09:39Z</time>
      </trkpt>
      <trkpt lat="44.37138" lon="3.74621">
        <ele>1046.05</ele>
        <time>2021-07-22T10:09:50Z</time>
      </trkpt>
      <trkpt lat="44.37138" lon="3.74621">
        <ele>1046.05</ele>
        <time>2021-07-22T10:09:53Z</time>
      </trkpt>
      <trkpt lat="44.37133" lon="3.74623">
        <ele>1044.61</ele>
        <time>2021-07-22T10:09:57Z</time>
      </trkpt>
      <trkpt lat="44.37127" lon="3.74616">
        <ele>1043.17</ele>
        <time>2021-07-22T10:10:07Z</time>
      </trkpt>
      <trkpt lat="44.37123" lon="3.74609">
        <ele>1044.13</ele>
        <time>2021-07-22T10:10:19Z</time>
      </trkpt>
      <trkpt lat="44.37121" lon="3.74606">
        <ele>1043.65</ele>
        <time>2021-07-22T10:10:33Z</time>
      </trkpt>
      <trkpt lat="44.3712" lon="3.74607">
        <ele>1042.69</ele>
        <time>2021-07-22T10:10:40Z</time>
      </trkpt>
      <trkpt lat="44.37116" lon="3.74609">
        <ele>1041.73</ele>
        <time>2021-07-22T10:10:44Z</time>
      </trkpt>
      <trkpt lat="44.37113" lon="3.74612">
        <ele>1041.25</ele>
        <time>2021-07-22T10:10:54Z</time>
      </trkpt>
      <trkpt lat="44.37109" lon="3.74614">
        <ele>1040.76</ele>
        <time>2021-07-22T10:11:07Z</time>
      </trkpt>
      <trkpt lat="44.37105" lon="3.74615">
        <ele>1040.28</ele>
        <time>2021-07-22T10:11:17Z</time>
      </trkpt>
      <trkpt lat="44.371" lon="3.74617">
        <ele>1039.32</ele>
        <time>2021-07-22T10:11:19Z</time>
      </trkpt>
      <trkpt lat="44.37086" lon="3.74608">
        <ele>1038.84</ele>
        <time>2021-07-22T10:11:28Z</time>
      </trkpt>
      <trkpt lat="44.37092" lon="3.74598">
        <ele>1037.88</ele>
        <time>2021-07-22T10:11:32Z</time>
      </trkpt>
      <trkpt lat="44.37099" lon="3.74578">
        <ele>1035.96</ele>
        <time>2021-07-22T10:11:38Z</time>
      </trkpt>
      <trkpt lat="44.371" lon="3.74574">
        <ele>1034.04</ele>
        <time>2021-07-22T10:11:47Z</time>
      </trkpt>
      <trkpt lat="44.37102" lon="3.74564">
        <ele>1031.63</ele>
        <time>2021-07-22T10:11:57Z</time>
      </trkpt>
      <trkpt lat="44.37103" lon="3.74561">
        <ele>1031.63</ele>
        <time>2021-07-22T10:12:06Z</time>
      </trkpt>
      <trkpt lat="44.37104" lon="3.74556">
        <ele>1031.63</ele>
        <time>2021-07-22T10:12:12Z</time>
      </trkpt>
      <trkpt lat="44.37112" lon="3.74518">
        <ele>1028.75</ele>
        <time>2021-07-22T10:12:22Z</time>
      </trkpt>
      <trkpt lat="44.37112" lon="3.74507">
        <ele>1025.38</ele>
        <time>2021-07-22T10:12:32Z</time>
      </trkpt>
      <trkpt lat="44.37108" lon="3.74508">
        <ele>1022.98</ele>
        <time>2021-07-22T10:12:43Z</time>
      </trkpt>
      <trkpt lat="44.37107" lon="3.74508">
        <ele>1022.98</ele>
        <time>2021-07-22T10:12:52Z</time>
      </trkpt>
      <trkpt lat="44.371" lon="3.74508">
        <ele>1021.54</ele>
        <time>2021-07-22T10:13:03Z</time>
      </trkpt>
      <trkpt lat="44.371" lon="3.74507">
        <ele>1021.54</ele>
        <time>2021-07-22T10:13:21Z</time>
      </trkpt>
      <trkpt lat="44.371" lon="3.74507">
        <ele>1022.02</ele>
        <time>2021-07-22T10:13:48Z</time>
      </trkpt>
      <trkpt lat="44.37099" lon="3.74507">
        <ele>1022.02</ele>
        <time>2021-07-22T10:14:18Z</time>
      </trkpt>
      <trkpt lat="44.37099" lon="3.74507">
        <ele>1023.46</ele>
        <time>2021-07-22T10:14:41Z</time>
      </trkpt>
      <trkpt lat="44.37098" lon="3.74505">
        <ele>1022.5</ele>
        <time>2021-07-22T10:14:52Z</time>
      </trkpt>
      <trkpt lat="44.37096" lon="3.74504">
        <ele>1021.54</ele>
        <time>2021-07-22T10:14:57Z</time>
      </trkpt>
      <trkpt lat="44.37091" lon="3.74502">
        <ele>1020.1</ele>
        <time>2021-07-22T10:15:09Z</time>
      </trkpt>
      <trkpt lat="44.37091" lon="3.74502">
        <ele>1020.1</ele>
        <time>2021-07-22T10:15:10Z</time>
      </trkpt>
      <trkpt lat="44.3708" lon="3.74502">
        <ele>1017.69</ele>
        <time>2021-07-22T10:15:22Z</time>
      </trkpt>
      <trkpt lat="44.37078" lon="3.74503">
        <ele>1016.73</ele>
        <time>2021-07-22T10:15:25Z</time>
      </trkpt>
      <trkpt lat="44.37068" lon="3.74506">
        <ele>1014.33</ele>
        <time>2021-07-22T10:15:38Z</time>
      </trkpt>
      <trkpt lat="44.37069" lon="3.74506">
        <ele>1014.33</ele>
        <time>2021-07-22T10:15:42Z</time>
      </trkpt>
      <trkpt lat="44.37048" lon="3.74505">
        <ele>1013.37</ele>
        <time>2021-07-22T10:15:52Z</time>
      </trkpt>
      <trkpt lat="44.37021" lon="3.7449">
        <ele>1010.96</ele>
        <time>2021-07-22T10:16:02Z</time>
      </trkpt>
      <trkpt lat="44.37012" lon="3.74487">
        <ele>1009.04</ele>
        <time>2021-07-22T10:16:10Z</time>
      </trkpt>
      <trkpt lat="44.37013" lon="3.74487">
        <ele>1009.04</ele>
        <time>2021-07-22T10:16:12Z</time>
      </trkpt>
      <trkpt lat="44.37" lon="3.745">
        <ele>1006.16</ele>
        <time>2021-07-22T10:16:20Z</time>
      </trkpt>
      <trkpt lat="44.36992" lon="3.74497">
        <ele>1004.72</ele>
        <time>2021-07-22T10:16:22Z</time>
      </trkpt>
      <trkpt lat="44.36974" lon="3.74497">
        <ele>999.43</ele>
        <time>2021-07-22T10:16:31Z</time>
      </trkpt>
      <trkpt lat="44.36978" lon="3.74504">
        <ele>997.51</ele>
        <time>2021-07-22T10:16:44Z</time>
      </trkpt>
      <trkpt lat="44.36971" lon="3.74512">
        <ele>993.18</ele>
        <time>2021-07-22T10:16:57Z</time>
      </trkpt>
      <trkpt lat="44.36968" lon="3.74511">
        <ele>993.18</ele>
        <time>2021-07-22T10:17:03Z</time>
      </trkpt>
      <trkpt lat="44.36962" lon="3.74508">
        <ele>993.66</ele>
        <time>2021-07-22T10:17:08Z</time>
      </trkpt>
      <trkpt lat="44.36956" lon="3.74505">
        <ele>992.7</ele>
        <time>2021-07-22T10:17:19Z</time>
      </trkpt>
      <trkpt lat="44.3695" lon="3.74501">
        <ele>989.33</ele>
        <time>2021-07-22T10:17:29Z</time>
      </trkpt>
      <trkpt lat="44.36941" lon="3.74498">
        <ele>984.05</ele>
        <time>2021-07-22T10:17:41Z</time>
      </trkpt>
      <trkpt lat="44.36937" lon="3.74495">
        <ele>983.09</ele>
        <time>2021-07-22T10:17:45Z</time>
      </trkpt>
      <trkpt lat="44.36932" lon="3.74495">
        <ele>982.6</ele>
        <time>2021-07-22T10:17:51Z</time>
      </trkpt>
      <trkpt lat="44.36921" lon="3.74494">
        <ele>982.12</ele>
        <time>2021-07-22T10:18:03Z</time>
      </trkpt>
      <trkpt lat="44.36914" lon="3.7449">
        <ele>982.12</ele>
        <time>2021-07-22T10:18:08Z</time>
      </trkpt>
      <trkpt lat="44.3691" lon="3.74483">
        <ele>979.72</ele>
        <time>2021-07-22T10:18:18Z</time>
      </trkpt>
      <trkpt lat="44.36904" lon="3.74482">
        <ele>979.72</ele>
        <time>2021-07-22T10:18:30Z</time>
      </trkpt>
      <trkpt lat="44.36898" lon="3.74477">
        <ele>979.24</ele>
        <time>2021-07-22T10:18:42Z</time>
      </trkpt>
      <trkpt lat="44.36898" lon="3.74477">
        <ele>979.24</ele>
        <time>2021-07-22T10:18:44Z</time>
      </trkpt>
      <trkpt lat="44.36885" lon="3.74469">
        <ele>978.28</ele>
        <time>2021-07-22T10:18:50Z</time>
      </trkpt>
      <trkpt lat="44.36865" lon="3.74456">
        <ele>974.43</ele>
        <time>2021-07-22T10:19:01Z</time>
      </trkpt>
      <trkpt lat="44.36863" lon="3.74455">
        <ele>972.51</ele>
        <time>2021-07-22T10:19:12Z</time>
      </trkpt>
      <trkpt lat="44.36861" lon="3.74454">
        <ele>971.07</ele>
        <time>2021-07-22T10:19:20Z</time>
      </trkpt>
      <trkpt lat="44.36835" lon="3.74446">
        <ele>969.63</ele>
        <time>2021-07-22T10:19:30Z</time>
      </trkpt>
      <trkpt lat="44.36833" lon="3.74446">
        <ele>969.63</ele>
        <time>2021-07-22T10:19:31Z</time>
      </trkpt>
      <trkpt lat="44.36819" lon="3.74447">
        <ele>966.74</ele>
        <time>2021-07-22T10:19:41Z</time>
      </trkpt>
      <trkpt lat="44.36799" lon="3.7444">
        <ele>961.94</ele>
        <time>2021-07-22T10:19:53Z</time>
      </trkpt>
      <trkpt lat="44.3679" lon="3.74438">
        <ele>959.53</ele>
        <time>2021-07-22T10:20:03Z</time>
      </trkpt>
      <trkpt lat="44.36789" lon="3.74439">
        <ele>959.05</ele>
        <time>2021-07-22T10:20:10Z</time>
      </trkpt>
      <trkpt lat="44.36767" lon="3.74424">
        <ele>954.73</ele>
        <time>2021-07-22T10:20:20Z</time>
      </trkpt>
      <trkpt lat="44.36765" lon="3.74421">
        <ele>950.88</ele>
        <time>2021-07-22T10:20:32Z</time>
      </trkpt>
      <trkpt lat="44.36761" lon="3.74413">
        <ele>947.04</ele>
        <time>2021-07-22T10:20:46Z</time>
      </trkpt>
      <trkpt lat="44.36756" lon="3.74406">
        <ele>947.04</ele>
        <time>2021-07-22T10:20:56Z</time>
      </trkpt>
      <trkpt lat="44.36745" lon="3.74403">
        <ele>945.59</ele>
        <time>2021-07-22T10:21:08Z</time>
      </trkpt>
      <trkpt lat="44.36736" lon="3.74407">
        <ele>941.75</ele>
        <time>2021-07-22T10:21:22Z</time>
      </trkpt>
      <trkpt lat="44.36732" lon="3.74408">
        <ele>940.31</ele>
        <time>2021-07-22T10:21:32Z</time>
      </trkpt>
      <trkpt lat="44.36728" lon="3.74411">
        <ele>939.83</ele>
        <time>2021-07-22T10:21:43Z</time>
      </trkpt>
      <trkpt lat="44.36728" lon="3.74411">
        <ele>939.83</ele>
        <time>2021-07-22T10:21:44Z</time>
      </trkpt>
      <trkpt lat="44.36706" lon="3.74422">
        <ele>937.42</ele>
        <time>2021-07-22T10:21:53Z</time>
      </trkpt>
      <trkpt lat="44.36693" lon="3.74428">
        <ele>935.5</ele>
        <time>2021-07-22T10:21:58Z</time>
      </trkpt>
      <trkpt lat="44.36669" lon="3.74434">
        <ele>931.65</ele>
        <time>2021-07-22T10:22:08Z</time>
      </trkpt>
      <trkpt lat="44.36653" lon="3.74432">
        <ele>931.65</ele>
        <time>2021-07-22T10:22:14Z</time>
      </trkpt>
      <trkpt lat="44.36639" lon="3.74426">
        <ele>930.69</ele>
        <time>2021-07-22T10:22:21Z</time>
      </trkpt>
      <trkpt lat="44.36633" lon="3.74425">
        <ele>930.21</ele>
        <time>2021-07-22T10:22:25Z</time>
      </trkpt>
      <trkpt lat="44.36626" lon="3.74427">
        <ele>928.77</ele>
        <time>2021-07-22T10:22:34Z</time>
      </trkpt>
      <trkpt lat="44.36621" lon="3.74425">
        <ele>927.81</ele>
        <time>2021-07-22T10:22:38Z</time>
      </trkpt>
      <trkpt lat="44.36605" lon="3.7443">
        <ele>926.37</ele>
        <time>2021-07-22T10:22:46Z</time>
      </trkpt>
      <trkpt lat="44.36604" lon="3.74433">
        <ele>925.41</ele>
        <time>2021-07-22T10:22:57Z</time>
      </trkpt>
      <trkpt lat="44.36601" lon="3.74438">
        <ele>924.45</ele>
        <time>2021-07-22T10:23:05Z</time>
      </trkpt>
      <trkpt lat="44.36591" lon="3.74436">
        <ele>921.08</ele>
        <time>2021-07-22T10:23:17Z</time>
      </trkpt>
      <trkpt lat="44.36589" lon="3.74436">
        <ele>921.08</ele>
        <time>2021-07-22T10:23:34Z</time>
      </trkpt>
      <trkpt lat="44.36589" lon="3.74436">
        <ele>920.6</ele>
        <time>2021-07-22T10:23:41Z</time>
      </trkpt>
      <trkpt lat="44.36567" lon="3.74433">
        <ele>918.2</ele>
        <time>2021-07-22T10:23:48Z</time>
      </trkpt>
      <trkpt lat="44.36522" lon="3.74412">
        <ele>907.14</ele>
        <time>2021-07-22T10:24:00Z</time>
      </trkpt>
      <trkpt lat="44.36484" lon="3.74395">
        <ele>906.66</ele>
        <time>2021-07-22T10:24:12Z</time>
      </trkpt>
      <trkpt lat="44.36484" lon="3.74398">
        <ele>906.66</ele>
        <time>2021-07-22T10:24:23Z</time>
      </trkpt>
      <trkpt lat="44.36489" lon="3.74399">
        <ele>906.18</ele>
        <time>2021-07-22T10:24:28Z</time>
      </trkpt>
      <trkpt lat="44.36489" lon="3.74406">
        <ele>904.74</ele>
        <time>2021-07-22T10:24:36Z</time>
      </trkpt>
      <trkpt lat="44.36481" lon="3.74406">
        <ele>904.26</ele>
        <time>2021-07-22T10:24:38Z</time>
      </trkpt>
      <trkpt lat="44.36451" lon="3.74398">
        <ele>895.12</ele>
        <time>2021-07-22T10:24:46Z</time>
      </trkpt>
      <trkpt lat="44.36437" lon="3.74376">
        <ele>888.88</ele>
        <time>2021-07-22T10:24:51Z</time>
      </trkpt>
      <trkpt lat="44.36419" lon="3.74381">
        <ele>881.67</ele>
        <time>2021-07-22T10:24:58Z</time>
      </trkpt>
      <trkpt lat="44.36392" lon="3.7437">
        <ele>875.9</ele>
        <time>2021-07-22T10:25:07Z</time>
      </trkpt>
      <trkpt lat="44.36382" lon="3.74332">
        <ele>874.46</ele>
        <time>2021-07-22T10:25:17Z</time>
      </trkpt>
      <trkpt lat="44.36365" lon="3.74339">
        <ele>874.46</ele>
        <time>2021-07-22T10:25:23Z</time>
      </trkpt>
      <trkpt lat="44.36333" lon="3.74359">
        <ele>877.34</ele>
        <time>2021-07-22T10:25:35Z</time>
      </trkpt>
      <trkpt lat="44.3631" lon="3.74351">
        <ele>878.3</ele>
        <time>2021-07-22T10:25:49Z</time>
      </trkpt>
      <trkpt lat="44.36308" lon="3.7435">
        <ele>879.26</ele>
        <time>2021-07-22T10:26:05Z</time>
      </trkpt>
      <trkpt lat="44.36308" lon="3.7435">
        <ele>880.22</ele>
        <time>2021-07-22T10:26:23Z</time>
      </trkpt>
      <trkpt lat="44.36295" lon="3.74345">
        <ele>879.74</ele>
        <time>2021-07-22T10:26:35Z</time>
      </trkpt>
      <trkpt lat="44.36288" lon="3.74341">
        <ele>878.78</ele>
        <time>2021-07-22T10:26:39Z</time>
      </trkpt>
      <trkpt lat="44.36285" lon="3.74344">
        <ele>878.3</ele>
        <time>2021-07-22T10:26:41Z</time>
      </trkpt>
      <trkpt lat="44.36274" lon="3.7438">
        <ele>876.86</ele>
        <time>2021-07-22T10:26:55Z</time>
      </trkpt>
      <trkpt lat="44.36256" lon="3.74408">
        <ele>878.3</ele>
        <time>2021-07-22T10:27:07Z</time>
      </trkpt>
      <trkpt lat="44.36256" lon="3.74411">
        <ele>879.26</ele>
        <time>2021-07-22T10:27:17Z</time>
      </trkpt>
      <trkpt lat="44.36258" lon="3.74408">
        <ele>879.26</ele>
        <time>2021-07-22T10:27:31Z</time>
      </trkpt>
      <trkpt lat="44.36264" lon="3.74403">
        <ele>879.74</ele>
        <time>2021-07-22T10:27:38Z</time>
      </trkpt>
      <trkpt lat="44.36264" lon="3.74401">
        <ele>879.74</ele>
        <time>2021-07-22T10:27:45Z</time>
      </trkpt>
      <trkpt lat="44.36266" lon="3.74396">
        <ele>881.19</ele>
        <time>2021-07-22T10:27:54Z</time>
      </trkpt>
      <trkpt lat="44.36258" lon="3.74408">
        <ele>882.15</ele>
        <time>2021-07-22T10:28:04Z</time>
      </trkpt>
      <trkpt lat="44.36257" lon="3.74412">
        <ele>881.67</ele>
        <time>2021-07-22T10:28:15Z</time>
      </trkpt>
      <trkpt lat="44.36256" lon="3.7441">
        <ele>880.22</ele>
        <time>2021-07-22T10:28:45Z</time>
      </trkpt>
      <trkpt lat="44.36257" lon="3.74412">
        <ele>878.3</ele>
        <time>2021-07-22T10:29:16Z</time>
      </trkpt>
      <trkpt lat="44.36257" lon="3.74413">
        <ele>877.82</ele>
        <time>2021-07-22T10:29:43Z</time>
      </trkpt>
      <trkpt lat="44.36258" lon="3.74414">
        <ele>877.34</ele>
        <time>2021-07-22T10:30:15Z</time>
      </trkpt>
      <trkpt lat="44.36259" lon="3.74415">
        <ele>877.34</ele>
        <time>2021-07-22T10:30:47Z</time>
      </trkpt>
      <trkpt lat="44.36256" lon="3.74415">
        <ele>879.26</ele>
        <time>2021-07-22T10:31:18Z</time>
      </trkpt>
      <trkpt lat="44.36257" lon="3.74415">
        <ele>877.82</ele>
        <time>2021-07-22T10:31:52Z</time>
      </trkpt>
      <trkpt lat="44.36257" lon="3.74415">
        <ele>877.34</ele>
        <time>2021-07-22T10:32:18Z</time>
      </trkpt>
      <trkpt lat="44.36257" lon="3.74415">
        <ele>879.26</ele>
        <time>2021-07-22T10:32:44Z</time>
      </trkpt>
      <trkpt lat="44.36257" lon="3.74414">
        <ele>881.67</ele>
        <time>2021-07-22T10:33:12Z</time>
      </trkpt>
      <trkpt lat="44.36257" lon="3.74414">
        <ele>881.67</ele>
        <time>2021-07-22T10:33:41Z</time>
      </trkpt>
      <trkpt lat="44.36257" lon="3.74413">
        <ele>880.71</ele>
        <time>2021-07-22T10:34:13Z</time>
      </trkpt>
      <trkpt lat="44.36257" lon="3.74415">
        <ele>880.22</ele>
        <time>2021-07-22T10:34:41Z</time>
      </trkpt>
      <trkpt lat="44.36258" lon="3.74415">
        <ele>880.22</ele>
        <time>2021-07-22T10:35:08Z</time>
      </trkpt>
      <trkpt lat="44.36259" lon="3.74413">
        <ele>879.74</ele>
        <time>2021-07-22T10:35:33Z</time>
      </trkpt>
      <trkpt lat="44.36258" lon="3.74413">
        <ele>881.19</ele>
        <time>2021-07-22T10:36:03Z</time>
      </trkpt>
      <trkpt lat="44.36258" lon="3.74412">
        <ele>880.22</ele>
        <time>2021-07-22T10:36:24Z</time>
      </trkpt>
      <trkpt lat="44.36267" lon="3.74397">
        <ele>881.19</ele>
        <time>2021-07-22T10:36:38Z</time>
      </trkpt>
      <trkpt lat="44.36267" lon="3.74392">
        <ele>881.19</ele>
        <time>2021-07-22T10:36:42Z</time>
      </trkpt>
      <trkpt lat="44.36265" lon="3.74388">
        <ele>881.67</ele>
        <time>2021-07-22T10:36:56Z</time>
      </trkpt>
      <trkpt lat="44.36264" lon="3.74387">
        <ele>882.63</ele>
        <time>2021-07-22T10:37:23Z</time>
      </trkpt>
      <trkpt lat="44.36265" lon="3.74385">
        <ele>883.11</ele>
        <time>2021-07-22T10:37:53Z</time>
      </trkpt>
      <trkpt lat="44.36266" lon="3.74385">
        <ele>883.11</ele>
        <time>2021-07-22T10:38:17Z</time>
      </trkpt>
      <trkpt lat="44.36267" lon="3.74384">
        <ele>883.59</ele>
        <time>2021-07-22T10:38:40Z</time>
      </trkpt>
      <trkpt lat="44.36267" lon="3.74382">
        <ele>884.07</ele>
        <time>2021-07-22T10:39:09Z</time>
      </trkpt>
      <trkpt lat="44.36267" lon="3.74381">
        <ele>884.55</ele>
        <time>2021-07-22T10:39:36Z</time>
      </trkpt>
      <trkpt lat="44.36267" lon="3.7438">
        <ele>885.03</ele>
        <time>2021-07-22T10:40:04Z</time>
      </trkpt>
      <trkpt lat="44.36268" lon="3.74379">
        <ele>884.55</ele>
        <time>2021-07-22T10:40:32Z</time>
      </trkpt>
      <trkpt lat="44.36268" lon="3.74379">
        <ele>885.03</ele>
        <time>2021-07-22T10:40:59Z</time>
      </trkpt>
      <trkpt lat="44.36269" lon="3.7438">
        <ele>884.55</ele>
        <time>2021-07-22T10:41:23Z</time>
      </trkpt>
      <trkpt lat="44.3627" lon="3.74381">
        <ele>885.03</ele>
        <time>2021-07-22T10:41:50Z</time>
      </trkpt>
      <trkpt lat="44.3627" lon="3.7438">
        <ele>885.03</ele>
        <time>2021-07-22T10:42:18Z</time>
      </trkpt>
      <trkpt lat="44.36271" lon="3.7438">
        <ele>885.51</ele>
        <time>2021-07-22T10:42:40Z</time>
      </trkpt>
      <trkpt lat="44.36271" lon="3.7438">
        <ele>885.51</ele>
        <time>2021-07-22T10:43:10Z</time>
      </trkpt>
      <trkpt lat="44.36272" lon="3.7438">
        <ele>885.99</ele>
        <time>2021-07-22T10:43:35Z</time>
      </trkpt>
      <trkpt lat="44.36273" lon="3.74388">
        <ele>887.91</ele>
        <time>2021-07-22T10:43:45Z</time>
      </trkpt>
      <trkpt lat="44.36272" lon="3.74387">
        <ele>886.47</ele>
        <time>2021-07-22T10:43:59Z</time>
      </trkpt>
      <trkpt lat="44.36271" lon="3.74387">
        <ele>887.43</ele>
        <time>2021-07-22T10:44:26Z</time>
      </trkpt>
      <trkpt lat="44.36272" lon="3.74387">
        <ele>887.43</ele>
        <time>2021-07-22T10:44:56Z</time>
      </trkpt>
      <trkpt lat="44.36272" lon="3.74389">
        <ele>888.4</ele>
        <time>2021-07-22T10:45:32Z</time>
      </trkpt>
      <trkpt lat="44.36271" lon="3.74389">
        <ele>888.88</ele>
        <time>2021-07-22T10:46:07Z</time>
      </trkpt>
      <trkpt lat="44.36272" lon="3.74387">
        <ele>890.32</ele>
        <time>2021-07-22T10:46:45Z</time>
      </trkpt>
      <trkpt lat="44.36272" lon="3.74386">
        <ele>891.76</ele>
        <time>2021-07-22T10:47:19Z</time>
      </trkpt>
      <trkpt lat="44.36272" lon="3.74387">
        <ele>893.2</ele>
        <time>2021-07-22T10:47:55Z</time>
      </trkpt>
      <trkpt lat="44.36271" lon="3.74386">
        <ele>895.61</ele>
        <time>2021-07-22T10:48:24Z</time>
      </trkpt>
      <trkpt lat="44.36271" lon="3.74386">
        <ele>896.57</ele>
        <time>2021-07-22T10:48:55Z</time>
      </trkpt>
      <trkpt lat="44.36271" lon="3.74386">
        <ele>897.05</ele>
        <time>2021-07-22T10:49:25Z</time>
      </trkpt>
      <trkpt lat="44.36272" lon="3.74385">
        <ele>897.05</ele>
        <time>2021-07-22T10:49:55Z</time>
      </trkpt>
      <trkpt lat="44.36272" lon="3.74385">
        <ele>897.05</ele>
        <time>2021-07-22T10:50:27Z</time>
      </trkpt>
      <trkpt lat="44.36272" lon="3.74385">
        <ele>897.05</ele>
        <time>2021-07-22T10:50:56Z</time>
      </trkpt>
      <trkpt lat="44.36272" lon="3.74386">
        <ele>896.09</ele>
        <time>2021-07-22T10:51:30Z</time>
      </trkpt>
      <trkpt lat="44.36274" lon="3.74387">
        <ele>894.16</ele>
        <time>2021-07-22T10:52:00Z</time>
      </trkpt>
      <trkpt lat="44.36275" lon="3.74388">
        <ele>892.72</ele>
        <time>2021-07-22T10:52:29Z</time>
      </trkpt>
      <trkpt lat="44.36275" lon="3.74389">
        <ele>891.76</ele>
        <time>2021-07-22T10:52:54Z</time>
      </trkpt>
      <trkpt lat="44.36275" lon="3.74389">
        <ele>892.72</ele>
        <time>2021-07-22T10:53:23Z</time>
      </trkpt>
      <trkpt lat="44.36275" lon="3.74389">
        <ele>892.24</ele>
        <time>2021-07-22T10:53:52Z</time>
      </trkpt>
      <trkpt lat="44.36275" lon="3.74388">
        <ele>891.76</ele>
        <time>2021-07-22T10:54:17Z</time>
      </trkpt>
      <trkpt lat="44.36274" lon="3.7439">
        <ele>890.32</ele>
        <time>2021-07-22T10:54:46Z</time>
      </trkpt>
      <trkpt lat="44.36274" lon="3.7439">
        <ele>888.88</ele>
        <time>2021-07-22T10:55:13Z</time>
      </trkpt>
      <trkpt lat="44.36274" lon="3.74389">
        <ele>887.91</ele>
        <time>2021-07-22T10:55:43Z</time>
      </trkpt>
      <trkpt lat="44.36275" lon="3.7439">
        <ele>886.95</ele>
        <time>2021-07-22T10:56:12Z</time>
      </trkpt>
      <trkpt lat="44.36275" lon="3.7439">
        <ele>885.51</ele>
        <time>2021-07-22T10:56:42Z</time>
      </trkpt>
      <trkpt lat="44.36275" lon="3.74391">
        <ele>885.03</ele>
        <time>2021-07-22T10:57:08Z</time>
      </trkpt>
      <trkpt lat="44.36275" lon="3.74391">
        <ele>884.55</ele>
        <time>2021-07-22T10:57:34Z</time>
      </trkpt>
      <trkpt lat="44.36274" lon="3.74388">
        <ele>885.03</ele>
        <time>2021-07-22T10:58:05Z</time>
      </trkpt>
      <trkpt lat="44.36273" lon="3.74388">
        <ele>885.51</ele>
        <time>2021-07-22T10:58:37Z</time>
      </trkpt>
      <trkpt lat="44.36271" lon="3.7439">
        <ele>883.11</ele>
        <time>2021-07-22T10:59:12Z</time>
      </trkpt>
      <trkpt lat="44.36269" lon="3.74391">
        <ele>881.67</ele>
        <time>2021-07-22T10:59:43Z</time>
      </trkpt>
      <trkpt lat="44.36268" lon="3.74391">
        <ele>880.22</ele>
        <time>2021-07-22T11:00:25Z</time>
      </trkpt>
      <trkpt lat="44.36267" lon="3.74391">
        <ele>879.26</ele>
        <time>2021-07-22T11:01:02Z</time>
      </trkpt>
      <trkpt lat="44.36266" lon="3.74389">
        <ele>878.3</ele>
        <time>2021-07-22T11:01:36Z</time>
      </trkpt>
      <trkpt lat="44.36265" lon="3.74388">
        <ele>877.34</ele>
        <time>2021-07-22T11:02:11Z</time>
      </trkpt>
      <trkpt lat="44.36264" lon="3.74388">
        <ele>878.3</ele>
        <time>2021-07-22T11:02:49Z</time>
      </trkpt>
      <trkpt lat="44.36263" lon="3.74387">
        <ele>879.26</ele>
        <time>2021-07-22T11:03:27Z</time>
      </trkpt>
      <trkpt lat="44.36264" lon="3.74388">
        <ele>879.74</ele>
        <time>2021-07-22T11:04:01Z</time>
      </trkpt>
      <trkpt lat="44.36264" lon="3.74388">
        <ele>879.74</ele>
        <time>2021-07-22T11:04:33Z</time>
      </trkpt>
      <trkpt lat="44.36264" lon="3.74388">
        <ele>879.26</ele>
        <time>2021-07-22T11:05:08Z</time>
      </trkpt>
      <trkpt lat="44.36264" lon="3.74388">
        <ele>879.26</ele>
        <time>2021-07-22T11:05:42Z</time>
      </trkpt>
      <trkpt lat="44.36265" lon="3.74388">
        <ele>879.26</ele>
        <time>2021-07-22T11:06:10Z</time>
      </trkpt>
      <trkpt lat="44.36265" lon="3.74389">
        <ele>880.71</ele>
        <time>2021-07-22T11:06:41Z</time>
      </trkpt>
      <trkpt lat="44.36265" lon="3.7439">
        <ele>881.67</ele>
        <time>2021-07-22T11:07:17Z</time>
      </trkpt>
      <trkpt lat="44.36265" lon="3.7439">
        <ele>882.63</ele>
        <time>2021-07-22T11:07:47Z</time>
      </trkpt>
      <trkpt lat="44.36265" lon="3.74389">
        <ele>882.63</ele>
        <time>2021-07-22T11:08:16Z</time>
      </trkpt>
      <trkpt lat="44.36265" lon="3.74389">
        <ele>883.59</ele>
        <time>2021-07-22T11:08:45Z</time>
      </trkpt>
      <trkpt lat="44.36265" lon="3.7439">
        <ele>883.11</ele>
        <time>2021-07-22T11:09:15Z</time>
      </trkpt>
      <trkpt lat="44.36265" lon="3.7439">
        <ele>883.11</ele>
        <time>2021-07-22T11:09:45Z</time>
      </trkpt>
      <trkpt lat="44.36264" lon="3.7439">
        <ele>882.15</ele>
        <time>2021-07-22T11:10:15Z</time>
      </trkpt>
      <trkpt lat="44.36266" lon="3.74391">
        <ele>880.22</ele>
        <time>2021-07-22T11:10:45Z</time>
      </trkpt>
      <trkpt lat="44.36266" lon="3.74391">
        <ele>879.26</ele>
        <time>2021-07-22T11:11:18Z</time>
      </trkpt>
      <trkpt lat="44.36267" lon="3.74392">
        <ele>878.78</ele>
        <time>2021-07-22T11:11:48Z</time>
      </trkpt>
      <trkpt lat="44.36267" lon="3.74391">
        <ele>879.26</ele>
        <time>2021-07-22T11:12:18Z</time>
      </trkpt>
      <trkpt lat="44.36267" lon="3.7439">
        <ele>879.74</ele>
        <time>2021-07-22T11:12:48Z</time>
      </trkpt>
      <trkpt lat="44.36268" lon="3.7439">
        <ele>880.22</ele>
        <time>2021-07-22T11:13:18Z</time>
      </trkpt>
      <trkpt lat="44.36267" lon="3.7439">
        <ele>879.74</ele>
        <time>2021-07-22T11:13:49Z</time>
      </trkpt>
      <trkpt lat="44.36266" lon="3.7439">
        <ele>879.74</ele>
        <time>2021-07-22T11:14:23Z</time>
      </trkpt>
      <trkpt lat="44.36265" lon="3.7439">
        <ele>880.71</ele>
        <time>2021-07-22T11:14:58Z</time>
      </trkpt>
      <trkpt lat="44.36266" lon="3.74391">
        <ele>882.63</ele>
        <time>2021-07-22T11:15:34Z</time>
      </trkpt>
      <trkpt lat="44.36266" lon="3.74392">
        <ele>883.59</ele>
        <time>2021-07-22T11:16:05Z</time>
      </trkpt>
      <trkpt lat="44.36268" lon="3.74392">
        <ele>883.59</ele>
        <time>2021-07-22T11:16:42Z</time>
      </trkpt>
      <trkpt lat="44.36267" lon="3.74391">
        <ele>883.11</ele>
        <time>2021-07-22T11:17:18Z</time>
      </trkpt>
      <trkpt lat="44.36266" lon="3.74391">
        <ele>883.59</ele>
        <time>2021-07-22T11:17:57Z</time>
      </trkpt>
      <trkpt lat="44.36264" lon="3.74391">
        <ele>884.55</ele>
        <time>2021-07-22T11:18:37Z</time>
      </trkpt>
      <trkpt lat="44.36263" lon="3.74391">
        <ele>884.55</ele>
        <time>2021-07-22T11:19:11Z</time>
      </trkpt>
      <trkpt lat="44.36267" lon="3.74384">
        <ele>884.55</ele>
        <time>2021-07-22T11:19:26Z</time>
      </trkpt>
      <trkpt lat="44.36272" lon="3.7437">
        <ele>885.51</ele>
        <time>2021-07-22T11:19:39Z</time>
      </trkpt>
      <trkpt lat="44.36276" lon="3.74366">
        <ele>885.51</ele>
        <time>2021-07-22T11:19:45Z</time>
      </trkpt>
      <trkpt lat="44.36274" lon="3.74365">
        <ele>885.51</ele>
        <time>2021-07-22T11:19:47Z</time>
      </trkpt>
      <trkpt lat="44.3627" lon="3.74355">
        <ele>886.47</ele>
        <time>2021-07-22T11:20:01Z</time>
      </trkpt>
      <trkpt lat="44.36265" lon="3.74345">
        <ele>889.36</ele>
        <time>2021-07-22T11:20:15Z</time>
      </trkpt>
      <trkpt lat="44.36261" lon="3.74339">
        <ele>889.36</ele>
        <time>2021-07-22T11:20:26Z</time>
      </trkpt>
      <trkpt lat="44.36254" lon="3.74337">
        <ele>888.88</ele>
        <time>2021-07-22T11:20:39Z</time>
      </trkpt>
      <trkpt lat="44.36246" lon="3.74344">
        <ele>893.68</ele>
        <time>2021-07-22T11:20:53Z</time>
      </trkpt>
      <trkpt lat="44.3624" lon="3.74351">
        <ele>892.72</ele>
        <time>2021-07-22T11:21:06Z</time>
      </trkpt>
      <trkpt lat="44.36235" lon="3.74356">
        <ele>893.2</ele>
        <time>2021-07-22T11:21:21Z</time>
      </trkpt>
      <trkpt lat="44.36233" lon="3.74357">
        <ele>894.64</ele>
        <time>2021-07-22T11:21:43Z</time>
      </trkpt>
      <trkpt lat="44.36233" lon="3.74357">
        <ele>895.12</ele>
        <time>2021-07-22T11:22:09Z</time>
      </trkpt>
      <trkpt lat="44.3623" lon="3.74356">
        <ele>895.12</ele>
        <time>2021-07-22T11:22:24Z</time>
      </trkpt>
      <trkpt lat="44.36227" lon="3.74348">
        <ele>895.12</ele>
        <time>2021-07-22T11:22:37Z</time>
      </trkpt>
      <trkpt lat="44.36227" lon="3.74346">
        <ele>894.64</ele>
        <time>2021-07-22T11:22:56Z</time>
      </trkpt>
      <trkpt lat="44.36228" lon="3.74346">
        <ele>894.64</ele>
        <time>2021-07-22T11:23:10Z</time>
      </trkpt>
      <trkpt lat="44.36227" lon="3.74345">
        <ele>894.16</ele>
        <time>2021-07-22T11:23:31Z</time>
      </trkpt>
      <trkpt lat="44.36229" lon="3.7434">
        <ele>893.68</ele>
        <time>2021-07-22T11:23:55Z</time>
      </trkpt>
      <trkpt lat="44.36229" lon="3.74341">
        <ele>895.12</ele>
        <time>2021-07-22T11:24:26Z</time>
      </trkpt>
      <trkpt lat="44.36229" lon="3.7434">
        <ele>897.05</ele>
        <time>2021-07-22T11:24:58Z</time>
      </trkpt>
      <trkpt lat="44.3623" lon="3.74339">
        <ele>896.09</ele>
        <time>2021-07-22T11:25:31Z</time>
      </trkpt>
      <trkpt lat="44.3623" lon="3.74339">
        <ele>896.09</ele>
        <time>2021-07-22T11:26:00Z</time>
      </trkpt>
      <trkpt lat="44.36231" lon="3.74341">
        <ele>896.57</ele>
        <time>2021-07-22T11:26:41Z</time>
      </trkpt>
      <trkpt lat="44.36232" lon="3.7434">
        <ele>896.57</ele>
        <time>2021-07-22T11:27:14Z</time>
      </trkpt>
      <trkpt lat="44.36233" lon="3.7434">
        <ele>897.05</ele>
        <time>2021-07-22T11:27:50Z</time>
      </trkpt>
      <trkpt lat="44.36234" lon="3.74332">
        <ele>896.57</ele>
        <time>2021-07-22T11:28:09Z</time>
      </trkpt>
      <trkpt lat="44.36237" lon="3.74319">
        <ele>899.93</ele>
        <time>2021-07-22T11:28:24Z</time>
      </trkpt>
      <trkpt lat="44.36241" lon="3.74309">
        <ele>899.93</ele>
        <time>2021-07-22T11:28:37Z</time>
      </trkpt>
      <trkpt lat="44.36244" lon="3.74302">
        <ele>901.37</ele>
        <time>2021-07-22T11:28:50Z</time>
      </trkpt>
      <trkpt lat="44.36247" lon="3.7429">
        <ele>902.82</ele>
        <time>2021-07-22T11:29:05Z</time>
      </trkpt>
      <trkpt lat="44.36245" lon="3.74281">
        <ele>904.26</ele>
        <time>2021-07-22T11:29:19Z</time>
      </trkpt>
      <trkpt lat="44.36245" lon="3.7428">
        <ele>903.78</ele>
        <time>2021-07-22T11:29:37Z</time>
      </trkpt>
      <trkpt lat="44.36245" lon="3.74281">
        <ele>902.82</ele>
        <time>2021-07-22T11:29:57Z</time>
      </trkpt>
      <trkpt lat="44.36247" lon="3.74282">
        <ele>903.3</ele>
        <time>2021-07-22T11:30:16Z</time>
      </trkpt>
      <trkpt lat="44.36246" lon="3.74288">
        <ele>900.41</ele>
        <time>2021-07-22T11:30:28Z</time>
      </trkpt>
      <trkpt lat="44.36245" lon="3.74288">
        <ele>900.41</ele>
        <time>2021-07-22T11:30:48Z</time>
      </trkpt>
      <trkpt lat="44.36247" lon="3.74287">
        <ele>900.41</ele>
        <time>2021-07-22T11:31:16Z</time>
      </trkpt>
      <trkpt lat="44.36247" lon="3.74287">
        <ele>899.93</ele>
        <time>2021-07-22T11:31:47Z</time>
      </trkpt>
      <trkpt lat="44.36246" lon="3.74287">
        <ele>900.41</ele>
        <time>2021-07-22T11:32:17Z</time>
      </trkpt>
      <trkpt lat="44.36247" lon="3.74289">
        <ele>898.97</ele>
        <time>2021-07-22T11:32:53Z</time>
      </trkpt>
      <trkpt lat="44.36248" lon="3.74289">
        <ele>899.45</ele>
        <time>2021-07-22T11:33:20Z</time>
      </trkpt>
      <trkpt lat="44.36248" lon="3.7429">
        <ele>898.49</ele>
        <time>2021-07-22T11:33:52Z</time>
      </trkpt>
      <trkpt lat="44.36247" lon="3.7429">
        <ele>900.41</ele>
        <time>2021-07-22T11:34:22Z</time>
      </trkpt>
      <trkpt lat="44.36245" lon="3.74288">
        <ele>903.78</ele>
        <time>2021-07-22T11:34:54Z</time>
      </trkpt>
      <trkpt lat="44.36245" lon="3.74289">
        <ele>903.3</ele>
        <time>2021-07-22T11:35:25Z</time>
      </trkpt>
      <trkpt lat="44.36246" lon="3.74291">
        <ele>904.26</ele>
        <time>2021-07-22T11:35:54Z</time>
      </trkpt>
      <trkpt lat="44.36246" lon="3.7429">
        <ele>904.26</ele>
        <time>2021-07-22T11:36:23Z</time>
      </trkpt>
      <trkpt lat="44.36242" lon="3.74296">
        <ele>902.82</ele>
        <time>2021-07-22T11:36:34Z</time>
      </trkpt>
      <trkpt lat="44.36241" lon="3.74307">
        <ele>898.49</ele>
        <time>2021-07-22T11:36:46Z</time>
      </trkpt>
      <trkpt lat="44.36239" lon="3.74313">
        <ele>897.05</ele>
        <time>2021-07-22T11:36:51Z</time>
      </trkpt>
      <trkpt lat="44.36237" lon="3.74317">
        <ele>896.57</ele>
        <time>2021-07-22T11:37:07Z</time>
      </trkpt>
      <trkpt lat="44.36234" lon="3.74322">
        <ele>897.05</ele>
        <time>2021-07-22T11:37:34Z</time>
      </trkpt>
      <trkpt lat="44.36234" lon="3.74329">
        <ele>897.05</ele>
        <time>2021-07-22T11:37:39Z</time>
      </trkpt>
      <trkpt lat="44.3623" lon="3.7434">
        <ele>894.64</ele>
        <time>2021-07-22T11:37:53Z</time>
      </trkpt>
      <trkpt lat="44.36229" lon="3.74344">
        <ele>893.68</ele>
        <time>2021-07-22T11:38:14Z</time>
      </trkpt>
      <trkpt lat="44.3623" lon="3.74348">
        <ele>893.2</ele>
        <time>2021-07-22T11:38:27Z</time>
      </trkpt>
      <trkpt lat="44.36236" lon="3.74351">
        <ele>893.2</ele>
        <time>2021-07-22T11:38:39Z</time>
      </trkpt>
      <trkpt lat="44.36236" lon="3.74351">
        <ele>893.68</ele>
        <time>2021-07-22T11:38:41Z</time>
      </trkpt>
      <trkpt lat="44.36256" lon="3.74336">
        <ele>888.88</ele>
        <time>2021-07-22T11:38:49Z</time>
      </trkpt>
      <trkpt lat="44.36261" lon="3.7434">
        <ele>887.91</ele>
        <time>2021-07-22T11:38:51Z</time>
      </trkpt>
      <trkpt lat="44.36271" lon="3.74352">
        <ele>884.55</ele>
        <time>2021-07-22T11:38:56Z</time>
      </trkpt>
      <trkpt lat="44.36279" lon="3.74359">
        <ele>883.59</ele>
        <time>2021-07-22T11:39:02Z</time>
      </trkpt>
      <trkpt lat="44.3629" lon="3.74344">
        <ele>882.15</ele>
        <time>2021-07-22T11:39:10Z</time>
      </trkpt>
      <trkpt lat="44.36312" lon="3.74354">
        <ele>883.11</ele>
        <time>2021-07-22T11:39:23Z</time>
      </trkpt>
      <trkpt lat="44.36323" lon="3.74359">
        <ele>882.63</ele>
        <time>2021-07-22T11:39:28Z</time>
      </trkpt>
      <trkpt lat="44.36326" lon="3.74363">
        <ele>881.67</ele>
        <time>2021-07-22T11:39:31Z</time>
      </trkpt>
      <trkpt lat="44.36326" lon="3.74377">
        <ele>880.71</ele>
        <time>2021-07-22T11:39:40Z</time>
      </trkpt>
      <trkpt lat="44.36317" lon="3.7442">
        <ele>881.67</ele>
        <time>2021-07-22T11:39:55Z</time>
      </trkpt>
      <trkpt lat="44.36312" lon="3.74437">
        <ele>882.63</ele>
        <time>2021-07-22T11:40:06Z</time>
      </trkpt>
      <trkpt lat="44.36309" lon="3.74438">
        <ele>882.63</ele>
        <time>2021-07-22T11:40:18Z</time>
      </trkpt>
      <trkpt lat="44.36309" lon="3.74441">
        <ele>882.15</ele>
        <time>2021-07-22T11:40:37Z</time>
      </trkpt>
      <trkpt lat="44.36307" lon="3.7444">
        <ele>882.63</ele>
        <time>2021-07-22T11:40:59Z</time>
      </trkpt>
      <trkpt lat="44.36306" lon="3.7444">
        <ele>882.15</ele>
        <time>2021-07-22T11:41:19Z</time>
      </trkpt>
      <trkpt lat="44.36307" lon="3.7444">
        <ele>882.15</ele>
        <time>2021-07-22T11:41:31Z</time>
      </trkpt>
      <trkpt lat="44.36307" lon="3.74439">
        <ele>882.15</ele>
        <time>2021-07-22T11:41:46Z</time>
      </trkpt>
      <trkpt lat="44.36308" lon="3.7444">
        <ele>882.15</ele>
        <time>2021-07-22T11:41:53Z</time>
      </trkpt>
    </trkseg>
  </trk>
</gpx>